Darstellungsparameter: Aktuell verwendete Einstellungen:
Skalierung der Graphiken ... ?
xyx+y,   Skalierungsfaktor:      Skalierung: Modus: x, Faktor: 1
Darstellungszeitraum ... ?
Vom - - bis: - -   Zeitraum: 03.02.2010 - 02.05.2010
Min/Max/Avg-Anzeige ... ?
Zeige MMA aktuell
Zeige MMA Monat
Zeige MMA alles
Zeige --A aktuell
Zeige --A Monat
Zeige --A alles
Keine MMA-Anzeige
MMA:
Average (ber die Originaldaten)
MMA-Basis: 03.02.2010 - 02.05.2010
Quicknavigation für Darstellung... ?
Tage:      1T, 2T, 3T, 5T -1T -2T -3T -5T +1T +2T +3T +5T
Wochen: 1W, 2W, 3W -1W -2W -3W +1W +2W +3W
Monate: 1M, 3M, 6M -1M -3M -6M +1M +3M +6M
Jahre:    1J, 3J, 5J, 10J -1J -3J -5J -10J +1J +3J +5J +10J
Nutze für die Darstellung ... ?
Originaldaten oder Mittelwerte auf ...
Stundenbasis Tagesbasis Wochenbasis
Monatsbasis Jahresbasis      Datenbasis: Original-Daten
Darstellen als:
Statistik (Auto) Statistik J:M      Darstellung:
Zur Graphik,    zurück zur Übersicht aller Sensoren.
 
Tabellarische Datenbersicht: ?
 
Sensor: Nr:Datum:Temp:Abs-Feuchte:Windchill:Wind:
Aussen-T/F 1 03-02-2010 00:00:04 2.8 C 4.81 g/m*3 2.8 C 0 km/h
2 03-02-2010 00:12:04 3.3 C 4.91 g/m*3 3.3 C 0 km/h
3 03-02-2010 00:24:04 3.6 C 4.89 g/m*3 3.6 C 0 km/h
4 03-02-2010 00:36:04 3.7 C 4.92 g/m*3 3.7 C 0 km/h
5 03-02-2010 00:48:04 4 C 4.96 g/m*3 4 C 0 km/h
6 03-02-2010 01:00:04 4 C 4.9 g/m*3 4 C 0 km/h
7 03-02-2010 01:12:04 4 C 4.9 g/m*3 4 C 0 km/h
8 03-02-2010 01:24:04 4 C 4.96 g/m*3 4 C 0 km/h
9 03-02-2010 01:36:04 4.3 C 5.06 g/m*3 4.3 C 0 km/h
10 03-02-2010 01:48:04 4.4 C 5.09 g/m*3 4.4 C 0 km/h
11 03-02-2010 02:00:04 4.6 C 5.16 g/m*3 4.6 C 0 km/h
12 03-02-2010 02:12:04 4.8 C 5.16 g/m*3 4.8 C 0 km/h
13 03-02-2010 02:24:04 4.7 C 5.13 g/m*3 4.7 C 0 km/h
14 03-02-2010 02:36:04 2.9 C 4.78 g/m*3 2.9 C 0 km/h
15 03-02-2010 02:48:04 2.4 C 4.8 g/m*3 2.4 C 0 km/h
16 03-02-2010 03:00:04 2.1 C 4.81 g/m*3 2.1 C 0 km/h
17 03-02-2010 03:12:04 1.9 C 4.86 g/m*3 1.9 C 0 km/h
18 03-02-2010 03:24:04 1.7 C 4.85 g/m*3 1.7 C 0 km/h
19 03-02-2010 03:36:04 1.6 C 4.87 g/m*3 1.6 C 0 km/h
20 03-02-2010 03:48:04 1.6 C 4.87 g/m*3 1.6 C 0 km/h
21 03-02-2010 04:00:05 1.5 C 4.89 g/m*3 1.5 C 0 km/h
22 03-02-2010 04:12:05 1.2 C 4.79 g/m*3 1.2 C 0 km/h
23 03-02-2010 04:24:05 0.9 C 4.69 g/m*3 0.9 C 0 km/h
24 03-02-2010 04:36:05 0.8 C 4.66 g/m*3 0.8 C 0 km/h
25 03-02-2010 04:48:05 1 C 4.72 g/m*3 1 C 0 km/h
Sensor: Nr:Datum:Temp:Abs-Feuchte:Windchill:Wind:
Aussen-T/F 26 03-02-2010 05:00:05 1.1 C 4.81 g/m*3 1.1 C 0 km/h
27 03-02-2010 05:12:05 1.1 C 4.81 g/m*3 1.1 C 0 km/h
28 03-02-2010 05:24:05 1.1 C 4.86 g/m*3 1.1 C 0 km/h
29 03-02-2010 05:36:05 1.1 C 4.86 g/m*3 1.1 C 0 km/h
30 03-02-2010 05:48:05 1.2 C 4.89 g/m*3 1.2 C 0 km/h
31 03-02-2010 06:00:05 1.1 C 4.91 g/m*3 1.1 C 0 km/h
32 03-02-2010 06:12:05 1.1 C 4.91 g/m*3 1.1 C 0 km/h
33 03-02-2010 06:24:05 1.1 C 4.91 g/m*3 1.1 C 0 km/h
34 03-02-2010 06:36:05 1 C 4.88 g/m*3 1 C 0 km/h
35 03-02-2010 06:48:05 1.1 C 4.91 g/m*3 1.1 C 0 km/h
36 03-02-2010 07:00:05 1 C 4.88 g/m*3 1 C 0 km/h
37 03-02-2010 07:12:03 0.9 C 4.9 g/m*3 0.9 C 0 km/h
38 03-02-2010 07:24:02 1 C 4.88 g/m*3 1 C 0 km/h
39 03-02-2010 07:36:03 1 C 4.93 g/m*3 1 C 0 km/h
40 03-02-2010 07:48:02 1 C 4.93 g/m*3 1 C 0 km/h
41 03-02-2010 08:00:02 1 C 4.93 g/m*3 1 C 0 km/h
42 03-02-2010 08:12:01 1 C 4.93 g/m*3 1 C 0 km/h
43 03-02-2010 08:24:02 1 C 4.93 g/m*3 1 C 0 km/h
44 03-02-2010 08:36:02 1.1 C 4.96 g/m*3 1.1 C 0 km/h
45 03-02-2010 08:48:02 1.2 C 5 g/m*3 1.2 C 0 km/h
46 03-02-2010 09:00:02 1.2 C 5 g/m*3 1.2 C 0 km/h
47 03-02-2010 09:12:03 1.3 C 5.03 g/m*3 1.3 C 0 km/h
48 03-02-2010 09:24:02 1.5 C 5.1 g/m*3 1.5 C 0 km/h
49 03-02-2010 09:36:02 1.5 C 5.1 g/m*3 1.5 C 0 km/h
50 03-02-2010 09:48:02 1.7 C 5.17 g/m*3 1.7 C 0 km/h
Sensor: Nr:Datum:Temp:Abs-Feuchte:Windchill:Wind:
Aussen-T/F 51 03-02-2010 10:00:02 2 C 5.22 g/m*3 2 C 0 km/h
52 03-02-2010 10:12:01 2.2 C 5.29 g/m*3 2.2 C 0 km/h
53 03-02-2010 10:24:02 2.3 C 5.27 g/m*3 2.3 C 0 km/h
54 03-02-2010 10:36:02 2.7 C 5.36 g/m*3 2.7 C 0 km/h
55 03-02-2010 10:48:02 3.1 C 5.45 g/m*3 3.1 C 0 km/h
56 03-02-2010 11:00:02 3.1 C 5.33 g/m*3 3.1 C 0 km/h
57 03-02-2010 11:12:02 3 C 5.11 g/m*3 3 C 0 km/h
58 03-02-2010 11:24:02 3.3 C 5.22 g/m*3 3.3 C 0 km/h
59 03-02-2010 11:36:02 3.3 C 5.1 g/m*3 3.3 C 0 km/h
60 03-02-2010 11:48:02 3.1 C 4.97 g/m*3 3.1 C 0 km/h
61 03-02-2010 12:00:02 3.2 C 5.06 g/m*3 3.2 C 0 km/h
62 03-02-2010 12:12:01 3.1 C 5.03 g/m*3 3.1 C 0 km/h
63 03-02-2010 12:24:02 3 C 5.05 g/m*3 3 C 0 km/h
64 03-02-2010 12:36:02 3 C 5.11 g/m*3 3 C 0 km/h
65 03-02-2010 12:48:02 3.1 C 5.15 g/m*3 3.1 C 0 km/h
66 03-02-2010 13:00:02 3.1 C 5.21 g/m*3 3.1 C 0 km/h
67 03-02-2010 13:12:02 3.1 C 5.21 g/m*3 3.1 C 0 km/h
68 03-02-2010 13:24:02 3.3 C 5.28 g/m*3 3.3 C 0 km/h
69 03-02-2010 13:36:02 3.2 C 5.24 g/m*3 3.2 C 0 km/h
70 03-02-2010 13:48:02 3.3 C 5.28 g/m*3 3.3 C 0 km/h
71 03-02-2010 14:00:02 3.3 C 5.28 g/m*3 3.3 C 0 km/h
72 03-02-2010 14:12:02 3.3 C 5.28 g/m*3 3.3 C 0 km/h
73 03-02-2010 14:24:02 3.3 C 5.28 g/m*3 3.3 C 0 km/h
74 03-02-2010 14:36:02 3.3 C 5.28 g/m*3 3.3 C 0 km/h
75 03-02-2010 14:48:02 3.2 C 5.24 g/m*3 3.2 C 0 km/h
Sensor: Nr:Datum:Temp:Abs-Feuchte:Windchill:Wind:
Aussen-T/F 76 03-02-2010 15:00:02 3.2 C 5.24 g/m*3 3.2 C 0 km/h
77 03-02-2010 15:12:02 3.1 C 5.27 g/m*3 3.1 C 0 km/h
78 03-02-2010 15:24:02 2.9 C 5.2 g/m*3 2.9 C 0 km/h
79 03-02-2010 15:36:02 3 C 5.23 g/m*3 3 C 0 km/h
80 03-02-2010 15:48:02 2.9 C 5.26 g/m*3 2.9 C 0 km/h
81 03-02-2010 16:00:02 2.8 C 5.22 g/m*3 2.8 C 0 km/h
82 03-02-2010 16:12:02 2.6 C 5.15 g/m*3 2.6 C 0 km/h
83 03-02-2010 16:24:02 2.6 C 5.15 g/m*3 2.6 C 0 km/h
84 03-02-2010 16:36:02 2.5 C 5.12 g/m*3 2.5 C 0 km/h
85 03-02-2010 16:48:02 2.4 C 5.08 g/m*3 2.4 C 0 km/h
86 03-02-2010 17:00:02 2.4 C 5.14 g/m*3 2.4 C 0 km/h
87 03-02-2010 17:12:02 2.3 C 5.1 g/m*3 2.3 C 0 km/h
88 03-02-2010 17:24:02 2.2 C 5.07 g/m*3 2.2 C 0 km/h
89 03-02-2010 17:36:02 2.1 C 5.04 g/m*3 2.1 C 0 km/h
90 03-02-2010 17:48:01 1.9 C 5.02 g/m*3 1.9 C 0 km/h
91 03-02-2010 18:00:01 1.9 C 5.02 g/m*3 1.9 C 0 km/h
92 03-02-2010 18:12:02 1.9 C 5.02 g/m*3 1.9 C 0 km/h
93 03-02-2010 18:24:01 1.9 C 5.08 g/m*3 1.9 C 0 km/h
94 03-02-2010 18:36:01 1.9 C 5.08 g/m*3 1.9 C 0 km/h
95 03-02-2010 18:48:01 1.8 C 5.04 g/m*3 1.8 C 0 km/h
96 03-02-2010 19:00:01 1.8 C 5.04 g/m*3 1.8 C 0 km/h
97 03-02-2010 19:12:02 1.7 C 5.01 g/m*3 1.7 C 0 km/h
98 03-02-2010 19:20:01 1.7 C 5.01 g/m*3 1.7 C 0 km/h
99 03-02-2010 19:45:01 1.8 C 5.04 g/m*3 1.8 C 0 km/h
100 03-02-2010 20:10:02 1.9 C 5.13 g/m*3 1.9 C 0 km/h
Sensor: Nr:Datum:Temp:Abs-Feuchte:Windchill:Wind:
Aussen-T/F 101 03-02-2010 20:35:01 1.8 C 5.1 g/m*3 1.8 C 0 km/h
102 03-02-2010 21:00:01 1.7 C 5.06 g/m*3 1.7 C 0 km/h
103 03-02-2010 21:25:01 1.7 C 5.06 g/m*3 1.7 C 0 km/h
104 03-02-2010 21:50:02 1.8 C 5.1 g/m*3 1.8 C 0 km/h
105 03-02-2010 22:15:03 1.8 C 5.1 g/m*3 1.8 C 0 km/h
106 03-02-2010 22:40:02 1.8 C 5.1 g/m*3 1.8 C 0 km/h
107 03-02-2010 23:05:02 1.8 C 5.1 g/m*3 1.8 C 0 km/h
108 03-02-2010 23:30:02 1.8 C 5.1 g/m*3 1.8 C 0 km/h
109 03-02-2010 23:55:02 2 C 5.17 g/m*3 2 C 0 km/h
110 04-02-2010 00:20:02 2 C 5.17 g/m*3 2 C 0 km/h
111 04-02-2010 00:45:02 2 C 5.17 g/m*3 2 C 0 km/h
112 04-02-2010 01:10:02 2 C 5.17 g/m*3 2 C 0 km/h
113 04-02-2010 01:35:02 2 C 5.22 g/m*3 2 C 0 km/h
114 04-02-2010 02:00:02 2.1 C 5.26 g/m*3 2.1 C 0 km/h
115 04-02-2010 02:25:03 2.2 C 5.29 g/m*3 2.2 C 0 km/h
116 04-02-2010 02:51:03 2.1 C 5.26 g/m*3 2.1 C 0 km/h
117 04-02-2010 03:16:04 2.2 C 5.29 g/m*3 2.2 C 0 km/h
118 04-02-2010 03:41:01 2.3 C 5.33 g/m*3 2.3 C 0 km/h
119 04-02-2010 04:06:02 2.3 C 5.33 g/m*3 2.3 C 0 km/h
120 04-02-2010 04:31:02 2.3 C 5.33 g/m*3 2.3 C 0 km/h
121 04-02-2010 04:56:01 2.4 C 5.37 g/m*3 2.4 C 0 km/h
122 04-02-2010 05:21:02 2.5 C 5.46 g/m*3 2.5 C 0 km/h
123 04-02-2010 05:46:02 2.7 C 5.54 g/m*3 2.7 C 0 km/h
124 04-02-2010 06:11:01 3 C 5.65 g/m*3 3 C 0 km/h
125 04-02-2010 06:51:02 3.6 C 5.88 g/m*3 3.6 C 0 km/h
Sensor: Nr:Datum:Temp:Abs-Feuchte:Windchill:Wind:
Aussen-T/F 126 04-02-2010 07:16:02 3.4 C 5.8 g/m*3 3.4 C 0 km/h
127 04-02-2010 07:41:02 3.2 C 5.72 g/m*3 3.2 C 0 km/h
128 04-02-2010 08:06:02 3.3 C 5.76 g/m*3 3.3 C 0 km/h
129 04-02-2010 08:31:02 3.2 C 5.72 g/m*3 3.2 C 0 km/h
130 04-02-2010 08:56:02 3.3 C 5.76 g/m*3 3.3 C 0 km/h
131 04-02-2010 09:21:02 3.7 C 5.92 g/m*3 3.7 C 0 km/h
132 04-02-2010 09:46:02 4.5 C 6.24 g/m*3 4.5 C 0 km/h
133 04-02-2010 10:11:02 4.7 C 6.19 g/m*3 4.7 C 0 km/h
134 04-02-2010 10:36:02 5.2 C 6.13 g/m*3 5.2 C 0 km/h
135 04-02-2010 11:01:02 5.7 C 6.19 g/m*3 5.7 C 0 km/h
136 04-02-2010 11:26:02 6.3 C 6.07 g/m*3 6.3 C 0 km/h
137 04-02-2010 11:51:02 6.9 C 6 g/m*3 6.9 C 0 km/h
138 04-02-2010 12:16:02 7.1 C 5.85 g/m*3 7.1 C 0 km/h
139 04-02-2010 12:41:02 7.5 C 5.92 g/m*3 7.5 C 0 km/h
140 04-02-2010 13:06:02 8 C 5.95 g/m*3 8 C 0 km/h
141 04-02-2010 13:31:02 8.5 C 5.98 g/m*3 8.5 C 0 km/h
142 04-02-2010 13:56:02 8.7 C 5.88 g/m*3 8.7 C 0 km/h
143 04-02-2010 14:21:02 8.5 C 5.81 g/m*3 8.5 C 0 km/h
144 04-02-2010 14:46:03 8.2 C 5.61 g/m*3 8.2 C 0 km/h
145 04-02-2010 15:11:03 8.8 C 5.92 g/m*3 8.8 C 0 km/h
146 04-02-2010 15:36:03 8.8 C 5.74 g/m*3 8.8 C 0 km/h
147 04-02-2010 16:01:03 7.8 C 5.55 g/m*3 7.8 C 0 km/h
148 04-02-2010 16:26:03 7.5 C 5.52 g/m*3 7.5 C 0 km/h
149 04-02-2010 16:51:03 6.2 C 5.37 g/m*3 6.2 C 0 km/h
150 04-02-2010 17:16:03 5.7 C 5.48 g/m*3 5.7 C 0 km/h
Sensor: Nr:Datum:Temp:Abs-Feuchte:Windchill:Wind:
Aussen-T/F 151 04-02-2010 17:41:03 5 C 5.37 g/m*3 5 C 0 km/h
152 04-02-2010 18:06:03 4.4 C 5.29 g/m*3 4.4 C 0 km/h
153 04-02-2010 18:31:03 4 C 5.28 g/m*3 4 C 0 km/h
154 04-02-2010 18:56:03 3.6 C 5.2 g/m*3 3.6 C 0 km/h
155 04-02-2010 19:21:03 3.3 C 5.16 g/m*3 3.3 C 0 km/h
156 04-02-2010 19:46:03 3 C 5.11 g/m*3 3 C 0 km/h
157 04-02-2010 20:11:03 2.7 C 5.13 g/m*3 2.7 C 0 km/h
158 04-02-2010 20:36:03 2.5 C 5.12 g/m*3 2.5 C 0 km/h
159 04-02-2010 21:01:03 2.5 C 5.17 g/m*3 2.5 C 0 km/h
160 04-02-2010 21:26:03 2.6 C 5.27 g/m*3 2.6 C 0 km/h
161 04-02-2010 21:51:03 2.1 C 5.04 g/m*3 2.1 C 0 km/h
162 04-02-2010 22:16:03 2.2 C 5.18 g/m*3 2.2 C 0 km/h
163 04-02-2010 22:41:03 1.8 C 5.04 g/m*3 1.8 C 0 km/h
164 04-02-2010 23:06:03 1.8 C 5.1 g/m*3 1.8 C 0 km/h
165 04-02-2010 23:31:03 1.7 C 5.06 g/m*3 1.7 C 0 km/h
166 04-02-2010 23:56:04 2.1 C 5.2 g/m*3 2.1 C 0 km/h
167 05-02-2010 00:21:04 2.6 C 5.44 g/m*3 2.6 C 0 km/h
168 05-02-2010 00:46:04 2.2 C 5.24 g/m*3 2.2 C 0 km/h
169 05-02-2010 01:11:04 2 C 5.17 g/m*3 2 C 0 km/h
170 05-02-2010 01:36:04 1.7 C 5.12 g/m*3 1.7 C 0 km/h
171 05-02-2010 02:01:04 2.2 C 5.24 g/m*3 2.2 C 0 km/h
172 05-02-2010 02:26:04 2.6 C 5.38 g/m*3 2.6 C 0 km/h
173 05-02-2010 02:51:04 2.7 C 5.3 g/m*3 2.7 C 0 km/h
174 05-02-2010 03:16:04 2.7 C 5.19 g/m*3 2.7 C 0 km/h
175 05-02-2010 03:41:04 2.8 C 5.04 g/m*3 2.8 C 0 km/h
Sensor: Nr:Datum:Temp:Abs-Feuchte:Windchill:Wind:
Aussen-T/F 176 05-02-2010 04:06:04 2.8 C 5.04 g/m*3 2.8 C 0 km/h
177 05-02-2010 04:31:04 2.8 C 4.93 g/m*3 2.8 C 0 km/h
178 05-02-2010 04:56:04 2.8 C 4.93 g/m*3 2.8 C 0 km/h
179 05-02-2010 05:21:04 2.7 C 4.89 g/m*3 2.7 C 0 km/h
180 05-02-2010 05:46:04 2.7 C 4.84 g/m*3 2.7 C 0 km/h
181 05-02-2010 06:11:04 2.8 C 4.87 g/m*3 2.8 C 0 km/h
182 05-02-2010 06:36:04 2.7 C 4.84 g/m*3 2.7 C 0 km/h
183 05-02-2010 07:01:04 2.4 C 4.74 g/m*3 2.4 C 0 km/h
184 05-02-2010 07:26:04 2.5 C 4.89 g/m*3 2.5 C 0 km/h
185 05-02-2010 07:51:04 2.8 C 4.99 g/m*3 2.8 C 0 km/h
186 05-02-2010 08:16:04 3.2 C 4.88 g/m*3 3.2 C 0 km/h
187 05-02-2010 08:41:05 3.4 C 4.89 g/m*3 3.4 C 0 km/h
188 05-02-2010 09:06:05 3.6 C 4.89 g/m*3 3.6 C 0 km/h
189 05-02-2010 09:31:05 3.8 C 4.83 g/m*3 3.8 C 0 km/h
190 05-02-2010 09:56:05 4.1 C 4.67 g/m*3 4.1 C 0 km/h
191 05-02-2010 10:21:05 4.1 C 4.54 g/m*3 4.1 C 0 km/h
192 05-02-2010 10:46:05 4 C 4.51 g/m*3 4 C 0 km/h
193 05-02-2010 11:11:05 4.3 C 4.54 g/m*3 4.3 C 0 km/h
194 05-02-2010 11:36:05 4.3 C 4.41 g/m*3 4.3 C 0 km/h
195 05-02-2010 12:01:05 4.4 C 4.37 g/m*3 4.4 C 0 km/h
196 05-02-2010 12:26:05 4.4 C 4.31 g/m*3 4.4 C 0 km/h
197 05-02-2010 12:51:05 4.3 C 4.28 g/m*3 4.3 C 0 km/h
198 05-02-2010 13:16:05 4.5 C 4.4 g/m*3 4.5 C 0 km/h
199 05-02-2010 13:41:05 4.9 C 4.52 g/m*3 4.9 C 0 km/h
200 05-02-2010 14:06:05 5.1 C 4.38 g/m*3 5.1 C 0 km/h
Sensor: Nr:Datum:Temp:Abs-Feuchte:Windchill:Wind:
Aussen-T/F 201 05-02-2010 14:31:05 4.8 C 4.36 g/m*3 4.8 C 0 km/h
202 05-02-2010 14:56:05 4.6 C 4.37 g/m*3 4.6 C 0 km/h
203 05-02-2010 15:21:05 4.5 C 4.4 g/m*3 4.5 C 0 km/h
204 05-02-2010 15:46:05 4.2 C 4.38 g/m*3 4.2 C 0 km/h
205 05-02-2010 16:11:05 3.8 C 4.64 g/m*3 3.8 C 0 km/h
206 05-02-2010 16:36:05 3.6 C 4.7 g/m*3 3.6 C 0 km/h
207 05-02-2010 17:01:05 3.4 C 4.83 g/m*3 3.4 C 0 km/h
208 05-02-2010 17:26:05 3.4 C 4.95 g/m*3 3.4 C 0 km/h
209 05-02-2010 17:51:06 3.2 C 4.94 g/m*3 3.2 C 0 km/h
210 05-02-2010 18:16:06 3.3 C 5.04 g/m*3 3.3 C 0 km/h
211 05-02-2010 18:41:06 3.1 C 5.03 g/m*3 3.1 C 0 km/h
212 05-02-2010 19:06:06 3.2 C 5.12 g/m*3 3.2 C 0 km/h
213 05-02-2010 19:31:06 3 C 5.05 g/m*3 3 C 0 km/h
214 05-02-2010 19:56:06 3.1 C 5.09 g/m*3 3.1 C 0 km/h
215 05-02-2010 20:21:06 3 C 5.11 g/m*3 3 C 0 km/h
216 05-02-2010 20:46:06 2.8 C 5.1 g/m*3 2.8 C 0 km/h
217 05-02-2010 21:11:06 2.8 C 5.16 g/m*3 2.8 C 0 km/h
218 05-02-2010 21:36:06 2.6 C 5.09 g/m*3 2.6 C 0 km/h
219 05-02-2010 22:01:06 2.7 C 5.19 g/m*3 2.7 C 0 km/h
220 05-02-2010 22:26:06 2.9 C 5.26 g/m*3 2.9 C 0 km/h
221 05-02-2010 22:51:06 3 C 5.23 g/m*3 3 C 0 km/h
222 05-02-2010 23:16:06 3 C 5.23 g/m*3 3 C 0 km/h
223 05-02-2010 23:41:06 3 C 5.23 g/m*3 3 C 0 km/h
224 06-02-2010 00:06:06 2.8 C 5.22 g/m*3 2.8 C 0 km/h
225 06-02-2010 00:31:06 2.8 C 5.22 g/m*3 2.8 C 0 km/h
Sensor: Nr:Datum:Temp:Abs-Feuchte:Windchill:Wind:
Aussen-T/F 226 06-02-2010 00:56:06 2.7 C 5.19 g/m*3 2.7 C 0 km/h
227 06-02-2010 01:21:06 2.4 C 5.08 g/m*3 2.4 C 0 km/h
228 06-02-2010 01:46:06 2.1 C 4.98 g/m*3 2.1 C 0 km/h
229 06-02-2010 02:11:06 2.4 C 5.14 g/m*3 2.4 C 0 km/h
230 06-02-2010 02:36:06 2.7 C 5.24 g/m*3 2.7 C 0 km/h
231 06-02-2010 03:01:07 2.8 C 5.28 g/m*3 2.8 C 0 km/h
232 06-02-2010 03:26:07 2.5 C 5.17 g/m*3 2.5 C 0 km/h
233 06-02-2010 03:51:07 2.4 C 5.14 g/m*3 2.4 C 0 km/h
234 06-02-2010 04:16:07 2.6 C 5.27 g/m*3 2.6 C 0 km/h
235 06-02-2010 04:41:07 2.8 C 5.34 g/m*3 2.8 C 0 km/h
236 06-02-2010 05:06:07 3 C 5.41 g/m*3 3 C 0 km/h
237 06-02-2010 05:31:07 3 C 5.41 g/m*3 3 C 0 km/h
238 06-02-2010 05:56:07 3 C 5.41 g/m*3 3 C 0 km/h
239 06-02-2010 06:21:07 3.2 C 5.48 g/m*3 3.2 C 0 km/h
240 06-02-2010 06:46:07 3 C 5.41 g/m*3 3 C 0 km/h
241 06-02-2010 07:11:07 3 C 5.41 g/m*3 3 C 0 km/h
242 06-02-2010 07:36:07 3.1 C 5.45 g/m*3 3.1 C 0 km/h
243 06-02-2010 08:01:07 3.1 C 5.45 g/m*3 3.1 C 0 km/h
244 06-02-2010 08:26:07 3.2 C 5.48 g/m*3 3.2 C 0 km/h
245 06-02-2010 08:51:07 3.4 C 5.56 g/m*3 3.4 C 0 km/h
246 06-02-2010 09:16:07 3.7 C 5.67 g/m*3 3.7 C 0 km/h
247 06-02-2010 09:41:07 4 C 5.72 g/m*3 4 C 0 km/h
248 06-02-2010 10:06:07 4.6 C 5.89 g/m*3 4.6 C 0 km/h
249 06-02-2010 10:31:07 5.1 C 5.95 g/m*3 5.1 C 0 km/h
250 06-02-2010 10:56:07 5.6 C 6.01 g/m*3 5.6 C 0 km/h
Sensor: Nr:Datum:Temp:Abs-Feuchte:Windchill:Wind:
Aussen-T/F 251 06-02-2010 11:21:07 5.7 C 5.84 g/m*3 5.7 C 0 km/h
252 06-02-2010 11:46:07 6.3 C 5.85 g/m*3 6.3 C 0 km/h
253 06-02-2010 12:11:07 6.7 C 5.93 g/m*3 6.7 C 0 km/h
254 06-02-2010 12:36:08 6.9 C 6 g/m*3 6.9 C 0 km/h
255 06-02-2010 13:01:08 7.3 C 5.69 g/m*3 7.3 C 0 km/h
256 06-02-2010 13:26:08 7.4 C 5.65 g/m*3 7.4 C 0 km/h
257 06-02-2010 13:51:08 7.3 C 5.29 g/m*3 7.3 C 0 km/h
258 06-02-2010 14:16:08 7.1 C 5.23 g/m*3 7.1 C 0 km/h
259 06-02-2010 14:41:08 7 C 5.27 g/m*3 7 C 0 km/h
260 06-02-2010 15:06:08 6.7 C 5.39 g/m*3 6.7 C 0 km/h
261 06-02-2010 15:31:08 6.5 C 5.47 g/m*3 6.5 C 0 km/h
262 06-02-2010 15:56:08 6.4 C 5.36 g/m*3 6.4 C 0 km/h
263 06-02-2010 16:21:08 6.2 C 5.44 g/m*3 6.2 C 0 km/h
264 06-02-2010 16:46:08 6 C 5.37 g/m*3 6 C 0 km/h
265 06-02-2010 17:11:08 5.8 C 5.44 g/m*3 5.8 C 0 km/h
266 06-02-2010 17:36:08 5.7 C 5.48 g/m*3 5.7 C 0 km/h
267 06-02-2010 18:01:08 5.5 C 5.41 g/m*3 5.5 C 0 km/h
268 06-02-2010 18:26:08 5.3 C 5.41 g/m*3 5.3 C 0 km/h
269 06-02-2010 18:51:08 5.2 C 5.37 g/m*3 5.2 C 0 km/h
270 06-02-2010 19:16:08 5.1 C 5.4 g/m*3 5.1 C 0 km/h
271 06-02-2010 19:41:08 5.1 C 5.4 g/m*3 5.1 C 0 km/h
272 06-02-2010 20:06:08 5 C 5.37 g/m*3 5 C 0 km/h
273 06-02-2010 20:31:08 4.9 C 5.4 g/m*3 4.9 C 0 km/h
274 06-02-2010 20:56:08 4.9 C 5.47 g/m*3 4.9 C 0 km/h
275 06-02-2010 21:21:09 4.8 C 5.43 g/m*3 4.8 C 0 km/h
Sensor: Nr:Datum:Temp:Abs-Feuchte:Windchill:Wind:
Aussen-T/F 276 06-02-2010 21:46:09 4.8 C 5.43 g/m*3 4.8 C 0 km/h
277 06-02-2010 22:11:09 4.8 C 5.5 g/m*3 4.8 C 0 km/h
278 06-02-2010 22:36:09 4.7 C 5.46 g/m*3 4.7 C 0 km/h
279 06-02-2010 23:01:09 4.7 C 5.46 g/m*3 4.7 C 0 km/h
280 06-02-2010 23:26:09 4.6 C 5.43 g/m*3 4.6 C 0 km/h
281 06-02-2010 23:51:09 4.6 C 5.43 g/m*3 4.6 C 0 km/h
282 07-02-2010 00:16:09 4.5 C 5.46 g/m*3 4.5 C 0 km/h
283 07-02-2010 00:41:09 4.5 C 5.46 g/m*3 4.5 C 0 km/h
284 07-02-2010 01:06:09 4.5 C 5.46 g/m*3 4.5 C 0 km/h
285 07-02-2010 01:31:09 4.6 C 5.49 g/m*3 4.6 C 0 km/h
286 07-02-2010 01:56:09 4.4 C 5.42 g/m*3 4.4 C 0 km/h
287 07-02-2010 02:21:09 4.2 C 5.41 g/m*3 4.2 C 0 km/h
288 07-02-2010 02:46:09 4.1 C 5.38 g/m*3 4.1 C 0 km/h
289 07-02-2010 03:11:09 4.1 C 5.5 g/m*3 4.1 C 0 km/h
290 07-02-2010 03:36:09 4.1 C 5.5 g/m*3 4.1 C 0 km/h
291 07-02-2010 04:01:09 4.1 C 5.57 g/m*3 4.1 C 0 km/h
292 07-02-2010 04:26:09 4 C 5.59 g/m*3 4 C 0 km/h
293 07-02-2010 04:51:09 4 C 5.59 g/m*3 4 C 0 km/h
294 07-02-2010 05:16:09 4.1 C 5.7 g/m*3 4.1 C 0 km/h
295 07-02-2010 05:41:09 3.8 C 5.58 g/m*3 3.8 C 0 km/h
296 07-02-2010 06:06:10 3.8 C 5.65 g/m*3 3.8 C 0 km/h
297 07-02-2010 06:31:10 3.8 C 5.65 g/m*3 3.8 C 0 km/h
298 07-02-2010 06:56:10 3.8 C 5.65 g/m*3 3.8 C 0 km/h
299 07-02-2010 07:21:10 3.7 C 5.61 g/m*3 3.7 C 0 km/h
300 07-02-2010 07:46:10 3.7 C 5.67 g/m*3 3.7 C 0 km/h
Sensor: Nr:Datum:Temp:Abs-Feuchte:Windchill:Wind:
Aussen-T/F 301 07-02-2010 08:11:10 3.8 C 5.71 g/m*3 3.8 C 0 km/h
302 07-02-2010 08:36:10 3.7 C 5.67 g/m*3 3.7 C 0 km/h
303 07-02-2010 09:01:10 3.8 C 5.71 g/m*3 3.8 C 0 km/h
304 07-02-2010 09:26:10 3.9 C 5.75 g/m*3 3.9 C 0 km/h
305 07-02-2010 09:51:10 4.1 C 5.76 g/m*3 4.1 C 0 km/h
306 07-02-2010 10:16:10 4.1 C 5.7 g/m*3 4.1 C 0 km/h
307 07-02-2010 10:41:10 4.5 C 5.72 g/m*3 4.5 C 0 km/h
308 07-02-2010 11:06:10 4.9 C 5.6 g/m*3 4.9 C 0 km/h
309 07-02-2010 11:31:10 4.7 C 5.13 g/m*3 4.7 C 0 km/h
310 07-02-2010 11:56:10 4.5 C 4.93 g/m*3 4.5 C 0 km/h
311 07-02-2010 12:21:10 5.3 C 5.06 g/m*3 5.3 C 0 km/h
312 07-02-2010 12:46:10 5.7 C 4.84 g/m*3 5.7 C 0 km/h
313 07-02-2010 13:11:10 5.6 C 4.67 g/m*3 5.6 C 0 km/h
314 07-02-2010 13:36:10 5.8 C 4.66 g/m*3 5.8 C 0 km/h
315 07-02-2010 14:01:10 6 C 4.57 g/m*3 6 C 0 km/h
316 07-02-2010 14:26:10 6.1 C 4.53 g/m*3 6.1 C 0 km/h
317 07-02-2010 14:51:10 5.7 C 4.41 g/m*3 5.7 C 0 km/h
318 07-02-2010 15:16:11 5.5 C 4.49 g/m*3 5.5 C 0 km/h
319 07-02-2010 15:41:11 5.4 C 4.47 g/m*3 5.4 C 0 km/h
320 07-02-2010 16:06:11 5 C 4.62 g/m*3 5 C 0 km/h
321 07-02-2010 16:31:11 4.8 C 4.76 g/m*3 4.8 C 0 km/h
322 07-02-2010 16:56:11 4.6 C 4.83 g/m*3 4.6 C 0 km/h
323 07-02-2010 17:21:11 4.7 C 4.93 g/m*3 4.7 C 0 km/h
324 07-02-2010 17:46:11 4.5 C 4.93 g/m*3 4.5 C 0 km/h
325 07-02-2010 18:11:11 4.4 C 4.96 g/m*3 4.4 C 0 km/h
Sensor: Nr:Datum:Temp:Abs-Feuchte:Windchill:Wind:
Aussen-T/F 326 07-02-2010 18:36:11 4.2 C 4.96 g/m*3 4.2 C 0 km/h
327 07-02-2010 19:01:11 4.1 C 4.86 g/m*3 4.1 C 0 km/h
328 07-02-2010 19:26:11 3.7 C 4.49 g/m*3 3.7 C 0 km/h
329 07-02-2010 19:51:11 3.7 C 4.42 g/m*3 3.7 C 0 km/h
330 07-02-2010 20:16:11 3.5 C 4.37 g/m*3 3.5 C 0 km/h
331 07-02-2010 20:41:11 3.3 C 4.37 g/m*3 3.3 C 0 km/h
332 07-02-2010 21:06:11 3 C 4.22 g/m*3 3 C 0 km/h
333 07-02-2010 21:31:11 2.7 C 4.08 g/m*3 2.7 C 0 km/h
334 07-02-2010 21:56:11 2.5 C 3.97 g/m*3 2.5 C 0 km/h
335 07-02-2010 22:21:11 2.4 C 3.83 g/m*3 2.4 C 0 km/h
336 07-02-2010 22:46:11 2 C 3.56 g/m*3 2 C 0 km/h
337 07-02-2010 23:11:11 2 C 3.67 g/m*3 2 C 0 km/h
338 07-02-2010 23:36:12 1.7 C 3.65 g/m*3 1.7 C 0 km/h
339 08-02-2010 00:01:12 1.4 C 3.52 g/m*3 1.4 C 0 km/h
340 08-02-2010 00:26:12 1.6 C 3.68 g/m*3 1.6 C 0 km/h
341 08-02-2010 00:51:12 1.4 C 3.47 g/m*3 1.4 C 0 km/h
342 08-02-2010 01:16:12 1.2 C 3.42 g/m*3 1.2 C 0 km/h
343 08-02-2010 01:41:12 1 C 3.43 g/m*3 1 C 0 km/h
344 08-02-2010 02:06:12 0.8 C 3.48 g/m*3 0.8 C 0 km/h
345 08-02-2010 02:31:12 0.8 C 3.48 g/m*3 0.8 C 0 km/h
346 08-02-2010 02:56:12 0.7 C 3.46 g/m*3 0.7 C 0 km/h
347 08-02-2010 03:21:12 0.5 C 3.41 g/m*3 0.5 C 0 km/h
348 08-02-2010 03:46:12 0.5 C 3.41 g/m*3 0.5 C 0 km/h
349 08-02-2010 04:11:12 0.3 C 3.31 g/m*3 0.3 C 0 km/h
350 08-02-2010 04:36:12 0.3 C 3.31 g/m*3 0.3 C 0 km/h
Sensor: Nr:Datum:Temp:Abs-Feuchte:Windchill:Wind:
Aussen-T/F 351 08-02-2010 05:01:12 0.2 C 3.24 g/m*3 0.2 C 0 km/h
352 08-02-2010 05:26:12 -0.1 C 3.22 g/m*3 -0.1 C 0 km/h
353 08-02-2010 05:51:12 -0.3 C 3.23 g/m*3 -0.3 C 0 km/h
354 08-02-2010 06:16:12 -0.4 C 3.25 g/m*3 -0.4 C 0 km/h
355 08-02-2010 06:41:12 -0.3 C 3.23 g/m*3 -0.3 C 0 km/h
356 08-02-2010 07:06:12 -0.5 C 3.18 g/m*3 -0.5 C 0 km/h
357 08-02-2010 07:31:12 -0.6 C 3.16 g/m*3 -0.6 C 0 km/h
358 08-02-2010 07:56:12 -0.8 C 3.07 g/m*3 -0.8 C 0 km/h
359 08-02-2010 08:21:13 -0.9 C 3.05 g/m*3 -0.9 C 0 km/h
360 08-02-2010 08:46:13 -0.9 C 3 g/m*3 -0.9 C 0 km/h
361 08-02-2010 09:11:13 -0.7 C 3 g/m*3 -0.7 C 0 km/h
362 08-02-2010 09:36:13 -0.8 C 2.93 g/m*3 -0.8 C 0 km/h
363 08-02-2010 10:01:13 -0.6 C 2.93 g/m*3 -0.6 C 0 km/h
364 08-02-2010 10:26:13 -0.6 C 2.88 g/m*3 -0.6 C 0 km/h
365 08-02-2010 10:51:13 -0.5 C 2.9 g/m*3 -0.5 C 0 km/h
366 08-02-2010 11:16:13 -0.5 C 2.86 g/m*3 -0.5 C 0 km/h
367 08-02-2010 11:41:13 -0.2 C 2.72 g/m*3 -0.2 C 0 km/h
368 08-02-2010 12:06:13 -0.3 C 2.66 g/m*3 -0.3 C 0 km/h
369 08-02-2010 12:31:13 -0.4 C 2.5 g/m*3 -0.4 C 0 km/h
370 08-02-2010 12:56:13 0.3 C 2.57 g/m*3 0.3 C 0 km/h
371 08-02-2010 13:21:13 0.5 C 2.56 g/m*3 0.5 C 0 km/h
372 08-02-2010 13:46:13 0.8 C 2.66 g/m*3 0.8 C 0 km/h
373 08-02-2010 14:11:13 0.6 C 2.63 g/m*3 0.6 C 0 km/h
374 08-02-2010 14:36:13 0.5 C 2.66 g/m*3 0.5 C 0 km/h
375 08-02-2010 15:01:13 -0.2 C 2.63 g/m*3 -0.2 C 0 km/h
Sensor: Nr:Datum:Temp:Abs-Feuchte:Windchill:Wind:
Aussen-T/F 376 08-02-2010 15:26:13 -0.6 C 2.6 g/m*3 -0.6 C 0 km/h
377 08-02-2010 15:51:13 -1.1 C 2.51 g/m*3 -1.1 C 0 km/h
378 08-02-2010 16:16:13 -1.1 C 2.6 g/m*3 -1.1 C 0 km/h
379 08-02-2010 16:41:13 -1.4 C 2.55 g/m*3 -1.4 C 0 km/h
380 08-02-2010 17:06:13 -1.9 C 2.55 g/m*3 -1.9 C 0 km/h
381 08-02-2010 17:31:14 -2.1 C 2.51 g/m*3 -2.1 C 0 km/h
382 08-02-2010 17:56:14 -2.3 C 2.48 g/m*3 -2.3 C 0 km/h
383 08-02-2010 18:21:14 -2.3 C 2.52 g/m*3 -2.3 C 0 km/h
384 08-02-2010 18:46:14 -2.4 C 2.5 g/m*3 -2.4 C 0 km/h
385 08-02-2010 19:11:14 -2.4 C 2.5 g/m*3 -2.4 C 0 km/h
386 08-02-2010 19:36:14 -2.5 C 2.48 g/m*3 -2.5 C 0 km/h
387 08-02-2010 20:01:14 -2.6 C 2.46 g/m*3 -2.6 C 0 km/h
388 08-02-2010 20:26:14 -2.6 C 2.46 g/m*3 -2.6 C 0 km/h
389 08-02-2010 20:51:14 -2.6 C 2.51 g/m*3 -2.6 C 0 km/h
390 08-02-2010 21:16:14 -2.6 C 2.51 g/m*3 -2.6 C 0 km/h
391 08-02-2010 21:41:14 -2.6 C 2.51 g/m*3 -2.6 C 0 km/h
392 08-02-2010 22:06:14 -2.5 C 2.52 g/m*3 -2.5 C 0 km/h
393 08-02-2010 22:31:14 -2.7 C 2.45 g/m*3 -2.7 C 0 km/h
394 08-02-2010 22:56:14 -2.8 C 2.39 g/m*3 -2.8 C 0 km/h
395 08-02-2010 23:21:14 -3.1 C 2.34 g/m*3 -3.1 C 0 km/h
396 08-02-2010 23:46:14 -3.1 C 2.34 g/m*3 -3.1 C 0 km/h
397 09-02-2010 00:11:14 -3.3 C 2.31 g/m*3 -3.3 C 0 km/h
398 09-02-2010 00:36:14 -3.4 C 2.33 g/m*3 -3.4 C 0 km/h
399 09-02-2010 01:01:14 -3.3 C 2.38 g/m*3 -3.3 C 0 km/h
400 09-02-2010 01:26:14 -3.2 C 2.36 g/m*3 -3.2 C 0 km/h
Sensor: Nr:Datum:Temp:Abs-Feuchte:Windchill:Wind:
Aussen-T/F 401 09-02-2010 01:51:14 -3.3 C 2.35 g/m*3 -3.3 C 0 km/h
402 09-02-2010 02:16:14 -3.2 C 2.36 g/m*3 -3.2 C 0 km/h
403 09-02-2010 02:41:15 -3.2 C 2.32 g/m*3 -3.2 C 0 km/h
404 09-02-2010 03:06:15 -3.2 C 2.32 g/m*3 -3.2 C 0 km/h
405 09-02-2010 03:31:15 -3.4 C 2.29 g/m*3 -3.4 C 0 km/h
406 09-02-2010 03:56:15 -3.4 C 2.29 g/m*3 -3.4 C 0 km/h
407 09-02-2010 04:21:15 -3.4 C 2.29 g/m*3 -3.4 C 0 km/h
408 09-02-2010 04:46:15 -3.5 C 2.27 g/m*3 -3.5 C 0 km/h
409 09-02-2010 05:11:15 -3.5 C 2.27 g/m*3 -3.5 C 0 km/h
410 09-02-2010 05:36:15 -3.5 C 2.27 g/m*3 -3.5 C 0 km/h
411 09-02-2010 06:01:15 -3.7 C 2.28 g/m*3 -3.7 C 0 km/h
412 09-02-2010 06:26:15 -3.7 C 2.32 g/m*3 -3.7 C 0 km/h
413 09-02-2010 06:51:15 -3.7 C 2.32 g/m*3 -3.7 C 0 km/h
414 09-02-2010 07:16:15 -3.8 C 2.26 g/m*3 -3.8 C 0 km/h
415 09-02-2010 07:41:15 -3.8 C 2.3 g/m*3 -3.8 C 0 km/h
416 09-02-2010 08:06:15 -3.9 C 2.28 g/m*3 -3.9 C 0 km/h
417 09-02-2010 08:31:15 -3.9 C 2.28 g/m*3 -3.9 C 0 km/h
418 09-02-2010 08:56:15 -4.1 C 2.25 g/m*3 -4.1 C 0 km/h
419 09-02-2010 09:21:15 -4 C 2.27 g/m*3 -4 C 0 km/h
420 09-02-2010 09:46:15 -3.9 C 2.32 g/m*3 -3.9 C 0 km/h
421 09-02-2010 10:11:15 -4 C 2.38 g/m*3 -4 C 0 km/h
422 09-02-2010 10:36:15 -3.6 C 2.52 g/m*3 -3.6 C 0 km/h
423 09-02-2010 11:01:15 -3.2 C 2.56 g/m*3 -3.2 C 0 km/h
424 09-02-2010 11:26:15 -3.4 C 2.37 g/m*3 -3.4 C 0 km/h
425 09-02-2010 11:51:16 -3.5 C 2.35 g/m*3 -3.5 C 0 km/h
Sensor: Nr:Datum:Temp:Abs-Feuchte:Windchill:Wind:
Aussen-T/F 426 09-02-2010 12:16:16 -3.4 C 2.25 g/m*3 -3.4 C 0 km/h
427 09-02-2010 12:41:16 -3.1 C 2.18 g/m*3 -3.1 C 0 km/h
428 09-02-2010 13:06:16 -2.8 C 2.23 g/m*3 -2.8 C 0 km/h
429 09-02-2010 13:31:16 -2.8 C 2.11 g/m*3 -2.8 C 0 km/h
430 09-02-2010 13:56:16 -3 C 2.04 g/m*3 -3 C 0 km/h
431 09-02-2010 14:21:16 -3.4 C 2.02 g/m*3 -3.4 C 0 km/h
432 09-02-2010 14:46:16 -3.5 C 2.01 g/m*3 -3.5 C 0 km/h
433 09-02-2010 15:11:16 -3.5 C 1.97 g/m*3 -3.5 C 0 km/h
434 09-02-2010 15:36:16 -3.6 C 2 g/m*3 -3.6 C 0 km/h
435 09-02-2010 16:01:16 -3.8 C 1.97 g/m*3 -3.8 C 0 km/h
436 09-02-2010 16:26:16 -3.6 C 2 g/m*3 -3.6 C 0 km/h
437 09-02-2010 16:51:16 -3.5 C 1.97 g/m*3 -3.5 C 0 km/h
438 09-02-2010 17:16:16 -3.9 C 2.03 g/m*3 -3.9 C 0 km/h
439 09-02-2010 17:41:16 -4 C 2.09 g/m*3 -4 C 0 km/h
440 09-02-2010 18:06:16 -4.1 C 2.14 g/m*3 -4.1 C 0 km/h
441 09-02-2010 18:31:16 -4.1 C 2.14 g/m*3 -4.1 C 0 km/h
442 09-02-2010 18:56:16 -4.2 C 2.09 g/m*3 -4.2 C 0 km/h
443 09-02-2010 19:21:16 -4.1 C 2.18 g/m*3 -4.1 C 0 km/h
444 09-02-2010 19:46:16 -4.1 C 2.18 g/m*3 -4.1 C 0 km/h
445 09-02-2010 20:11:16 -4.5 C 2.08 g/m*3 -4.5 C 0 km/h
446 09-02-2010 20:36:16 -4.6 C 2.1 g/m*3 -4.6 C 0 km/h
447 09-02-2010 21:01:17 -4.6 C 1.93 g/m*3 -4.6 C 0 km/h
448 09-02-2010 21:26:17 -4.6 C 1.75 g/m*3 -4.6 C 0 km/h
449 09-02-2010 21:51:17 -4.7 C 1.77 g/m*3 -4.7 C 0 km/h
450 09-02-2010 22:16:17 -4.6 C 1.82 g/m*3 -4.6 C 0 km/h
Sensor: Nr:Datum:Temp:Abs-Feuchte:Windchill:Wind:
Aussen-T/F 451 09-02-2010 22:41:17 -4.5 C 1.87 g/m*3 -4.5 C 0 km/h
452 09-02-2010 23:06:17 -4.6 C 1.93 g/m*3 -4.6 C 0 km/h
453 09-02-2010 23:31:17 -4.5 C 1.94 g/m*3 -4.5 C 0 km/h
454 09-02-2010 23:56:17 -4.5 C 1.94 g/m*3 -4.5 C 0 km/h
455 10-02-2010 00:21:17 -4.6 C 2.07 g/m*3 -4.6 C 0 km/h
456 10-02-2010 00:46:17 -4.7 C 2.12 g/m*3 -4.7 C 0 km/h
457 10-02-2010 01:11:17 -4.7 C 2.12 g/m*3 -4.7 C 0 km/h
458 10-02-2010 01:36:17 -4.7 C 2.16 g/m*3 -4.7 C 0 km/h
459 10-02-2010 02:01:17 -4.7 C 2.23 g/m*3 -4.7 C 0 km/h
460 10-02-2010 02:26:17 -4.6 C 2.28 g/m*3 -4.6 C 0 km/h
461 10-02-2010 02:51:17 -4.7 C 2.3 g/m*3 -4.7 C 0 km/h
462 10-02-2010 03:16:17 -4.7 C 2.33 g/m*3 -4.7 C 0 km/h
463 10-02-2010 03:41:17 -4.9 C 2.33 g/m*3 -4.9 C 0 km/h
464 10-02-2010 04:06:17 -4.9 C 2.3 g/m*3 -4.9 C 0 km/h
465 10-02-2010 04:31:17 -5 C 2.32 g/m*3 -5 C 0 km/h
466 10-02-2010 04:56:17 -5 C 2.35 g/m*3 -5 C 0 km/h
467 10-02-2010 05:21:17 -5 C 2.38 g/m*3 -5 C 0 km/h
468 10-02-2010 05:46:17 -5 C 2.35 g/m*3 -5 C 0 km/h
469 10-02-2010 06:11:18 -5 C 2.35 g/m*3 -5 C 0 km/h
470 10-02-2010 06:36:18 -5.2 C 2.32 g/m*3 -5.2 C 0 km/h
471 10-02-2010 07:01:18 -5.4 C 2.28 g/m*3 -5.4 C 0 km/h
472 10-02-2010 07:26:18 -5.6 C 2.31 g/m*3 -5.6 C 0 km/h
473 10-02-2010 07:51:18 -5.4 C 2.38 g/m*3 -5.4 C 0 km/h
474 10-02-2010 08:16:18 -5.5 C 2.36 g/m*3 -5.5 C 0 km/h
475 10-02-2010 08:41:18 -5.3 C 2.33 g/m*3 -5.3 C 0 km/h
Sensor: Nr:Datum:Temp:Abs-Feuchte:Windchill:Wind:
Aussen-T/F 476 10-02-2010 09:06:18 -5 C 2.42 g/m*3 -5 C 0 km/h
477 10-02-2010 09:31:18 -4.7 C 2.4 g/m*3 -4.7 C 0 km/h
478 10-02-2010 09:56:18 -4.7 C 2.4 g/m*3 -4.7 C 0 km/h
479 10-02-2010 10:21:18 -4.4 C 2.45 g/m*3 -4.4 C 0 km/h
480 10-02-2010 10:46:18 -4.4 C 2.35 g/m*3 -4.4 C 0 km/h
481 10-02-2010 11:11:18 -4 C 2.41 g/m*3 -4 C 0 km/h
482 10-02-2010 11:36:18 -3.7 C 2.35 g/m*3 -3.7 C 0 km/h
483 10-02-2010 12:01:18 -3.7 C 2.39 g/m*3 -3.7 C 0 km/h
484 10-02-2010 12:26:18 -3.2 C 2.32 g/m*3 -3.2 C 0 km/h
485 10-02-2010 12:51:18 -3.4 C 2.37 g/m*3 -3.4 C 0 km/h
486 10-02-2010 13:16:18 -3.2 C 2.52 g/m*3 -3.2 C 0 km/h
487 10-02-2010 13:41:18 -2.6 C 2.26 g/m*3 -2.6 C 0 km/h
488 10-02-2010 14:06:18 -3.2 C 2.21 g/m*3 -3.2 C 0 km/h
489 10-02-2010 14:31:18 -3.3 C 2.27 g/m*3 -3.3 C 0 km/h
490 10-02-2010 14:56:18 -3.2 C 2.25 g/m*3 -3.2 C 0 km/h
491 10-02-2010 15:21:18 -3.3 C 2.42 g/m*3 -3.3 C 0 km/h
492 10-02-2010 15:46:19 -3 C 2.24 g/m*3 -3 C 0 km/h
493 10-02-2010 16:11:19 -3.4 C 2.29 g/m*3 -3.4 C 0 km/h
494 10-02-2010 16:36:19 -3.5 C 2.27 g/m*3 -3.5 C 0 km/h
495 10-02-2010 17:01:19 -3.4 C 2.29 g/m*3 -3.4 C 0 km/h
496 10-02-2010 17:26:19 -3.8 C 2.3 g/m*3 -3.8 C 0 km/h
497 10-02-2010 17:51:19 -4.4 C 2.42 g/m*3 -4.4 C 0 km/h
498 10-02-2010 18:16:19 -5.2 C 2.32 g/m*3 -5.2 C 0 km/h
499 10-02-2010 18:41:19 -5.2 C 2.45 g/m*3 -5.2 C 0 km/h
500 10-02-2010 19:06:19 -5.3 C 2.37 g/m*3 -5.3 C 0 km/h
Sensor: Nr:Datum:Temp:Abs-Feuchte:Windchill:Wind:
Aussen-T/F 501 10-02-2010 19:31:19 -6 C 2.28 g/m*3 -6 C 0 km/h
502 10-02-2010 19:56:19 -6.2 C 2.31 g/m*3 -6.2 C 0 km/h
503 10-02-2010 20:21:19 -6.5 C 2.29 g/m*3 -6.5 C 0 km/h
504 10-02-2010 20:46:19 -6.3 C 2.35 g/m*3 -6.3 C 0 km/h
505 10-02-2010 21:11:19 -6.1 C 2.39 g/m*3 -6.1 C 0 km/h
506 10-02-2010 21:36:19 -6.6 C 2.27 g/m*3 -6.6 C 0 km/h
507 10-02-2010 22:01:19 -6.3 C 2.35 g/m*3 -6.3 C 0 km/h
508 10-02-2010 22:26:19 -6.5 C 2.26 g/m*3 -6.5 C 0 km/h
509 10-02-2010 22:51:19 -6.9 C 2.16 g/m*3 -6.9 C 0 km/h
510 10-02-2010 23:16:19 -7.4 C 2.09 g/m*3 -7.4 C 0 km/h
511 10-02-2010 23:41:19 -7 C 2.18 g/m*3 -7 C 0 km/h
512 11-02-2010 00:06:20 -6.5 C 2.29 g/m*3 -6.5 C 0 km/h
513 11-02-2010 00:31:20 -6.5 C 2.17 g/m*3 -6.5 C 0 km/h
514 11-02-2010 00:56:20 -6.6 C 2.12 g/m*3 -6.6 C 0 km/h
515 11-02-2010 01:21:20 -7.5 C 1.96 g/m*3 -7.5 C 0 km/h
516 11-02-2010 01:46:20 -8.1 C 1.9 g/m*3 -8.1 C 0 km/h
517 11-02-2010 02:11:20 -7.7 C 2.04 g/m*3 -7.7 C 0 km/h
518 11-02-2010 02:36:20 -7.4 C 2.09 g/m*3 -7.4 C 0 km/h
519 11-02-2010 03:01:20 -7.2 C 2.12 g/m*3 -7.2 C 0 km/h
520 11-02-2010 03:26:20 -6.9 C 2.14 g/m*3 -6.9 C 0 km/h
521 11-02-2010 03:51:20 -6.8 C 2.12 g/m*3 -6.8 C 0 km/h
522 11-02-2010 04:16:20 -6.8 C 2.09 g/m*3 -6.8 C 0 km/h
523 11-02-2010 04:41:20 -6.4 C 2.18 g/m*3 -6.4 C 0 km/h
524 11-02-2010 05:06:20 -6.2 C 2.18 g/m*3 -6.2 C 0 km/h
525 11-02-2010 05:31:20 -6.1 C 2.23 g/m*3 -6.1 C 0 km/h
Sensor: Nr:Datum:Temp:Abs-Feuchte:Windchill:Wind:
Aussen-T/F 526 11-02-2010 05:56:20 -6 C 2.31 g/m*3 -6 C 0 km/h
527 11-02-2010 06:21:20 -5.9 C 2.36 g/m*3 -5.9 C 0 km/h
528 11-02-2010 06:46:20 -5.8 C 2.44 g/m*3 -5.8 C 0 km/h
529 11-02-2010 07:11:20 -5.7 C 2.46 g/m*3 -5.7 C 0 km/h
530 11-02-2010 07:36:20 -5.6 C 2.51 g/m*3 -5.6 C 0 km/h
531 11-02-2010 08:01:20 -5.5 C 2.56 g/m*3 -5.5 C 0 km/h
532 11-02-2010 08:26:20 -5.4 C 2.58 g/m*3 -5.4 C 0 km/h
533 11-02-2010 08:51:20 -5.2 C 2.62 g/m*3 -5.2 C 0 km/h
534 11-02-2010 09:16:20 -4.9 C 2.64 g/m*3 -4.9 C 0 km/h
535 11-02-2010 09:41:21 -4.5 C 2.68 g/m*3 -4.5 C 0 km/h
536 11-02-2010 10:06:21 -4 C 2.74 g/m*3 -4 C 0 km/h
537 11-02-2010 10:31:21 -3.7 C 2.77 g/m*3 -3.7 C 0 km/h
538 11-02-2010 10:56:21 -3.3 C 2.77 g/m*3 -3.3 C 0 km/h
539 11-02-2010 11:21:21 -2.9 C 2.77 g/m*3 -2.9 C 0 km/h
540 11-02-2010 11:46:21 -2.7 C 2.81 g/m*3 -2.7 C 0 km/h
541 11-02-2010 12:11:21 -2.5 C 2.89 g/m*3 -2.5 C 0 km/h
542 11-02-2010 12:36:21 -2 C 2.99 g/m*3 -2 C 0 km/h
543 11-02-2010 13:01:21 -1.5 C 3.1 g/m*3 -1.5 C 0 km/h
544 11-02-2010 13:26:21 -1.1 C 3.05 g/m*3 -1.1 C 0 km/h
545 11-02-2010 13:51:21 -1.3 C 2.92 g/m*3 -1.3 C 0 km/h
546 11-02-2010 14:16:21 -1.1 C 3.1 g/m*3 -1.1 C 0 km/h
547 11-02-2010 14:41:21 -1.2 C 2.94 g/m*3 -1.2 C 0 km/h
548 11-02-2010 15:06:21 -1.2 C 2.9 g/m*3 -1.2 C 0 km/h
549 11-02-2010 15:31:21 -1.6 C 2.86 g/m*3 -1.6 C 0 km/h
550 11-02-2010 15:56:21 -1.3 C 2.88 g/m*3 -1.3 C 0 km/h
Sensor: Nr:Datum:Temp:Abs-Feuchte:Windchill:Wind:
Aussen-T/F 551 11-02-2010 16:21:21 -1.4 C 2.9 g/m*3 -1.4 C 0 km/h
552 11-02-2010 16:46:21 -1.6 C 2.9 g/m*3 -1.6 C 0 km/h
553 11-02-2010 17:11:21 -1.7 C 2.84 g/m*3 -1.7 C 0 km/h
554 11-02-2010 17:36:21 -1.7 C 2.76 g/m*3 -1.7 C 0 km/h
555 11-02-2010 18:01:21 -1.8 C 2.74 g/m*3 -1.8 C 0 km/h
556 11-02-2010 18:26:21 -1.8 C 2.74 g/m*3 -1.8 C 0 km/h
557 11-02-2010 18:51:22 -1.8 C 2.69 g/m*3 -1.8 C 0 km/h
558 11-02-2010 19:16:22 -1.8 C 2.65 g/m*3 -1.8 C 0 km/h
559 11-02-2010 19:41:22 -1.8 C 2.65 g/m*3 -1.8 C 0 km/h
560 11-02-2010 20:06:22 -1.8 C 2.65 g/m*3 -1.8 C 0 km/h
561 11-02-2010 20:31:22 -1.8 C 2.69 g/m*3 -1.8 C 0 km/h
562 11-02-2010 20:56:22 -1.8 C 2.74 g/m*3 -1.8 C 0 km/h
563 11-02-2010 21:21:22 -2.1 C 2.85 g/m*3 -2.1 C 0 km/h
564 11-02-2010 21:46:22 -2.2 C 2.95 g/m*3 -2.2 C 0 km/h
565 11-02-2010 22:11:22 -2.5 C 3.05 g/m*3 -2.5 C 0 km/h
566 11-02-2010 22:36:22 -2.5 C 3.09 g/m*3 -2.5 C 0 km/h
567 11-02-2010 23:01:22 -2.5 C 3.13 g/m*3 -2.5 C 0 km/h
568 11-02-2010 23:26:22 -2.6 C 3.15 g/m*3 -2.6 C 0 km/h
569 11-02-2010 23:51:22 -2.5 C 3.17 g/m*3 -2.5 C 0 km/h
570 12-02-2010 00:16:22 -2.6 C 3.19 g/m*3 -2.6 C 0 km/h
571 12-02-2010 00:41:22 -2.7 C 3.21 g/m*3 -2.7 C 0 km/h
572 12-02-2010 01:06:22 -2.7 C 3.21 g/m*3 -2.7 C 0 km/h
573 12-02-2010 01:31:22 -2.7 C 3.21 g/m*3 -2.7 C 0 km/h
574 12-02-2010 01:56:22 -2.6 C 3.19 g/m*3 -2.6 C 0 km/h
575 12-02-2010 02:21:22 -2.6 C 3.19 g/m*3 -2.6 C 0 km/h
Sensor: Nr:Datum:Temp:Abs-Feuchte:Windchill:Wind:
Aussen-T/F 576 12-02-2010 02:46:22 -2.6 C 3.15 g/m*3 -2.6 C 0 km/h
577 12-02-2010 03:11:22 -2.6 C 3.19 g/m*3 -2.6 C 0 km/h
578 12-02-2010 03:36:22 -2.7 C 3.17 g/m*3 -2.7 C 0 km/h
579 12-02-2010 04:01:23 -2.6 C 3.23 g/m*3 -2.6 C 0 km/h
580 12-02-2010 04:26:23 -2.6 C 3.19 g/m*3 -2.6 C 0 km/h
581 12-02-2010 04:51:23 -2.6 C 3.19 g/m*3 -2.6 C 0 km/h
582 12-02-2010 05:16:23 -2.6 C 3.19 g/m*3 -2.6 C 0 km/h
583 12-02-2010 05:41:23 -2.5 C 3.21 g/m*3 -2.5 C 0 km/h
584 12-02-2010 06:06:23 -2.6 C 3.15 g/m*3 -2.6 C 0 km/h
585 12-02-2010 06:31:23 -2.5 C 3.17 g/m*3 -2.5 C 0 km/h
586 12-02-2010 06:56:23 -2.6 C 3.19 g/m*3 -2.6 C 0 km/h
587 12-02-2010 07:21:23 -2.7 C 3.17 g/m*3 -2.7 C 0 km/h
588 12-02-2010 07:46:23 -2.8 C 3.07 g/m*3 -2.8 C 0 km/h
589 12-02-2010 08:11:23 -2.7 C 3.01 g/m*3 -2.7 C 0 km/h
590 12-02-2010 08:36:23 -2.6 C 3.03 g/m*3 -2.6 C 0 km/h
591 12-02-2010 09:01:23 -2.6 C 3.03 g/m*3 -2.6 C 0 km/h
592 12-02-2010 09:26:23 -2.5 C 3.01 g/m*3 -2.5 C 0 km/h
593 12-02-2010 09:51:23 -2.3 C 2.97 g/m*3 -2.3 C 0 km/h
594 12-02-2010 10:16:23 -2.1 C 2.93 g/m*3 -2.1 C 0 km/h
595 12-02-2010 10:41:23 -1.9 C 2.84 g/m*3 -1.9 C 0 km/h
596 12-02-2010 11:06:23 -1.2 C 2.9 g/m*3 -1.2 C 0 km/h
597 12-02-2010 11:31:23 -1.3 C 2.74 g/m*3 -1.3 C 0 km/h
598 12-02-2010 11:56:23 -1 C 2.71 g/m*3 -1 C 0 km/h
599 12-02-2010 12:21:23 -1.1 C 2.69 g/m*3 -1.1 C 0 km/h
600 12-02-2010 12:46:23 -1.4 C 2.77 g/m*3 -1.4 C 0 km/h
Sensor: Nr:Datum:Temp:Abs-Feuchte:Windchill:Wind:
Aussen-T/F 601 12-02-2010 13:11:24 -1.2 C 2.85 g/m*3 -1.2 C 0 km/h
602 12-02-2010 13:36:24 -1.2 C 2.9 g/m*3 -1.2 C 0 km/h
603 12-02-2010 14:01:24 -1.1 C 2.92 g/m*3 -1.1 C 0 km/h
604 12-02-2010 14:26:24 -0.7 C 2.95 g/m*3 -0.7 C 0 km/h
605 12-02-2010 14:51:24 -0.5 C 2.95 g/m*3 -0.5 C 0 km/h
606 12-02-2010 15:16:24 -0.8 C 2.84 g/m*3 -0.8 C 0 km/h
607 12-02-2010 15:41:24 -0.8 C 2.89 g/m*3 -0.8 C 0 km/h
608 12-02-2010 16:06:24 -0.9 C 2.91 g/m*3 -0.9 C 0 km/h
609 12-02-2010 16:31:24 -1.2 C 2.85 g/m*3 -1.2 C 0 km/h
610 12-02-2010 16:56:24 -1.2 C 2.76 g/m*3 -1.2 C 0 km/h
611 12-02-2010 17:21:24 -1.4 C 2.73 g/m*3 -1.4 C 0 km/h
612 12-02-2010 17:46:24 -1.9 C 2.76 g/m*3 -1.9 C 0 km/h
613 12-02-2010 18:11:24 -2.1 C 2.72 g/m*3 -2.1 C 0 km/h
614 12-02-2010 18:36:24 -2.2 C 2.78 g/m*3 -2.2 C 0 km/h
615 12-02-2010 19:01:24 -2.4 C 2.66 g/m*3 -2.4 C 0 km/h
616 12-02-2010 19:26:24 -2.5 C 2.69 g/m*3 -2.5 C 0 km/h
617 12-02-2010 19:51:24 -2.5 C 2.73 g/m*3 -2.5 C 0 km/h
618 12-02-2010 20:16:24 -2.6 C 2.71 g/m*3 -2.6 C 0 km/h
619 12-02-2010 20:41:24 -2.6 C 2.75 g/m*3 -2.6 C 0 km/h
620 12-02-2010 21:06:24 -2.6 C 2.71 g/m*3 -2.6 C 0 km/h
621 12-02-2010 21:31:24 -2.7 C 2.73 g/m*3 -2.7 C 0 km/h
622 12-02-2010 21:56:25 -2.8 C 2.71 g/m*3 -2.8 C 0 km/h
623 12-02-2010 22:21:25 -2.8 C 2.75 g/m*3 -2.8 C 0 km/h
624 12-02-2010 22:46:25 -2.9 C 2.73 g/m*3 -2.9 C 0 km/h
625 12-02-2010 23:11:25 -3 C 2.71 g/m*3 -3 C 0 km/h
Sensor: Nr:Datum:Temp:Abs-Feuchte:Windchill:Wind:
Aussen-T/F 626 12-02-2010 23:36:25 -3.2 C 2.67 g/m*3 -3.2 C 0 km/h
627 13-02-2010 00:01:25 -3.2 C 2.71 g/m*3 -3.2 C 0 km/h
628 13-02-2010 00:26:25 -3.4 C 2.75 g/m*3 -3.4 C 0 km/h
629 13-02-2010 00:51:25 -3.7 C 2.73 g/m*3 -3.7 C 0 km/h
630 13-02-2010 01:16:25 -3.9 C 2.76 g/m*3 -3.9 C 0 km/h
631 13-02-2010 01:41:25 -4 C 2.78 g/m*3 -4 C 0 km/h
632 13-02-2010 02:06:25 -3.9 C 2.8 g/m*3 -3.9 C 0 km/h
633 13-02-2010 02:31:25 -4 C 2.74 g/m*3 -4 C 0 km/h
634 13-02-2010 02:56:25 -4.1 C 2.69 g/m*3 -4.1 C 0 km/h
635 13-02-2010 03:21:25 -4.2 C 2.7 g/m*3 -4.2 C 0 km/h
636 13-02-2010 03:46:25 -4.2 C 2.74 g/m*3 -4.2 C 0 km/h
637 13-02-2010 04:11:25 -4.2 C 2.74 g/m*3 -4.2 C 0 km/h
638 13-02-2010 04:36:25 -4.1 C 2.8 g/m*3 -4.1 C 0 km/h
639 13-02-2010 05:01:25 -4.1 C 2.8 g/m*3 -4.1 C 0 km/h
640 13-02-2010 05:26:25 -4 C 2.82 g/m*3 -4 C 0 km/h
641 13-02-2010 05:51:25 -3.8 C 2.86 g/m*3 -3.8 C 0 km/h
642 13-02-2010 06:16:26 -3.9 C 2.84 g/m*3 -3.9 C 0 km/h
643 13-02-2010 06:41:26 -3.8 C 2.86 g/m*3 -3.8 C 0 km/h
644 13-02-2010 07:06:26 -3.7 C 2.84 g/m*3 -3.7 C 0 km/h
645 13-02-2010 07:31:26 -3.8 C 2.78 g/m*3 -3.8 C 0 km/h
646 13-02-2010 07:56:26 -3.8 C 2.82 g/m*3 -3.8 C 0 km/h
647 13-02-2010 08:21:26 -3.6 C 2.86 g/m*3 -3.6 C 0 km/h
648 13-02-2010 08:46:26 -3.2 C 2.9 g/m*3 -3.2 C 0 km/h
649 13-02-2010 09:11:26 -2.9 C 2.89 g/m*3 -2.9 C 0 km/h
650 13-02-2010 09:36:26 -2.6 C 2.91 g/m*3 -2.6 C 0 km/h
Sensor: Nr:Datum:Temp:Abs-Feuchte:Windchill:Wind:
Aussen-T/F 651 13-02-2010 10:01:26 -2.7 C 2.73 g/m*3 -2.7 C 0 km/h
652 13-02-2010 10:26:26 -2.4 C 2.7 g/m*3 -2.4 C 0 km/h
653 13-02-2010 10:51:26 -2.3 C 2.64 g/m*3 -2.3 C 0 km/h
654 13-02-2010 11:16:26 -1.9 C 2.76 g/m*3 -1.9 C 0 km/h
655 13-02-2010 11:41:26 -1.5 C 2.66 g/m*3 -1.5 C 0 km/h
656 13-02-2010 12:06:26 -1.3 C 2.7 g/m*3 -1.3 C 0 km/h
657 13-02-2010 12:31:26 -0.5 C 2.86 g/m*3 -0.5 C 0 km/h
658 13-02-2010 12:56:26 -1.2 C 2.67 g/m*3 -1.2 C 0 km/h
659 13-02-2010 13:21:26 -1.4 C 2.73 g/m*3 -1.4 C 0 km/h
660 13-02-2010 13:46:26 -1 C 2.76 g/m*3 -1 C 0 km/h
661 13-02-2010 14:11:26 -1.1 C 2.51 g/m*3 -1.1 C 0 km/h
662 13-02-2010 14:36:26 0 C 2.76 g/m*3 0 C 0 km/h
663 13-02-2010 15:01:27 -0.3 C 2.56 g/m*3 -0.3 C 0 km/h
664 13-02-2010 15:26:27 -0.5 C 2.57 g/m*3 -0.5 C 0 km/h
665 13-02-2010 15:51:27 -0.7 C 2.54 g/m*3 -0.7 C 0 km/h
666 13-02-2010 16:16:27 -0.9 C 2.55 g/m*3 -0.9 C 0 km/h
667 13-02-2010 16:41:27 -1 C 2.58 g/m*3 -1 C 0 km/h
668 13-02-2010 17:06:27 -1.4 C 2.68 g/m*3 -1.4 C 0 km/h
669 13-02-2010 17:31:27 -1.9 C 2.8 g/m*3 -1.9 C 0 km/h
670 13-02-2010 17:56:27 -2 C 2.91 g/m*3 -2 C 0 km/h
671 13-02-2010 18:21:27 -2 C 2.95 g/m*3 -2 C 0 km/h
672 13-02-2010 18:46:27 -2.1 C 2.97 g/m*3 -2.1 C 0 km/h
673 13-02-2010 19:11:27 -2.2 C 2.99 g/m*3 -2.2 C 0 km/h
674 13-02-2010 19:36:27 -2.1 C 3.01 g/m*3 -2.1 C 0 km/h
675 13-02-2010 20:01:27 -2.2 C 2.99 g/m*3 -2.2 C 0 km/h
Sensor: Nr:Datum:Temp:Abs-Feuchte:Windchill:Wind:
Aussen-T/F 676 13-02-2010 20:26:27 -2.3 C 3.01 g/m*3 -2.3 C 0 km/h
677 13-02-2010 20:51:27 -2.4 C 2.99 g/m*3 -2.4 C 0 km/h
678 13-02-2010 21:16:27 -2.4 C 2.99 g/m*3 -2.4 C 0 km/h
679 13-02-2010 21:41:27 -2.4 C 2.99 g/m*3 -2.4 C 0 km/h
680 13-02-2010 22:06:27 -2.5 C 2.97 g/m*3 -2.5 C 0 km/h
681 13-02-2010 22:31:27 -2.6 C 2.99 g/m*3 -2.6 C 0 km/h
682 13-02-2010 22:56:27 -2.5 C 3.05 g/m*3 -2.5 C 0 km/h
683 13-02-2010 23:21:28 -2.7 C 3.05 g/m*3 -2.7 C 0 km/h
684 13-02-2010 23:46:28 -2.8 C 3.03 g/m*3 -2.8 C 0 km/h
685 14-02-2010 00:11:28 -2.9 C 3.01 g/m*3 -2.9 C 0 km/h
686 14-02-2010 00:36:28 -3.1 C 3 g/m*3 -3.1 C 0 km/h
687 14-02-2010 01:01:28 -3.2 C 2.98 g/m*3 -3.2 C 0 km/h
688 14-02-2010 01:26:28 -3.3 C 2.96 g/m*3 -3.3 C 0 km/h
689 14-02-2010 01:51:28 -3.4 C 2.94 g/m*3 -3.4 C 0 km/h
690 14-02-2010 02:16:28 -3.4 C 2.98 g/m*3 -3.4 C 0 km/h
691 14-02-2010 02:41:28 -3.4 C 2.98 g/m*3 -3.4 C 0 km/h
692 14-02-2010 03:06:28 -3.4 C 3.02 g/m*3 -3.4 C 0 km/h
693 14-02-2010 03:31:28 -3.4 C 3.02 g/m*3 -3.4 C 0 km/h
694 14-02-2010 03:56:28 -3.6 C 2.97 g/m*3 -3.6 C 0 km/h
695 14-02-2010 04:21:28 -3.5 C 2.99 g/m*3 -3.5 C 0 km/h
696 14-02-2010 04:46:28 -3.6 C 2.97 g/m*3 -3.6 C 0 km/h
697 14-02-2010 05:11:28 -3.7 C 2.95 g/m*3 -3.7 C 0 km/h
698 14-02-2010 05:36:28 -3.6 C 3.01 g/m*3 -3.6 C 0 km/h
699 14-02-2010 06:01:28 -3.7 C 2.99 g/m*3 -3.7 C 0 km/h
700 14-02-2010 06:26:28 -3.7 C 2.99 g/m*3 -3.7 C 0 km/h
Sensor: Nr:Datum:Temp:Abs-Feuchte:Windchill:Wind:
Aussen-T/F 701 14-02-2010 06:51:28 -3.7 C 2.99 g/m*3 -3.7 C 0 km/h
702 14-02-2010 07:16:28 -3.4 C 3.05 g/m*3 -3.4 C 0 km/h
703 14-02-2010 07:41:28 -3.6 C 3.01 g/m*3 -3.6 C 0 km/h
704 14-02-2010 08:06:29 -3.5 C 3.03 g/m*3 -3.5 C 0 km/h
705 14-02-2010 08:31:29 -3.5 C 3.03 g/m*3 -3.5 C 0 km/h
706 14-02-2010 08:56:29 -3.3 C 3.08 g/m*3 -3.3 C 0 km/h
707 14-02-2010 09:21:29 -3.2 C 3.1 g/m*3 -3.2 C 0 km/h
708 14-02-2010 09:46:29 -3.1 C 3.12 g/m*3 -3.1 C 0 km/h
709 14-02-2010 10:11:29 -2.8 C 3.19 g/m*3 -2.8 C 0 km/h
710 14-02-2010 10:36:29 -2.4 C 3.24 g/m*3 -2.4 C 0 km/h
711 14-02-2010 11:01:29 -2.1 C 3.22 g/m*3 -2.1 C 0 km/h
712 14-02-2010 11:26:29 -1.9 C 3.23 g/m*3 -1.9 C 0 km/h
713 14-02-2010 11:51:29 -1.5 C 3.23 g/m*3 -1.5 C 0 km/h
714 14-02-2010 12:16:29 -1.1 C 3.19 g/m*3 -1.1 C 0 km/h
715 14-02-2010 12:41:29 -0.6 C 3.07 g/m*3 -0.6 C 0 km/h
716 14-02-2010 13:06:29 0.2 C 3.14 g/m*3 0.2 C 0 km/h
717 14-02-2010 13:31:29 0.6 C 3.03 g/m*3 0.6 C 0 km/h
718 14-02-2010 13:56:29 1 C 3.01 g/m*3 1 C 0 km/h
719 14-02-2010 14:21:29 1.4 C 3.09 g/m*3 1.4 C 0 km/h
720 14-02-2010 14:46:29 1.4 C 3.04 g/m*3 1.4 C 0 km/h
721 14-02-2010 15:11:29 0.8 C 2.92 g/m*3 0.8 C 0 km/h
722 14-02-2010 15:36:29 0.7 C 3 g/m*3 0.7 C 0 km/h
723 14-02-2010 16:01:29 0.1 C 2.98 g/m*3 0.1 C 0 km/h
724 14-02-2010 16:26:30 -0.3 C 2.99 g/m*3 -0.3 C 0 km/h
725 14-02-2010 16:51:30 -0.5 C 3.09 g/m*3 -0.5 C 0 km/h
Sensor: Nr:Datum:Temp:Abs-Feuchte:Windchill:Wind:
Aussen-T/F 726 14-02-2010 17:16:30 -0.7 C 3.14 g/m*3 -0.7 C 0 km/h
727 14-02-2010 17:41:30 -0.9 C 3.19 g/m*3 -0.9 C 0 km/h
728 14-02-2010 18:06:30 -1.1 C 3.23 g/m*3 -1.1 C 0 km/h
729 14-02-2010 18:31:30 -1.3 C 3.23 g/m*3 -1.3 C 0 km/h
730 14-02-2010 18:56:30 -1.5 C 3.27 g/m*3 -1.5 C 0 km/h
731 14-02-2010 19:21:30 -1.7 C 3.27 g/m*3 -1.7 C 0 km/h
732 14-02-2010 19:46:30 -1.8 C 3.29 g/m*3 -1.8 C 0 km/h
733 14-02-2010 20:11:30 -1.7 C 3.36 g/m*3 -1.7 C 0 km/h
734 14-02-2010 20:36:30 -1.9 C 3.31 g/m*3 -1.9 C 0 km/h
735 14-02-2010 21:01:30 -2.2 C 3.24 g/m*3 -2.2 C 0 km/h
736 14-02-2010 21:26:30 -2.4 C 3.16 g/m*3 -2.4 C 0 km/h
737 14-02-2010 21:51:30 -2.6 C 3.11 g/m*3 -2.6 C 0 km/h
738 14-02-2010 22:16:30 -2.9 C 3.01 g/m*3 -2.9 C 0 km/h
739 14-02-2010 22:41:30 -3 C 3.02 g/m*3 -3 C 0 km/h
740 14-02-2010 23:06:30 -3 C 2.99 g/m*3 -3 C 0 km/h
741 14-02-2010 23:31:30 -3 C 2.99 g/m*3 -3 C 0 km/h
742 14-02-2010 23:56:30 -3 C 2.99 g/m*3 -3 C 0 km/h
743 15-02-2010 00:21:30 -3 C 2.99 g/m*3 -3 C 0 km/h
744 15-02-2010 00:46:30 -3 C 2.99 g/m*3 -3 C 0 km/h
745 15-02-2010 01:11:31 -3 C 2.99 g/m*3 -3 C 0 km/h
746 15-02-2010 01:36:31 -2.9 C 2.97 g/m*3 -2.9 C 0 km/h
747 15-02-2010 02:01:31 -2.8 C 2.99 g/m*3 -2.8 C 0 km/h
748 15-02-2010 02:26:31 -2.7 C 3.01 g/m*3 -2.7 C 0 km/h
749 15-02-2010 02:51:31 -2.6 C 3.03 g/m*3 -2.6 C 0 km/h
750 15-02-2010 03:16:31 -2.6 C 2.99 g/m*3 -2.6 C 0 km/h
Sensor: Nr:Datum:Temp:Abs-Feuchte:Windchill:Wind:
Aussen-T/F 751 15-02-2010 03:41:31 -2.6 C 2.99 g/m*3 -2.6 C 0 km/h
752 15-02-2010 04:06:31 -2.6 C 2.99 g/m*3 -2.6 C 0 km/h
753 15-02-2010 04:31:31 -2.6 C 3.03 g/m*3 -2.6 C 0 km/h
754 15-02-2010 04:56:31 -2.6 C 3.03 g/m*3 -2.6 C 0 km/h
755 15-02-2010 05:21:31 -2.6 C 3.07 g/m*3 -2.6 C 0 km/h
756 15-02-2010 05:46:31 -2.6 C 3.11 g/m*3 -2.6 C 0 km/h
757 15-02-2010 06:11:31 -2.7 C 3.05 g/m*3 -2.7 C 0 km/h
758 15-02-2010 06:36:31 -2.8 C 3.03 g/m*3 -2.8 C 0 km/h
759 15-02-2010 07:01:31 -2.9 C 3.01 g/m*3 -2.9 C 0 km/h
760 15-02-2010 07:26:31 -3.2 C 2.9 g/m*3 -3.2 C 0 km/h
761 15-02-2010 07:51:31 -3.1 C 2.96 g/m*3 -3.1 C 0 km/h
762 15-02-2010 08:16:31 -3.1 C 2.96 g/m*3 -3.1 C 0 km/h
763 15-02-2010 08:41:31 -3 C 2.91 g/m*3 -3 C 0 km/h
764 15-02-2010 09:06:31 -2.7 C 2.93 g/m*3 -2.7 C 0 km/h
765 15-02-2010 09:31:31 -2.3 C 2.97 g/m*3 -2.3 C 0 km/h
766 15-02-2010 09:56:32 -1.8 C 3.04 g/m*3 -1.8 C 0 km/h
767 15-02-2010 10:21:32 -1.4 C 3.03 g/m*3 -1.4 C 0 km/h
768 15-02-2010 10:46:32 -0.2 C 3.11 g/m*3 -0.2 C 0 km/h
769 15-02-2010 11:11:32 -0.3 C 3.04 g/m*3 -0.3 C 0 km/h
770 15-02-2010 11:36:32 -0.2 C 3.11 g/m*3 -0.2 C 0 km/h
771 15-02-2010 12:01:32 0.3 C 3.07 g/m*3 0.3 C 0 km/h
772 15-02-2010 12:26:32 0.9 C 3.2 g/m*3 0.9 C 0 km/h
773 15-02-2010 12:51:32 1.2 C 3.21 g/m*3 1.2 C 0 km/h
774 15-02-2010 13:16:32 1.6 C 3.24 g/m*3 1.6 C 0 km/h
775 15-02-2010 13:41:32 1.8 C 3.29 g/m*3 1.8 C 0 km/h
Sensor: Nr:Datum:Temp:Abs-Feuchte:Windchill:Wind:
Aussen-T/F 776 15-02-2010 14:06:32 2.2 C 3.21 g/m*3 2.2 C 0 km/h
777 15-02-2010 14:31:32 1.4 C 3.2 g/m*3 1.4 C 0 km/h
778 15-02-2010 14:56:32 1.6 C 3.41 g/m*3 1.6 C 0 km/h
779 15-02-2010 15:21:32 1.8 C 3.45 g/m*3 1.8 C 0 km/h
780 15-02-2010 15:46:32 1.8 C 3.4 g/m*3 1.8 C 0 km/h
781 15-02-2010 16:11:32 1.5 C 3.38 g/m*3 1.5 C 0 km/h
782 15-02-2010 16:36:32 1.3 C 3.44 g/m*3 1.3 C 0 km/h
783 15-02-2010 17:01:32 0.7 C 3.46 g/m*3 0.7 C 0 km/h
784 15-02-2010 17:26:32 0.3 C 3.46 g/m*3 0.3 C 0 km/h
785 15-02-2010 17:51:32 -0.2 C 3.39 g/m*3 -0.2 C 0 km/h
786 15-02-2010 18:16:33 -0.4 C 3.44 g/m*3 -0.4 C 0 km/h
787 15-02-2010 18:41:33 -0.6 C 3.44 g/m*3 -0.6 C 0 km/h
788 15-02-2010 19:06:33 -0.9 C 3.46 g/m*3 -0.9 C 0 km/h
789 15-02-2010 19:31:33 -1 C 3.44 g/m*3 -1 C 0 km/h
790 15-02-2010 19:56:33 -1 C 3.48 g/m*3 -1 C 0 km/h
791 15-02-2010 20:21:33 -1.2 C 3.43 g/m*3 -1.2 C 0 km/h
792 15-02-2010 20:46:33 -1.3 C 3.41 g/m*3 -1.3 C 0 km/h
793 15-02-2010 21:11:33 -1.2 C 3.43 g/m*3 -1.2 C 0 km/h
794 15-02-2010 21:36:33 -1.2 C 3.48 g/m*3 -1.2 C 0 km/h
795 15-02-2010 22:01:33 -1 C 3.57 g/m*3 -1 C 0 km/h
796 15-02-2010 22:26:33 -1 C 3.53 g/m*3 -1 C 0 km/h
797 15-02-2010 22:51:33 -1.2 C 3.48 g/m*3 -1.2 C 0 km/h
798 15-02-2010 23:16:33 -1.2 C 3.48 g/m*3 -1.2 C 0 km/h
799 15-02-2010 23:41:33 -1.3 C 3.45 g/m*3 -1.3 C 0 km/h
800 16-02-2010 00:06:33 -1.4 C 3.43 g/m*3 -1.4 C 0 km/h
Sensor: Nr:Datum:Temp:Abs-Feuchte:Windchill:Wind:
Aussen-T/F 801 16-02-2010 00:31:33 -2.1 C 3.22 g/m*3 -2.1 C 0 km/h
802 16-02-2010 00:56:33 -2.7 C 3.13 g/m*3 -2.7 C 0 km/h
803 16-02-2010 01:21:33 -2.9 C 3.13 g/m*3 -2.9 C 0 km/h
804 16-02-2010 01:46:33 -2.9 C 3.16 g/m*3 -2.9 C 0 km/h
805 16-02-2010 02:11:33 -2.9 C 3.16 g/m*3 -2.9 C 0 km/h
806 16-02-2010 02:36:33 -3.2 C 3.1 g/m*3 -3.2 C 0 km/h
807 16-02-2010 03:01:34 -3.3 C 3.08 g/m*3 -3.3 C 0 km/h
808 16-02-2010 03:26:34 -3.4 C 3.09 g/m*3 -3.4 C 0 km/h
809 16-02-2010 03:51:34 -3.1 C 3.16 g/m*3 -3.1 C 0 km/h
810 16-02-2010 04:16:34 -2.9 C 3.2 g/m*3 -2.9 C 0 km/h
811 16-02-2010 04:41:34 -2.7 C 3.29 g/m*3 -2.7 C 0 km/h
812 16-02-2010 05:06:34 -2.7 C 3.25 g/m*3 -2.7 C 0 km/h
813 16-02-2010 05:31:34 -2.7 C 3.25 g/m*3 -2.7 C 0 km/h
814 16-02-2010 05:56:34 -2.6 C 3.27 g/m*3 -2.6 C 0 km/h
815 16-02-2010 06:21:34 -2.3 C 3.34 g/m*3 -2.3 C 0 km/h
816 16-02-2010 06:46:34 -2.3 C 3.3 g/m*3 -2.3 C 0 km/h
817 16-02-2010 07:11:34 -2.5 C 3.26 g/m*3 -2.5 C 0 km/h
818 16-02-2010 07:36:34 -2.8 C 3.19 g/m*3 -2.8 C 0 km/h
819 16-02-2010 08:01:34 -2.8 C 3.19 g/m*3 -2.8 C 0 km/h
820 16-02-2010 08:26:34 -2.5 C 3.3 g/m*3 -2.5 C 0 km/h
821 16-02-2010 08:51:34 -1.9 C 3.4 g/m*3 -1.9 C 0 km/h
822 16-02-2010 09:16:34 -1.4 C 3.47 g/m*3 -1.4 C 0 km/h
823 16-02-2010 09:41:34 -0.7 C 3.51 g/m*3 -0.7 C 0 km/h
824 16-02-2010 10:06:34 -0.6 C 3.35 g/m*3 -0.6 C 0 km/h
825 16-02-2010 10:31:34 0.1 C 3.42 g/m*3 0.1 C 0 km/h
Sensor: Nr:Datum:Temp:Abs-Feuchte:Windchill:Wind:
Aussen-T/F 826 16-02-2010 10:56:34 -0.1 C 3.27 g/m*3 -0.1 C 0 km/h
827 16-02-2010 11:21:34 0.3 C 3.31 g/m*3 0.3 C 0 km/h
828 16-02-2010 11:46:35 0.4 C 3.19 g/m*3 0.4 C 0 km/h
829 16-02-2010 12:11:35 1.2 C 3.31 g/m*3 1.2 C 0 km/h
830 16-02-2010 12:36:35 2.4 C 2.91 g/m*3 2.4 C 0 km/h
831 16-02-2010 13:01:35 2.8 C 2.76 g/m*3 2.8 C 0 km/h
832 16-02-2010 13:26:35 2.9 C 2.6 g/m*3 2.9 C 0 km/h
833 16-02-2010 13:51:35 2.8 C 2.7 g/m*3 2.8 C 0 km/h
834 16-02-2010 14:16:35 3.5 C 2.64 g/m*3 3.5 C 0 km/h
835 16-02-2010 14:41:35 3.4 C 2.57 g/m*3 3.4 C 0 km/h
836 16-02-2010 15:06:35 3.2 C 2.53 g/m*3 3.2 C 0 km/h
837 16-02-2010 15:31:35 3.9 C 2.4 g/m*3 3.9 C 0 km/h
838 16-02-2010 15:56:35 4.5 C 2.43 g/m*3 4.5 C 0 km/h
839 16-02-2010 16:21:35 4.4 C 2.42 g/m*3 4.4 C 0 km/h
840 16-02-2010 16:46:35 4.1 C 2.43 g/m*3 4.1 C 0 km/h
841 16-02-2010 17:11:35 2.8 C 2.58 g/m*3 2.8 C 0 km/h
842 16-02-2010 17:36:35 1.1 C 2.61 g/m*3 1.1 C 0 km/h
843 16-02-2010 18:01:35 -0.2 C 2.63 g/m*3 -0.2 C 0 km/h
844 16-02-2010 18:26:35 -1.4 C 2.73 g/m*3 -1.4 C 0 km/h
845 16-02-2010 18:51:35 -2 C 2.74 g/m*3 -2 C 0 km/h
846 16-02-2010 19:16:35 -2.5 C 2.73 g/m*3 -2.5 C 0 km/h
847 16-02-2010 19:41:35 -2.7 C 2.77 g/m*3 -2.7 C 0 km/h
848 16-02-2010 20:06:36 -3 C 2.75 g/m*3 -3 C 0 km/h
849 16-02-2010 20:31:36 -3.2 C 2.75 g/m*3 -3.2 C 0 km/h
850 16-02-2010 20:56:36 -3.6 C 2.67 g/m*3 -3.6 C 0 km/h
Sensor: Nr:Datum:Temp:Abs-Feuchte:Windchill:Wind:
Aussen-T/F 851 16-02-2010 21:21:36 -3.8 C 2.67 g/m*3 -3.8 C 0 km/h
852 16-02-2010 21:46:36 -4.1 C 2.62 g/m*3 -4.1 C 0 km/h
853 16-02-2010 22:11:36 -4.2 C 2.63 g/m*3 -4.2 C 0 km/h
854 16-02-2010 22:36:36 -4.5 C 2.58 g/m*3 -4.5 C 0 km/h
855 16-02-2010 23:01:36 -4.7 C 2.54 g/m*3 -4.7 C 0 km/h
856 16-02-2010 23:26:36 -4.9 C 2.5 g/m*3 -4.9 C 0 km/h
857 16-02-2010 23:51:36 -5.1 C 2.47 g/m*3 -5.1 C 0 km/h
858 17-02-2010 00:16:36 -5.4 C 2.41 g/m*3 -5.4 C 0 km/h
859 17-02-2010 00:41:36 -5.7 C 2.36 g/m*3 -5.7 C 0 km/h
860 17-02-2010 01:06:36 -6 C 2.34 g/m*3 -6 C 0 km/h
861 17-02-2010 01:31:36 -6.2 C 2.31 g/m*3 -6.2 C 0 km/h
862 17-02-2010 01:56:36 -6.5 C 2.26 g/m*3 -6.5 C 0 km/h
863 17-02-2010 02:21:36 -6.6 C 2.27 g/m*3 -6.6 C 0 km/h
864 17-02-2010 02:46:36 -6.8 C 2.24 g/m*3 -6.8 C 0 km/h
865 17-02-2010 03:11:36 -6.9 C 2.22 g/m*3 -6.9 C 0 km/h
866 17-02-2010 03:36:36 -6.2 C 2.37 g/m*3 -6.2 C 0 km/h
867 17-02-2010 04:01:36 -5.8 C 2.44 g/m*3 -5.8 C 0 km/h
868 17-02-2010 04:26:36 -5.5 C 2.5 g/m*3 -5.5 C 0 km/h
869 17-02-2010 04:51:37 -5.3 C 2.5 g/m*3 -5.3 C 0 km/h
870 17-02-2010 05:16:37 -5.2 C 2.48 g/m*3 -5.2 C 0 km/h
871 17-02-2010 05:41:37 -4.9 C 2.54 g/m*3 -4.9 C 0 km/h
872 17-02-2010 06:06:37 -4.9 C 2.54 g/m*3 -4.9 C 0 km/h
873 17-02-2010 06:31:37 -4.7 C 2.57 g/m*3 -4.7 C 0 km/h
874 17-02-2010 06:56:37 -4.5 C 2.61 g/m*3 -4.5 C 0 km/h
875 17-02-2010 07:21:37 -4.4 C 2.6 g/m*3 -4.4 C 0 km/h
Sensor: Nr:Datum:Temp:Abs-Feuchte:Windchill:Wind:
Aussen-T/F 876 17-02-2010 07:46:37 -4.1 C 2.62 g/m*3 -4.1 C 0 km/h
877 17-02-2010 08:11:37 -3.8 C 2.67 g/m*3 -3.8 C 0 km/h
878 17-02-2010 08:36:37 -3.4 C 2.71 g/m*3 -3.4 C 0 km/h
879 17-02-2010 09:01:37 -3.1 C 2.65 g/m*3 -3.1 C 0 km/h
880 17-02-2010 09:26:37 -2.9 C 2.49 g/m*3 -2.9 C 0 km/h
881 17-02-2010 09:51:37 -2.7 C 2.53 g/m*3 -2.7 C 0 km/h
882 17-02-2010 10:16:37 -2.7 C 2.53 g/m*3 -2.7 C 0 km/h
883 17-02-2010 10:41:37 -2.2 C 2.54 g/m*3 -2.2 C 0 km/h
884 17-02-2010 11:06:37 -1.4 C 2.73 g/m*3 -1.4 C 0 km/h
885 17-02-2010 11:31:37 -0.6 C 2.79 g/m*3 -0.6 C 0 km/h
886 17-02-2010 11:56:37 1 C 2.91 g/m*3 1 C 0 km/h
887 17-02-2010 12:21:37 2.7 C 2.8 g/m*3 2.7 C 0 km/h
888 17-02-2010 12:46:37 3.5 C 2.71 g/m*3 3.5 C 0 km/h
889 17-02-2010 13:11:38 2.9 C 2.72 g/m*3 2.9 C 0 km/h
890 17-02-2010 13:36:38 2.8 C 2.7 g/m*3 2.8 C 0 km/h
891 17-02-2010 14:01:38 2.7 C 2.97 g/m*3 2.7 C 0 km/h
892 17-02-2010 14:26:38 2.1 C 3.3 g/m*3 2.1 C 0 km/h
893 17-02-2010 14:51:38 2.1 C 3.58 g/m*3 2.1 C 0 km/h
894 17-02-2010 15:16:38 1.3 C 3.81 g/m*3 1.3 C 0 km/h
895 17-02-2010 15:41:38 1.2 C 4 g/m*3 1.2 C 0 km/h
896 17-02-2010 16:06:38 1.3 C 4.13 g/m*3 1.3 C 0 km/h
897 17-02-2010 16:31:38 1 C 4.15 g/m*3 1 C 0 km/h
898 17-02-2010 16:56:38 0.9 C 4.23 g/m*3 0.9 C 0 km/h
899 17-02-2010 17:21:38 0.7 C 4.17 g/m*3 0.7 C 0 km/h
900 17-02-2010 17:46:38 0.6 C 4.19 g/m*3 0.6 C 0 km/h
Sensor: Nr:Datum:Temp:Abs-Feuchte:Windchill:Wind:
Aussen-T/F 901 17-02-2010 18:11:38 0.5 C 4.21 g/m*3 0.5 C 0 km/h
902 17-02-2010 18:36:38 0.5 C 4.31 g/m*3 0.5 C 0 km/h
903 17-02-2010 19:01:38 0.5 C 4.36 g/m*3 0.5 C 0 km/h
904 17-02-2010 19:26:38 0.5 C 4.36 g/m*3 0.5 C 0 km/h
905 17-02-2010 19:51:38 0.5 C 4.41 g/m*3 0.5 C 0 km/h
906 17-02-2010 20:16:38 0.7 C 4.53 g/m*3 0.7 C 0 km/h
907 17-02-2010 20:41:38 0.7 C 4.53 g/m*3 0.7 C 0 km/h
908 17-02-2010 21:06:38 0.7 C 4.53 g/m*3 0.7 C 0 km/h
909 17-02-2010 21:31:38 0.8 C 4.51 g/m*3 0.8 C 0 km/h
910 17-02-2010 21:56:39 0.8 C 4.56 g/m*3 0.8 C 0 km/h
911 17-02-2010 22:21:39 0.8 C 4.51 g/m*3 0.8 C 0 km/h
912 17-02-2010 22:46:39 0.8 C 4.51 g/m*3 0.8 C 0 km/h
913 17-02-2010 23:11:39 0.8 C 4.51 g/m*3 0.8 C 0 km/h
914 17-02-2010 23:36:39 0.8 C 4.51 g/m*3 0.8 C 0 km/h
915 18-02-2010 00:01:39 0.8 C 4.51 g/m*3 0.8 C 0 km/h
916 18-02-2010 00:26:39 0.9 C 4.54 g/m*3 0.9 C 0 km/h
917 18-02-2010 00:51:39 0.9 C 4.54 g/m*3 0.9 C 0 km/h
918 18-02-2010 01:16:39 1 C 4.57 g/m*3 1 C 0 km/h
919 18-02-2010 01:41:39 1 C 4.57 g/m*3 1 C 0 km/h
920 18-02-2010 02:06:39 1 C 4.57 g/m*3 1 C 0 km/h
921 18-02-2010 02:31:39 1.2 C 4.63 g/m*3 1.2 C 0 km/h
922 18-02-2010 02:56:39 1 C 4.57 g/m*3 1 C 0 km/h
923 18-02-2010 03:21:39 1.2 C 4.63 g/m*3 1.2 C 0 km/h
924 18-02-2010 03:46:39 1 C 4.57 g/m*3 1 C 0 km/h
925 18-02-2010 04:11:39 1 C 4.62 g/m*3 1 C 0 km/h
Sensor: Nr:Datum:Temp:Abs-Feuchte:Windchill:Wind:
Aussen-T/F 926 18-02-2010 04:36:39 1 C 4.62 g/m*3 1 C 0 km/h
927 18-02-2010 05:01:39 1.2 C 4.68 g/m*3 1.2 C 0 km/h
928 18-02-2010 05:26:39 1 C 4.62 g/m*3 1 C 0 km/h
929 18-02-2010 05:51:39 1.1 C 4.65 g/m*3 1.1 C 0 km/h
930 18-02-2010 06:16:40 1.1 C 4.65 g/m*3 1.1 C 0 km/h
931 18-02-2010 06:41:40 1.2 C 4.74 g/m*3 1.2 C 0 km/h
932 18-02-2010 07:06:40 1.1 C 4.7 g/m*3 1.1 C 0 km/h
933 18-02-2010 07:31:40 1.1 C 4.7 g/m*3 1.1 C 0 km/h
934 18-02-2010 07:56:40 1.1 C 4.7 g/m*3 1.1 C 0 km/h
935 18-02-2010 08:21:40 1.1 C 4.76 g/m*3 1.1 C 0 km/h
936 18-02-2010 08:46:40 1.4 C 4.85 g/m*3 1.4 C 0 km/h
937 18-02-2010 09:11:40 1.7 C 5.01 g/m*3 1.7 C 0 km/h
938 18-02-2010 09:36:40 2 C 5.06 g/m*3 2 C 0 km/h
939 18-02-2010 10:01:40 2.6 C 5.32 g/m*3 2.6 C 0 km/h
940 18-02-2010 10:26:40 3.6 C 5.63 g/m*3 3.6 C 0 km/h
941 18-02-2010 10:51:40 3.8 C 5.58 g/m*3 3.8 C 0 km/h
942 18-02-2010 11:16:40 4.1 C 5.25 g/m*3 4.1 C 0 km/h
943 18-02-2010 11:41:40 4.4 C 5.03 g/m*3 4.4 C 0 km/h
944 18-02-2010 12:06:40 4.7 C 4.86 g/m*3 4.7 C 0 km/h
945 18-02-2010 12:31:40 5.1 C 4.65 g/m*3 5.1 C 0 km/h
946 18-02-2010 12:56:40 5.8 C 4.58 g/m*3 5.8 C 0 km/h
947 18-02-2010 13:21:40 6.8 C 4.36 g/m*3 6.8 C 0 km/h
948 18-02-2010 13:46:40 7.4 C 4.14 g/m*3 7.4 C 0 km/h
949 18-02-2010 14:11:40 8 C 4.13 g/m*3 8 C 0 km/h
950 18-02-2010 14:36:41 8.5 C 4.1 g/m*3 8.5 C 0 km/h
Sensor: Nr:Datum:Temp:Abs-Feuchte:Windchill:Wind:
Aussen-T/F 951 18-02-2010 15:01:41 9.1 C 3.73 g/m*3 9.1 C 0 km/h
952 18-02-2010 15:26:41 9.5 C 3.64 g/m*3 9.5 C 0 km/h
953 18-02-2010 15:51:41 10.1 C 3.59 g/m*3 10.1 C 0 km/h
954 18-02-2010 16:16:41 9.6 C 3.57 g/m*3 9.6 C 0 km/h
955 18-02-2010 16:41:41 9.3 C 3.59 g/m*3 9.3 C 0 km/h
956 18-02-2010 17:06:41 7.5 C 3.36 g/m*3 7.5 C 0 km/h
957 18-02-2010 17:31:41 6.3 C 3.55 g/m*3 6.3 C 0 km/h
958 18-02-2010 17:56:41 5.6 C 3.68 g/m*3 5.6 C 0 km/h
959 18-02-2010 18:21:41 4 C 3.88 g/m*3 4 C 0 km/h
960 18-02-2010 18:46:41 3.2 C 3.98 g/m*3 3.2 C 0 km/h
961 18-02-2010 19:11:41 2.6 C 4.11 g/m*3 2.6 C 0 km/h
962 18-02-2010 19:36:41 2.5 C 4.2 g/m*3 2.5 C 0 km/h
963 18-02-2010 20:01:41 2.1 C 4.08 g/m*3 2.1 C 0 km/h
964 18-02-2010 20:26:41 2 C 4.17 g/m*3 2 C 0 km/h
965 18-02-2010 20:51:41 1.6 C 4.16 g/m*3 1.6 C 0 km/h
966 18-02-2010 21:16:41 1.4 C 4.21 g/m*3 1.4 C 0 km/h
967 18-02-2010 21:41:41 1.4 C 4.21 g/m*3 1.4 C 0 km/h
968 18-02-2010 22:06:41 1.7 C 4.3 g/m*3 1.7 C 0 km/h
969 18-02-2010 22:31:41 2 C 4.33 g/m*3 2 C 0 km/h
970 18-02-2010 22:56:42 1.9 C 4.36 g/m*3 1.9 C 0 km/h
971 18-02-2010 23:21:42 1.7 C 4.3 g/m*3 1.7 C 0 km/h
972 18-02-2010 23:46:42 1.9 C 4.53 g/m*3 1.9 C 0 km/h
973 19-02-2010 00:11:42 2.1 C 4.59 g/m*3 2.1 C 0 km/h
974 19-02-2010 00:36:42 1.8 C 4.55 g/m*3 1.8 C 0 km/h
975 19-02-2010 01:01:42 2 C 4.67 g/m*3 2 C 0 km/h
Sensor: Nr:Datum:Temp:Abs-Feuchte:Windchill:Wind:
Aussen-T/F 976 19-02-2010 01:26:42 2 C 4.67 g/m*3 2 C 0 km/h
977 19-02-2010 01:51:42 2.1 C 4.76 g/m*3 2.1 C 0 km/h
978 19-02-2010 02:16:42 2.1 C 4.7 g/m*3 2.1 C 0 km/h
979 19-02-2010 02:41:42 2 C 4.67 g/m*3 2 C 0 km/h
980 19-02-2010 03:06:42 1.8 C 4.66 g/m*3 1.8 C 0 km/h
981 19-02-2010 03:31:42 1.8 C 4.71 g/m*3 1.8 C 0 km/h
982 19-02-2010 03:56:42 1.6 C 4.7 g/m*3 1.6 C 0 km/h
983 19-02-2010 04:21:42 1.6 C 4.7 g/m*3 1.6 C 0 km/h
984 19-02-2010 04:46:42 1.6 C 4.7 g/m*3 1.6 C 0 km/h
985 19-02-2010 05:11:42 1.7 C 4.79 g/m*3 1.7 C 0 km/h
986 19-02-2010 05:36:42 1.8 C 4.77 g/m*3 1.8 C 0 km/h
987 19-02-2010 06:01:42 1.9 C 4.8 g/m*3 1.9 C 0 km/h
988 19-02-2010 06:26:42 2.1 C 4.76 g/m*3 2.1 C 0 km/h
989 19-02-2010 06:51:42 2 C 4.67 g/m*3 2 C 0 km/h
990 19-02-2010 07:16:42 1.7 C 4.63 g/m*3 1.7 C 0 km/h
991 19-02-2010 07:41:43 1.5 C 4.57 g/m*3 1.5 C 0 km/h
992 19-02-2010 08:06:43 1.5 C 4.62 g/m*3 1.5 C 0 km/h
993 19-02-2010 08:31:43 1.6 C 4.65 g/m*3 1.6 C 0 km/h
994 19-02-2010 08:56:43 2.1 C 4.81 g/m*3 2.1 C 0 km/h
995 19-02-2010 09:21:43 2.5 C 4.83 g/m*3 2.5 C 0 km/h
996 19-02-2010 09:46:43 3.1 C 4.91 g/m*3 3.1 C 0 km/h
997 19-02-2010 10:11:43 3.7 C 5.05 g/m*3 3.7 C 0 km/h
998 19-02-2010 10:36:02 4.6 C 5.1 g/m*3 4.6 C 0 km/h
999 19-02-2010 11:01:02 5.3 C 5.06 g/m*3 5.3 C 0 km/h
1000 19-02-2010 11:26:01 6 C 4.79 g/m*3 6 C 0 km/h
Sensor: Nr:Datum:Temp:Abs-Feuchte:Windchill:Wind:
Aussen-T/F 1001 19-02-2010 11:51:02 6.5 C 4.72 g/m*3 6.5 C 0 km/h
1002 19-02-2010 12:16:02 7 C 4.49 g/m*3 7 C 0 km/h
1003 19-02-2010 12:41:02 7.6 C 4.27 g/m*3 7.6 C 0 km/h
1004 19-02-2010 13:06:02 7.6 C 4.11 g/m*3 7.6 C 0 km/h
1005 19-02-2010 13:31:02 7.7 C 4.05 g/m*3 7.7 C 0 km/h
1006 19-02-2010 13:56:02 7.6 C 3.95 g/m*3 7.6 C 0 km/h
1007 19-02-2010 14:21:01 7.5 C 4 g/m*3 7.5 C 0 km/h
1008 19-02-2010 14:46:02 7.5 C 3.92 g/m*3 7.5 C 0 km/h
1009 19-02-2010 15:11:03 7.8 C 3.67 g/m*3 7.8 C 0 km/h
1010 19-02-2010 15:36:02 7.2 C 3.53 g/m*3 7.2 C 0 km/h
1011 19-02-2010 16:01:02 6.3 C 3.33 g/m*3 6.3 C 0 km/h
1012 19-02-2010 16:26:01 6.1 C 3.29 g/m*3 6.1 C 0 km/h
1013 19-02-2010 16:51:01 5.5 C 3.23 g/m*3 5.5 C 0 km/h
1014 19-02-2010 17:16:02 5 C 3.06 g/m*3 5 C 0 km/h
1015 19-02-2010 17:41:02 5.1 C 3.01 g/m*3 5.1 C 0 km/h
1016 19-02-2010 18:06:02 4.5 C 3.02 g/m*3 4.5 C 0 km/h
1017 19-02-2010 18:31:02 4.1 C 3.07 g/m*3 4.1 C 0 km/h
1018 19-02-2010 18:56:01 3.7 C 3.18 g/m*3 3.7 C 0 km/h
1019 19-02-2010 19:21:01 3.6 C 3.22 g/m*3 3.6 C 0 km/h
1020 19-02-2010 19:46:02 3.6 C 3.28 g/m*3 3.6 C 0 km/h
1021 19-02-2010 20:11:02 3.3 C 3.34 g/m*3 3.3 C 0 km/h
1022 19-02-2010 20:36:02 3.3 C 3.46 g/m*3 3.3 C 0 km/h
1023 19-02-2010 21:14:02 3.3 C 3.52 g/m*3 3.3 C 0 km/h
1024 19-02-2010 21:26:02 3.2 C 3.56 g/m*3 3.2 C 0 km/h
1025 19-02-2010 21:38:01 3.2 C 3.5 g/m*3 3.2 C 0 km/h
Sensor: Nr:Datum:Temp:Abs-Feuchte:Windchill:Wind:
Aussen-T/F 1026 19-02-2010 21:50:01 3.1 C 3.53 g/m*3 3.1 C 0 km/h
1027 19-02-2010 22:02:02 2.8 C 3.52 g/m*3 2.8 C 0 km/h
1028 19-02-2010 22:14:02 2.6 C 3.53 g/m*3 2.6 C 0 km/h
1029 19-02-2010 22:26:01 2.6 C 3.47 g/m*3 2.6 C 0 km/h
1030 19-02-2010 22:38:02 2.4 C 3.43 g/m*3 2.4 C 0 km/h
1031 19-02-2010 22:50:01 2.2 C 3.38 g/m*3 2.2 C 0 km/h
1032 19-02-2010 23:02:02 2.1 C 3.36 g/m*3 2.1 C 0 km/h
1033 19-02-2010 23:14:02 2.5 C 3.22 g/m*3 2.5 C 0 km/h
1034 19-02-2010 23:26:01 2.5 C 3.16 g/m*3 2.5 C 0 km/h
1035 19-02-2010 23:38:02 2.2 C 3.21 g/m*3 2.2 C 0 km/h
1036 19-02-2010 23:50:01 1.6 C 3.24 g/m*3 1.6 C 0 km/h
1037 20-02-2010 00:02:02 1.5 C 3.33 g/m*3 1.5 C 0 km/h
1038 20-02-2010 00:14:02 1.4 C 3.31 g/m*3 1.4 C 0 km/h
1039 20-02-2010 00:26:02 1.2 C 3.37 g/m*3 1.2 C 0 km/h
1040 20-02-2010 00:38:01 1.1 C 3.4 g/m*3 1.1 C 0 km/h
1041 20-02-2010 00:50:02 0.7 C 3.41 g/m*3 0.7 C 0 km/h
1042 20-02-2010 01:02:01 0.4 C 3.39 g/m*3 0.4 C 0 km/h
1043 20-02-2010 01:14:01 0.1 C 3.42 g/m*3 0.1 C 0 km/h
1044 20-02-2010 01:26:01 -0.1 C 3.46 g/m*3 -0.1 C 0 km/h
1045 20-02-2010 01:38:02 -0.1 C 3.51 g/m*3 -0.1 C 0 km/h
1046 20-02-2010 01:50:02 -0.1 C 3.56 g/m*3 -0.1 C 0 km/h
1047 20-02-2010 02:02:02 -0.2 C 3.58 g/m*3 -0.2 C 0 km/h
1048 20-02-2010 02:14:02 -0.3 C 3.56 g/m*3 -0.3 C 0 km/h
1049 20-02-2010 02:26:02 -0.3 C 3.61 g/m*3 -0.3 C 0 km/h
1050 20-02-2010 02:38:02 -0.4 C 3.58 g/m*3 -0.4 C 0 km/h
Sensor: Nr:Datum:Temp:Abs-Feuchte:Windchill:Wind:
Aussen-T/F 1051 20-02-2010 02:50:01 -0.4 C 3.58 g/m*3 -0.4 C 0 km/h
1052 20-02-2010 03:02:01 -0.4 C 3.58 g/m*3 -0.4 C 0 km/h
1053 20-02-2010 03:14:01 -0.7 C 3.46 g/m*3 -0.7 C 0 km/h
1054 20-02-2010 03:26:01 -0.7 C 3.51 g/m*3 -0.7 C 0 km/h
1055 20-02-2010 03:38:02 -0.8 C 3.48 g/m*3 -0.8 C 0 km/h
1056 20-02-2010 03:50:02 -1 C 3.44 g/m*3 -1 C 0 km/h
1057 20-02-2010 04:02:01 -0.9 C 3.51 g/m*3 -0.9 C 0 km/h
1058 20-02-2010 04:14:01 -0.7 C 3.55 g/m*3 -0.7 C 0 km/h
1059 20-02-2010 04:26:01 -0.7 C 3.51 g/m*3 -0.7 C 0 km/h
1060 20-02-2010 04:38:02 -0.4 C 3.58 g/m*3 -0.4 C 0 km/h
1061 20-02-2010 04:50:01 -0.2 C 3.58 g/m*3 -0.2 C 0 km/h
1062 20-02-2010 05:02:01 -0.1 C 3.61 g/m*3 -0.1 C 0 km/h
1063 20-02-2010 05:14:01 -0.2 C 3.54 g/m*3 -0.2 C 0 km/h
1064 20-02-2010 05:26:01 -0.2 C 3.58 g/m*3 -0.2 C 0 km/h
1065 20-02-2010 05:38:02 -0.2 C 3.58 g/m*3 -0.2 C 0 km/h
1066 20-02-2010 05:50:01 0 C 3.63 g/m*3 0 C 0 km/h
1067 20-02-2010 06:02:02 -0.2 C 3.58 g/m*3 -0.2 C 0 km/h
1068 20-02-2010 06:14:02 0.1 C 3.71 g/m*3 0.1 C 0 km/h
1069 20-02-2010 06:26:01 0.4 C 3.79 g/m*3 0.4 C 0 km/h
1070 20-02-2010 06:38:01 0.3 C 3.76 g/m*3 0.3 C 0 km/h
1071 20-02-2010 06:50:01 0 C 3.68 g/m*3 0 C 0 km/h
1072 20-02-2010 07:02:01 -0.2 C 3.68 g/m*3 -0.2 C 0 km/h
1073 20-02-2010 07:14:02 -0.5 C 3.65 g/m*3 -0.5 C 0 km/h
1074 20-02-2010 07:26:01 -0.6 C 3.67 g/m*3 -0.6 C 0 km/h
1075 20-02-2010 07:38:01 -0.6 C 3.72 g/m*3 -0.6 C 0 km/h
Sensor: Nr:Datum:Temp:Abs-Feuchte:Windchill:Wind:
Aussen-T/F 1076 20-02-2010 07:50:01 -0.6 C 3.76 g/m*3 -0.6 C 0 km/h
1077 20-02-2010 08:02:02 -0.2 C 3.92 g/m*3 -0.2 C 0 km/h
1078 20-02-2010 08:14:02 0.1 C 3.95 g/m*3 0.1 C 0 km/h
1079 20-02-2010 08:26:01 0.4 C 3.98 g/m*3 0.4 C 0 km/h
1080 20-02-2010 08:38:01 0.7 C 3.97 g/m*3 0.7 C 0 km/h
1081 20-02-2010 08:50:01 1 C 3.94 g/m*3 1 C 0 km/h
1082 20-02-2010 09:02:02 1.2 C 3.95 g/m*3 1.2 C 0 km/h
1083 20-02-2010 09:14:02 1.4 C 3.89 g/m*3 1.4 C 0 km/h
1084 20-02-2010 09:26:01 1.5 C 3.87 g/m*3 1.5 C 0 km/h
1085 20-02-2010 09:38:01 1.2 C 3.79 g/m*3 1.2 C 0 km/h
1086 20-02-2010 09:50:01 1.2 C 3.74 g/m*3 1.2 C 0 km/h
1087 20-02-2010 10:02:01 1.3 C 3.76 g/m*3 1.3 C 0 km/h
1088 20-02-2010 10:14:01 1.4 C 3.73 g/m*3 1.4 C 0 km/h
1089 20-02-2010 10:26:01 1.5 C 3.71 g/m*3 1.5 C 0 km/h
1090 20-02-2010 10:38:01 1.7 C 3.76 g/m*3 1.7 C 0 km/h
1091 20-02-2010 10:50:01 1.8 C 3.73 g/m*3 1.8 C 0 km/h
1092 20-02-2010 11:02:01 2.1 C 3.75 g/m*3 2.1 C 0 km/h
1093 20-02-2010 11:14:01 3 C 3.63 g/m*3 3 C 0 km/h
1094 20-02-2010 11:26:01 3.3 C 3.58 g/m*3 3.3 C 0 km/h
1095 20-02-2010 11:38:01 3.7 C 3.61 g/m*3 3.7 C 0 km/h
1096 20-02-2010 11:50:01 4.1 C 3.46 g/m*3 4.1 C 0 km/h
1097 20-02-2010 12:02:01 4.1 C 3.33 g/m*3 4.1 C 0 km/h
1098 20-02-2010 12:14:01 3.9 C 3.47 g/m*3 3.9 C 0 km/h
1099 20-02-2010 12:26:02 4.1 C 3.39 g/m*3 4.1 C 0 km/h
1100 20-02-2010 12:38:01 3.8 C 3.45 g/m*3 3.8 C 0 km/h
Sensor: Nr:Datum:Temp:Abs-Feuchte:Windchill:Wind:
Aussen-T/F 1101 20-02-2010 12:50:01 4.2 C 3.41 g/m*3 4.2 C 0 km/h
1102 20-02-2010 13:02:01 4.2 C 3.22 g/m*3 4.2 C 0 km/h
1103 20-02-2010 13:14:01 4.3 C 3.18 g/m*3 4.3 C 0 km/h
1104 20-02-2010 13:26:02 4.5 C 3.22 g/m*3 4.5 C 0 km/h
1105 20-02-2010 13:38:01 4.5 C 3.16 g/m*3 4.5 C 0 km/h
1106 20-02-2010 13:50:02 4.3 C 3.11 g/m*3 4.3 C 0 km/h
1107 20-02-2010 14:02:01 4.2 C 3.22 g/m*3 4.2 C 0 km/h
1108 20-02-2010 14:14:01 4.5 C 3.22 g/m*3 4.5 C 0 km/h
1109 20-02-2010 14:26:02 4.9 C 3.24 g/m*3 4.9 C 0 km/h
1110 20-02-2010 14:38:01 4.7 C 3.2 g/m*3 4.7 C 0 km/h
1111 20-02-2010 14:50:01 4.5 C 3.22 g/m*3 4.5 C 0 km/h
1112 20-02-2010 15:02:01 4.4 C 3.2 g/m*3 4.4 C 0 km/h
1113 20-02-2010 15:14:01 4.8 C 3.22 g/m*3 4.8 C 0 km/h
1114 20-02-2010 15:26:02 4.9 C 3.17 g/m*3 4.9 C 0 km/h
1115 20-02-2010 15:38:01 5.1 C 3.15 g/m*3 5.1 C 0 km/h
1116 20-02-2010 15:50:02 5.1 C 3.08 g/m*3 5.1 C 0 km/h
1117 20-02-2010 16:02:01 5 C 3.06 g/m*3 5 C 0 km/h
1118 20-02-2010 16:14:01 4.9 C 3.11 g/m*3 4.9 C 0 km/h
1119 20-02-2010 16:26:02 5 C 3.06 g/m*3 5 C 0 km/h
1120 20-02-2010 16:38:01 5.2 C 3.1 g/m*3 5.2 C 0 km/h
1121 20-02-2010 16:50:02 4.9 C 3.04 g/m*3 4.9 C 0 km/h
1122 20-02-2010 17:02:01 4.5 C 3.09 g/m*3 4.5 C 0 km/h
1123 20-02-2010 17:14:01 4.9 C 3.11 g/m*3 4.9 C 0 km/h
1124 20-02-2010 17:26:01 4.8 C 3.08 g/m*3 4.8 C 0 km/h
1125 20-02-2010 17:38:01 4.2 C 3.16 g/m*3 4.2 C 0 km/h
Sensor: Nr:Datum:Temp:Abs-Feuchte:Windchill:Wind:
Aussen-T/F 1126 20-02-2010 17:50:02 3.6 C 3.47 g/m*3 3.6 C 0 km/h
1127 20-02-2010 18:02:01 2.9 C 3.54 g/m*3 2.9 C 0 km/h
1128 20-02-2010 18:14:01 2.5 C 3.56 g/m*3 2.5 C 0 km/h
1129 20-02-2010 18:26:02 2.5 C 3.56 g/m*3 2.5 C 0 km/h
1130 20-02-2010 18:38:01 2.7 C 3.55 g/m*3 2.7 C 0 km/h
1131 20-02-2010 18:50:02 2.6 C 3.47 g/m*3 2.6 C 0 km/h
1132 20-02-2010 19:02:01 2.2 C 3.44 g/m*3 2.2 C 0 km/h
1133 20-02-2010 19:14:01 2 C 3.45 g/m*3 2 C 0 km/h
1134 20-02-2010 19:26:01 1.8 C 3.45 g/m*3 1.8 C 0 km/h
1135 20-02-2010 19:38:02 2 C 3.45 g/m*3 2 C 0 km/h
1136 20-02-2010 19:50:01 1.5 C 3.44 g/m*3 1.5 C 0 km/h
1137 20-02-2010 20:02:01 1.3 C 3.44 g/m*3 1.3 C 0 km/h
1138 20-02-2010 20:14:01 0.9 C 3.45 g/m*3 0.9 C 0 km/h
1139 20-02-2010 20:26:01 0.8 C 3.48 g/m*3 0.8 C 0 km/h
1140 20-02-2010 20:38:02 0.6 C 3.43 g/m*3 0.6 C 0 km/h
1141 20-02-2010 20:50:01 0.7 C 3.41 g/m*3 0.7 C 0 km/h
1142 20-02-2010 21:02:02 0.7 C 3.41 g/m*3 0.7 C 0 km/h
1143 20-02-2010 21:14:02 0.8 C 3.33 g/m*3 0.8 C 0 km/h
1144 20-02-2010 21:26:01 0.8 C 3.28 g/m*3 0.8 C 0 km/h
1145 20-02-2010 21:38:02 0.7 C 3.3 g/m*3 0.7 C 0 km/h
1146 20-02-2010 21:50:01 1 C 3.32 g/m*3 1 C 0 km/h
1147 20-02-2010 22:02:02 1.1 C 3.34 g/m*3 1.1 C 0 km/h
1148 20-02-2010 22:14:02 0.9 C 3.35 g/m*3 0.9 C 0 km/h
1149 20-02-2010 22:26:01 0.7 C 3.36 g/m*3 0.7 C 0 km/h
1150 20-02-2010 22:38:02 0.4 C 3.34 g/m*3 0.4 C 0 km/h
Sensor: Nr:Datum:Temp:Abs-Feuchte:Windchill:Wind:
Aussen-T/F 1151 20-02-2010 22:50:01 0.4 C 3.39 g/m*3 0.4 C 0 km/h
1152 20-02-2010 23:02:02 0.5 C 3.41 g/m*3 0.5 C 0 km/h
1153 20-02-2010 23:14:02 0.6 C 3.48 g/m*3 0.6 C 0 km/h
1154 20-02-2010 23:26:01 0.9 C 3.56 g/m*3 0.9 C 0 km/h
1155 20-02-2010 23:38:01 1.4 C 3.63 g/m*3 1.4 C 0 km/h
1156 20-02-2010 23:50:01 1.5 C 3.6 g/m*3 1.5 C 0 km/h
1157 21-02-2010 00:02:01 1.6 C 3.62 g/m*3 1.6 C 0 km/h
1158 21-02-2010 00:14:01 1.8 C 3.67 g/m*3 1.8 C 0 km/h
1159 21-02-2010 00:26:01 2.1 C 3.64 g/m*3 2.1 C 0 km/h
1160 21-02-2010 00:38:02 2.2 C 3.66 g/m*3 2.2 C 0 km/h
1161 21-02-2010 00:50:01 2.1 C 3.64 g/m*3 2.1 C 0 km/h
1162 21-02-2010 01:02:02 2.1 C 3.64 g/m*3 2.1 C 0 km/h
1163 21-02-2010 01:14:02 2 C 3.61 g/m*3 2 C 0 km/h
1164 21-02-2010 01:26:01 1.7 C 3.59 g/m*3 1.7 C 0 km/h
1165 21-02-2010 01:38:02 1.7 C 3.59 g/m*3 1.7 C 0 km/h
1166 21-02-2010 01:50:01 1.7 C 3.54 g/m*3 1.7 C 0 km/h
1167 21-02-2010 02:02:02 1.6 C 3.57 g/m*3 1.6 C 0 km/h
1168 21-02-2010 02:14:02 1.6 C 3.57 g/m*3 1.6 C 0 km/h
1169 21-02-2010 02:26:01 1.7 C 3.59 g/m*3 1.7 C 0 km/h
1170 21-02-2010 02:38:01 1.8 C 3.62 g/m*3 1.8 C 0 km/h
1171 21-02-2010 02:50:01 1.7 C 3.7 g/m*3 1.7 C 0 km/h
1172 21-02-2010 03:02:01 1.5 C 3.81 g/m*3 1.5 C 0 km/h
1173 21-02-2010 03:14:02 1.3 C 3.87 g/m*3 1.3 C 0 km/h
1174 21-02-2010 03:26:02 1 C 3.89 g/m*3 1 C 0 km/h
1175 21-02-2010 03:38:01 0.6 C 3.89 g/m*3 0.6 C 0 km/h
Sensor: Nr:Datum:Temp:Abs-Feuchte:Windchill:Wind:
Aussen-T/F 1176 21-02-2010 03:50:01 0.4 C 3.93 g/m*3 0.4 C 0 km/h
1177 21-02-2010 04:02:02 0.4 C 3.98 g/m*3 0.4 C 0 km/h
1178 21-02-2010 04:14:02 0.4 C 4.08 g/m*3 0.4 C 0 km/h
1179 21-02-2010 04:26:01 0.3 C 4.11 g/m*3 0.3 C 0 km/h
1180 21-02-2010 04:38:01 0.4 C 4.18 g/m*3 0.4 C 0 km/h
1181 21-02-2010 04:50:01 0.4 C 4.23 g/m*3 0.4 C 0 km/h
1182 21-02-2010 05:02:01 0.5 C 4.31 g/m*3 0.5 C 0 km/h
1183 21-02-2010 05:14:01 0.4 C 4.33 g/m*3 0.4 C 0 km/h
1184 21-02-2010 05:26:01 0.5 C 4.36 g/m*3 0.5 C 0 km/h
1185 21-02-2010 05:38:01 0.5 C 4.41 g/m*3 0.5 C 0 km/h
1186 21-02-2010 05:50:01 0.6 C 4.44 g/m*3 0.6 C 0 km/h
1187 21-02-2010 06:02:01 0.6 C 4.49 g/m*3 0.6 C 0 km/h
1188 21-02-2010 06:14:01 0.7 C 4.53 g/m*3 0.7 C 0 km/h
1189 21-02-2010 06:26:02 0.7 C 4.53 g/m*3 0.7 C 0 km/h
1190 21-02-2010 06:38:01 0.8 C 4.56 g/m*3 0.8 C 0 km/h
1191 21-02-2010 06:50:02 0.8 C 4.56 g/m*3 0.8 C 0 km/h
1192 21-02-2010 07:02:01 0.9 C 4.54 g/m*3 0.9 C 0 km/h
1193 21-02-2010 07:14:01 0.9 C 4.48 g/m*3 0.9 C 0 km/h
1194 21-02-2010 07:26:02 0.8 C 4.45 g/m*3 0.8 C 0 km/h
1195 21-02-2010 07:38:01 0.8 C 4.4 g/m*3 0.8 C 0 km/h
1196 21-02-2010 07:50:01 0.8 C 4.35 g/m*3 0.8 C 0 km/h
1197 21-02-2010 08:02:02 1.3 C 4.45 g/m*3 1.3 C 0 km/h
1198 21-02-2010 08:14:02 1.2 C 4.42 g/m*3 1.2 C 0 km/h
1199 21-02-2010 08:26:01 1.4 C 4.37 g/m*3 1.4 C 0 km/h
1200 21-02-2010 08:38:01 1.6 C 4.38 g/m*3 1.6 C 0 km/h
Sensor: Nr:Datum:Temp:Abs-Feuchte:Windchill:Wind:
Aussen-T/F 1201 21-02-2010 08:50:01 1.5 C 4.4 g/m*3 1.5 C 0 km/h
1202 21-02-2010 09:02:01 1.6 C 4.43 g/m*3 1.6 C 0 km/h
1203 21-02-2010 09:14:02 1.7 C 4.46 g/m*3 1.7 C 0 km/h
1204 21-02-2010 09:26:01 2 C 4.5 g/m*3 2 C 0 km/h
1205 21-02-2010 09:38:01 2.1 C 4.48 g/m*3 2.1 C 0 km/h
1206 21-02-2010 09:50:01 2.3 C 4.48 g/m*3 2.3 C 0 km/h
1207 21-02-2010 10:02:02 2.5 C 4.48 g/m*3 2.5 C 0 km/h
1208 21-02-2010 10:14:02 2.8 C 4.52 g/m*3 2.8 C 0 km/h
1209 21-02-2010 10:26:01 2.9 C 4.49 g/m*3 2.9 C 0 km/h
1210 21-02-2010 10:38:02 3 C 4.34 g/m*3 3 C 0 km/h
1211 21-02-2010 10:50:02 3.1 C 4.37 g/m*3 3.1 C 0 km/h
1212 21-02-2010 11:02:01 3.2 C 4.4 g/m*3 3.2 C 0 km/h
1213 21-02-2010 11:14:01 3.7 C 4.42 g/m*3 3.7 C 0 km/h
1214 21-02-2010 11:26:01 3.8 C 4.33 g/m*3 3.8 C 0 km/h
1215 21-02-2010 11:38:02 4 C 4.26 g/m*3 4 C 0 km/h
1216 21-02-2010 11:50:01 4.2 C 4.25 g/m*3 4.2 C 0 km/h
1217 21-02-2010 12:02:01 4.4 C 4.05 g/m*3 4.4 C 0 km/h
1218 21-02-2010 12:14:01 4.5 C 3.81 g/m*3 4.5 C 0 km/h
1219 21-02-2010 12:26:02 4.8 C 3.82 g/m*3 4.8 C 0 km/h
1220 21-02-2010 12:38:01 5 C 3.94 g/m*3 5 C 0 km/h
1221 21-02-2010 12:50:01 5.1 C 3.9 g/m*3 5.1 C 0 km/h
1222 21-02-2010 13:02:01 4.9 C 3.78 g/m*3 4.9 C 0 km/h
1223 21-02-2010 13:14:01 4.7 C 3.86 g/m*3 4.7 C 0 km/h
1224 21-02-2010 13:26:01 4.7 C 3.93 g/m*3 4.7 C 0 km/h
1225 21-02-2010 13:38:01 4.7 C 4.06 g/m*3 4.7 C 0 km/h
Sensor: Nr:Datum:Temp:Abs-Feuchte:Windchill:Wind:
Aussen-T/F 1226 21-02-2010 13:50:01 5.2 C 4.06 g/m*3 5.2 C 0 km/h
1227 21-02-2010 14:02:02 5.7 C 4.06 g/m*3 5.7 C 0 km/h
1228 21-02-2010 14:14:02 5.3 C 3.95 g/m*3 5.3 C 0 km/h
1229 21-02-2010 14:26:01 5.3 C 3.95 g/m*3 5.3 C 0 km/h
1230 21-02-2010 14:38:01 5.2 C 4.06 g/m*3 5.2 C 0 km/h
1231 21-02-2010 14:50:01 5.2 C 4.06 g/m*3 5.2 C 0 km/h
1232 21-02-2010 15:02:01 5.4 C 4.12 g/m*3 5.4 C 0 km/h
1233 21-02-2010 15:14:01 6.1 C 4.09 g/m*3 6.1 C 0 km/h
1234 21-02-2010 15:26:01 6.3 C 4.07 g/m*3 6.3 C 0 km/h
1235 21-02-2010 15:38:01 6.4 C 4.1 g/m*3 6.4 C 0 km/h
1236 21-02-2010 15:50:02 6.3 C 4.15 g/m*3 6.3 C 0 km/h
1237 21-02-2010 16:02:01 6.4 C 4.17 g/m*3 6.4 C 0 km/h
1238 21-02-2010 16:14:01 6.5 C 4.12 g/m*3 6.5 C 0 km/h
1239 21-02-2010 16:26:02 6.5 C 4.2 g/m*3 6.5 C 0 km/h
1240 21-02-2010 16:38:01 6.2 C 4.04 g/m*3 6.2 C 0 km/h
1241 21-02-2010 16:50:01 7.2 C 4.24 g/m*3 7.2 C 0 km/h
1242 21-02-2010 17:02:02 6.5 C 3.97 g/m*3 6.5 C 0 km/h
1243 21-02-2010 17:14:02 5.9 C 4.11 g/m*3 5.9 C 0 km/h
1244 21-02-2010 17:26:01 5.6 C 4.1 g/m*3 5.6 C 0 km/h
1245 21-02-2010 17:38:02 5.3 C 4.16 g/m*3 5.3 C 0 km/h
1246 21-02-2010 17:50:01 5.1 C 4.17 g/m*3 5.1 C 0 km/h
1247 21-02-2010 18:02:02 4.8 C 4.29 g/m*3 4.8 C 0 km/h
1248 21-02-2010 18:14:02 4.6 C 4.3 g/m*3 4.6 C 0 km/h
1249 21-02-2010 18:26:01 4.4 C 4.31 g/m*3 4.4 C 0 km/h
1250 21-02-2010 18:38:01 3.8 C 4.27 g/m*3 3.8 C 0 km/h
Sensor: Nr:Datum:Temp:Abs-Feuchte:Windchill:Wind:
Aussen-T/F 1251 21-02-2010 18:50:01 3.4 C 4.28 g/m*3 3.4 C 0 km/h
1252 21-02-2010 19:02:02 3 C 4.22 g/m*3 3 C 0 km/h
1253 21-02-2010 19:14:02 2.9 C 4.37 g/m*3 2.9 C 0 km/h
1254 21-02-2010 19:26:01 2.8 C 4.4 g/m*3 2.8 C 0 km/h
1255 21-02-2010 19:38:01 2.8 C 4.46 g/m*3 2.8 C 0 km/h
1256 21-02-2010 19:50:01 2.7 C 4.49 g/m*3 2.7 C 0 km/h
1257 21-02-2010 20:02:01 2.5 C 4.43 g/m*3 2.5 C 0 km/h
1258 21-02-2010 20:14:01 2.4 C 4.4 g/m*3 2.4 C 0 km/h
1259 21-02-2010 20:26:01 2.7 C 4.6 g/m*3 2.7 C 0 km/h
1260 21-02-2010 20:38:01 2.8 C 4.63 g/m*3 2.8 C 0 km/h
1261 21-02-2010 20:50:01 3 C 4.58 g/m*3 3 C 0 km/h
1262 21-02-2010 21:02:01 3 C 4.58 g/m*3 3 C 0 km/h
1263 21-02-2010 21:14:01 3 C 4.58 g/m*3 3 C 0 km/h
1264 21-02-2010 21:26:02 2.9 C 4.61 g/m*3 2.9 C 0 km/h
1265 21-02-2010 21:38:01 2.8 C 4.58 g/m*3 2.8 C 0 km/h
1266 21-02-2010 21:50:02 2.7 C 4.6 g/m*3 2.7 C 0 km/h
1267 21-02-2010 22:02:01 2.6 C 4.57 g/m*3 2.6 C 0 km/h
1268 21-02-2010 22:14:01 2.4 C 4.51 g/m*3 2.4 C 0 km/h
1269 21-02-2010 22:26:02 2.3 C 4.54 g/m*3 2.3 C 0 km/h
1270 21-02-2010 22:38:01 2.1 C 4.53 g/m*3 2.1 C 0 km/h
1271 21-02-2010 22:50:02 2.1 C 4.53 g/m*3 2.1 C 0 km/h
1272 21-02-2010 23:02:01 2.2 C 4.62 g/m*3 2.2 C 0 km/h
1273 21-02-2010 23:14:01 2.1 C 4.59 g/m*3 2.1 C 0 km/h
1274 21-02-2010 23:26:02 2 C 4.56 g/m*3 2 C 0 km/h
1275 21-02-2010 23:38:01 2 C 4.56 g/m*3 2 C 0 km/h
Sensor: Nr:Datum:Temp:Abs-Feuchte:Windchill:Wind:
Aussen-T/F 1276 21-02-2010 23:50:02 1.9 C 4.58 g/m*3 1.9 C 0 km/h
1277 22-02-2010 00:02:01 1.9 C 4.58 g/m*3 1.9 C 0 km/h
1278 22-02-2010 00:14:01 1.8 C 4.55 g/m*3 1.8 C 0 km/h
1279 22-02-2010 00:26:01 1.7 C 4.57 g/m*3 1.7 C 0 km/h
1280 22-02-2010 00:38:02 1.7 C 4.57 g/m*3 1.7 C 0 km/h
1281 22-02-2010 00:50:01 1.6 C 4.54 g/m*3 1.6 C 0 km/h
1282 22-02-2010 01:02:02 1.6 C 4.54 g/m*3 1.6 C 0 km/h
1283 22-02-2010 01:14:02 1.5 C 4.51 g/m*3 1.5 C 0 km/h
1284 22-02-2010 01:26:01 1.3 C 4.45 g/m*3 1.3 C 0 km/h
1285 22-02-2010 01:38:02 1.3 C 4.45 g/m*3 1.3 C 0 km/h
1286 22-02-2010 01:50:01 1.3 C 4.45 g/m*3 1.3 C 0 km/h
1287 22-02-2010 02:02:02 1.3 C 4.45 g/m*3 1.3 C 0 km/h
1288 22-02-2010 02:14:02 1.3 C 4.45 g/m*3 1.3 C 0 km/h
1289 22-02-2010 02:26:01 1 C 4.36 g/m*3 1 C 0 km/h
1290 22-02-2010 02:38:01 1 C 4.36 g/m*3 1 C 0 km/h
1291 22-02-2010 02:50:01 1 C 4.41 g/m*3 1 C 0 km/h
1292 22-02-2010 03:02:01 1.1 C 4.44 g/m*3 1.1 C 0 km/h
1293 22-02-2010 03:14:02 1.1 C 4.44 g/m*3 1.1 C 0 km/h
1294 22-02-2010 03:26:02 1 C 4.41 g/m*3 1 C 0 km/h
1295 22-02-2010 03:38:01 1.1 C 4.44 g/m*3 1.1 C 0 km/h
1296 22-02-2010 03:50:01 1.1 C 4.49 g/m*3 1.1 C 0 km/h
1297 22-02-2010 04:02:02 1.4 C 4.59 g/m*3 1.4 C 0 km/h
1298 22-02-2010 04:14:02 1.1 C 4.44 g/m*3 1.1 C 0 km/h
1299 22-02-2010 04:26:01 1 C 4.41 g/m*3 1 C 0 km/h
1300 22-02-2010 04:38:02 1.1 C 4.49 g/m*3 1.1 C 0 km/h
Sensor: Nr:Datum:Temp:Abs-Feuchte:Windchill:Wind:
Aussen-T/F 1301 22-02-2010 04:50:01 1.1 C 4.49 g/m*3 1.1 C 0 km/h
1302 22-02-2010 05:02:02 1.1 C 4.49 g/m*3 1.1 C 0 km/h
1303 22-02-2010 05:14:02 1.2 C 4.53 g/m*3 1.2 C 0 km/h
1304 22-02-2010 05:26:01 1.4 C 4.59 g/m*3 1.4 C 0 km/h
1305 22-02-2010 05:38:01 1.4 C 4.59 g/m*3 1.4 C 0 km/h
1306 22-02-2010 05:50:01 1.5 C 4.62 g/m*3 1.5 C 0 km/h
1307 22-02-2010 06:02:01 1.5 C 4.62 g/m*3 1.5 C 0 km/h
1308 22-02-2010 06:14:02 1.5 C 4.62 g/m*3 1.5 C 0 km/h
1309 22-02-2010 06:26:01 1.5 C 4.62 g/m*3 1.5 C 0 km/h
1310 22-02-2010 06:38:01 1.6 C 4.65 g/m*3 1.6 C 0 km/h
1311 22-02-2010 06:50:01 1.6 C 4.65 g/m*3 1.6 C 0 km/h
1312 22-02-2010 07:02:01 1.6 C 4.65 g/m*3 1.6 C 0 km/h
1313 22-02-2010 07:14:01 1.8 C 4.77 g/m*3 1.8 C 0 km/h
1314 22-02-2010 07:26:02 2.2 C 4.9 g/m*3 2.2 C 0 km/h
1315 22-02-2010 07:38:01 2.3 C 4.93 g/m*3 2.3 C 0 km/h
1316 22-02-2010 07:50:02 2.5 C 5 g/m*3 2.5 C 0 km/h
1317 22-02-2010 08:02:01 2.7 C 5.07 g/m*3 2.7 C 0 km/h
1318 22-02-2010 08:14:01 3 C 5.11 g/m*3 3 C 0 km/h
1319 22-02-2010 08:26:02 3.2 C 5.12 g/m*3 3.2 C 0 km/h
1320 22-02-2010 08:38:01 3.5 C 5.16 g/m*3 3.5 C 0 km/h
1321 22-02-2010 08:50:02 3.8 C 5.21 g/m*3 3.8 C 0 km/h
1322 22-02-2010 09:02:01 4.2 C 5.22 g/m*3 4.2 C 0 km/h
1323 22-02-2010 09:14:01 4.5 C 5.32 g/m*3 4.5 C 0 km/h
1324 22-02-2010 09:26:01 4.8 C 5.3 g/m*3 4.8 C 0 km/h
1325 22-02-2010 09:38:01 5.1 C 5.27 g/m*3 5.1 C 0 km/h
Sensor: Nr:Datum:Temp:Abs-Feuchte:Windchill:Wind:
Aussen-T/F 1326 22-02-2010 09:50:02 5.3 C 5.2 g/m*3 5.3 C 0 km/h
1327 22-02-2010 10:02:01 5.7 C 5.19 g/m*3 5.7 C 0 km/h
1328 22-02-2010 10:14:01 6.3 C 5.18 g/m*3 6.3 C 0 km/h
1329 22-02-2010 10:26:01 6.9 C 5.08 g/m*3 6.9 C 0 km/h
1330 22-02-2010 10:38:02 7.2 C 5.02 g/m*3 7.2 C 0 km/h
1331 22-02-2010 10:50:01 7.6 C 5.08 g/m*3 7.6 C 0 km/h
1332 22-02-2010 11:02:01 7.7 C 5.19 g/m*3 7.7 C 0 km/h
1333 22-02-2010 11:14:01 8 C 5.21 g/m*3 8 C 0 km/h
1334 22-02-2010 11:26:02 8.5 C 5.21 g/m*3 8.5 C 0 km/h
1335 22-02-2010 11:38:01 8.9 C 5.26 g/m*3 8.9 C 0 km/h
1336 22-02-2010 11:50:02 8.7 C 5.19 g/m*3 8.7 C 0 km/h
1337 22-02-2010 12:02:01 8.6 C 5.33 g/m*3 8.6 C 0 km/h
1338 22-02-2010 12:14:01 8.4 C 5.51 g/m*3 8.4 C 0 km/h
1339 22-02-2010 12:26:02 8.8 C 5.74 g/m*3 8.8 C 0 km/h
1340 22-02-2010 12:38:01 9.7 C 5.81 g/m*3 9.7 C 0 km/h
1341 22-02-2010 12:50:02 10.3 C 5.55 g/m*3 10.3 C 0 km/h
1342 22-02-2010 13:02:01 10.6 C 5.37 g/m*3 10.6 C 0 km/h
1343 22-02-2010 13:14:01 11.2 C 5.27 g/m*3 11.2 C 0 km/h
1344 22-02-2010 13:26:01 11.7 C 5.12 g/m*3 11.7 C 0 km/h
1345 22-02-2010 13:38:02 11.4 C 5.13 g/m*3 11.4 C 0 km/h
1346 22-02-2010 13:50:01 11.8 C 5.26 g/m*3 11.8 C 0 km/h
1347 22-02-2010 14:02:02 11.9 C 5.08 g/m*3 11.9 C 0 km/h
1348 22-02-2010 14:14:02 12.7 C 5.01 g/m*3 12.7 C 0 km/h
1349 22-02-2010 14:26:01 12.2 C 5.07 g/m*3 12.2 C 0 km/h
1350 22-02-2010 14:38:02 12.5 C 5.06 g/m*3 12.5 C 0 km/h
Sensor: Nr:Datum:Temp:Abs-Feuchte:Windchill:Wind:
Aussen-T/F 1351 22-02-2010 14:50:01 12.2 C 5.07 g/m*3 12.2 C 0 km/h
1352 22-02-2010 15:02:02 12.3 C 5.1 g/m*3 12.3 C 0 km/h
1353 22-02-2010 15:14:02 12.7 C 5.12 g/m*3 12.7 C 0 km/h
1354 22-02-2010 15:26:01 13.3 C 5.2 g/m*3 13.3 C 0 km/h
1355 22-02-2010 15:38:02 13.4 C 5 g/m*3 13.4 C 0 km/h
1356 22-02-2010 15:50:01 12.7 C 5.23 g/m*3 12.7 C 0 km/h
1357 22-02-2010 16:02:02 12.4 C 5.14 g/m*3 12.4 C 0 km/h
1358 22-02-2010 16:14:02 11.9 C 5.3 g/m*3 11.9 C 0 km/h
1359 22-02-2010 16:26:01 11.5 C 5.37 g/m*3 11.5 C 0 km/h
1360 22-02-2010 16:38:01 11.4 C 5.44 g/m*3 11.4 C 0 km/h
1361 22-02-2010 16:50:01 11.8 C 5.58 g/m*3 11.8 C 0 km/h
1362 22-02-2010 17:02:01 12.1 C 5.47 g/m*3 12.1 C 0 km/h
1363 22-02-2010 17:14:01 11.8 C 5.47 g/m*3 11.8 C 0 km/h
1364 22-02-2010 17:26:01 11.3 C 5.51 g/m*3 11.3 C 0 km/h
1365 22-02-2010 17:38:01 10.7 C 5.6 g/m*3 10.7 C 0 km/h
1366 22-02-2010 17:50:01 10.4 C 5.69 g/m*3 10.4 C 0 km/h
1367 22-02-2010 18:02:01 10.1 C 5.67 g/m*3 10.1 C 0 km/h
1368 22-02-2010 18:14:01 9.9 C 5.79 g/m*3 9.9 C 0 km/h
1369 22-02-2010 18:26:02 9.7 C 5.72 g/m*3 9.7 C 0 km/h
1370 22-02-2010 18:38:01 9.4 C 5.7 g/m*3 9.4 C 0 km/h
1371 22-02-2010 18:50:02 9.2 C 5.8 g/m*3 9.2 C 0 km/h
1372 22-02-2010 19:02:01 9 C 5.73 g/m*3 9 C 0 km/h
1373 22-02-2010 19:14:01 8.9 C 5.87 g/m*3 8.9 C 0 km/h
1374 22-02-2010 19:26:02 8.9 C 5.87 g/m*3 8.9 C 0 km/h
1375 22-02-2010 19:38:01 9 C 5.82 g/m*3 9 C 0 km/h
Sensor: Nr:Datum:Temp:Abs-Feuchte:Windchill:Wind:
Aussen-T/F 1376 22-02-2010 19:50:02 9.1 C 5.77 g/m*3 9.1 C 0 km/h
1377 22-02-2010 20:02:02 9.1 C 5.68 g/m*3 9.1 C 0 km/h
1378 22-02-2010 20:14:02 9.2 C 5.63 g/m*3 9.2 C 0 km/h
1379 22-02-2010 20:26:01 9.5 C 5.64 g/m*3 9.5 C 0 km/h
1380 22-02-2010 20:38:02 9.4 C 5.52 g/m*3 9.4 C 0 km/h
1381 22-02-2010 20:50:02 9 C 5.47 g/m*3 9 C 0 km/h
1382 22-02-2010 21:02:01 8.7 C 5.53 g/m*3 8.7 C 0 km/h
1383 22-02-2010 21:14:01 8.9 C 5.52 g/m*3 8.9 C 0 km/h
1384 22-02-2010 21:26:01 8.8 C 5.48 g/m*3 8.8 C 0 km/h
1385 22-02-2010 21:38:02 8.9 C 5.52 g/m*3 8.9 C 0 km/h
1386 22-02-2010 21:50:01 8.9 C 5.52 g/m*3 8.9 C 0 km/h
1387 22-02-2010 22:02:02 9.1 C 5.5 g/m*3 9.1 C 0 km/h
1388 22-02-2010 22:14:02 9.5 C 5.55 g/m*3 9.5 C 0 km/h
1389 22-02-2010 22:28:08 10.1 C 5.67 g/m*3 10.1 C 0 km/h
1390 22-02-2010 22:40:08 11.1 C 5.54 g/m*3 11.1 C 0 km/h
1391 22-02-2010 22:52:08 11.5 C 5.47 g/m*3 11.5 C 0 km/h
1392 22-02-2010 23:04:08 12 C 5.33 g/m*3 12 C 0 km/h
1393 22-02-2010 23:16:08 12.1 C 5.36 g/m*3 12.1 C 0 km/h
1394 22-02-2010 23:28:08 12.1 C 5.47 g/m*3 12.1 C 0 km/h
1395 22-02-2010 23:40:08 12 C 5.44 g/m*3 12 C 0 km/h
1396 22-02-2010 23:52:08 12.2 C 5.5 g/m*3 12.2 C 0 km/h
1397 23-02-2010 00:04:08 12.1 C 5.47 g/m*3 12.1 C 0 km/h
1398 23-02-2010 00:16:08 12.1 C 5.47 g/m*3 12.1 C 0 km/h
1399 23-02-2010 00:28:08 12.2 C 5.5 g/m*3 12.2 C 0 km/h
1400 23-02-2010 00:40:08 12.2 C 5.4 g/m*3 12.2 C 0 km/h
Sensor: Nr:Datum:Temp:Abs-Feuchte:Windchill:Wind:
Aussen-T/F 1401 23-02-2010 00:52:08 12.1 C 5.36 g/m*3 12.1 C 0 km/h
1402 23-02-2010 01:04:08 11.8 C 5.47 g/m*3 11.8 C 0 km/h
1403 23-02-2010 01:16:08 11.5 C 5.58 g/m*3 11.5 C 0 km/h
1404 23-02-2010 01:28:08 11.4 C 5.75 g/m*3 11.4 C 0 km/h
1405 23-02-2010 01:40:08 11.4 C 5.75 g/m*3 11.4 C 0 km/h
1406 23-02-2010 01:52:08 11.4 C 5.85 g/m*3 11.4 C 0 km/h
1407 23-02-2010 02:04:08 11.2 C 5.78 g/m*3 11.2 C 0 km/h
1408 23-02-2010 02:16:08 11.2 C 5.88 g/m*3 11.2 C 0 km/h
1409 23-02-2010 02:28:08 10.6 C 6.25 g/m*3 10.6 C 0 km/h
1410 23-02-2010 02:40:08 10.4 C 6.46 g/m*3 10.4 C 0 km/h
1411 23-02-2010 02:52:08 9.6 C 6.78 g/m*3 9.6 C 0 km/h
1412 23-02-2010 03:04:09 9.3 C 6.83 g/m*3 9.3 C 0 km/h
1413 23-02-2010 03:16:09 9.2 C 6.97 g/m*3 9.2 C 0 km/h
1414 23-02-2010 03:28:09 9.1 C 6.92 g/m*3 9.1 C 0 km/h
1415 23-02-2010 03:40:09 9.1 C 7.01 g/m*3 9.1 C 0 km/h
1416 23-02-2010 03:52:09 8.9 C 7.1 g/m*3 8.9 C 0 km/h
1417 23-02-2010 04:04:09 8.6 C 7.13 g/m*3 8.6 C 0 km/h
1418 23-02-2010 04:16:09 8.6 C 7.22 g/m*3 8.6 C 0 km/h
1419 23-02-2010 04:28:09 8.5 C 7.17 g/m*3 8.5 C 0 km/h
1420 23-02-2010 04:40:09 8.6 C 7.22 g/m*3 8.6 C 0 km/h
1421 23-02-2010 04:52:09 8.5 C 7.17 g/m*3 8.5 C 0 km/h
1422 23-02-2010 05:04:09 8.4 C 7.04 g/m*3 8.4 C 0 km/h
1423 23-02-2010 05:16:09 8.5 C 7.17 g/m*3 8.5 C 0 km/h
1424 23-02-2010 05:28:09 8.3 C 7.08 g/m*3 8.3 C 0 km/h
1425 23-02-2010 05:40:09 8.5 C 7.17 g/m*3 8.5 C 0 km/h
Sensor: Nr:Datum:Temp:Abs-Feuchte:Windchill:Wind:
Aussen-T/F 1426 23-02-2010 05:52:09 8.5 C 7.09 g/m*3 8.5 C 0 km/h
1427 23-02-2010 06:04:09 8.5 C 7.09 g/m*3 8.5 C 0 km/h
1428 23-02-2010 06:16:09 8.5 C 7.09 g/m*3 8.5 C 0 km/h
1429 23-02-2010 06:28:09 8.5 C 7.09 g/m*3 8.5 C 0 km/h
1430 23-02-2010 06:40:09 8.5 C 7.09 g/m*3 8.5 C 0 km/h
1431 23-02-2010 06:52:09 8.5 C 7.09 g/m*3 8.5 C 0 km/h
1432 23-02-2010 07:04:09 8.4 C 7.04 g/m*3 8.4 C 0 km/h
1433 23-02-2010 07:16:08 8.2 C 6.95 g/m*3 8.2 C 0 km/h
1434 23-02-2010 07:28:08 8.1 C 6.99 g/m*3 8.1 C 0 km/h
1435 23-02-2010 07:40:08 8.2 C 7.03 g/m*3 8.2 C 0 km/h
1436 23-02-2010 07:52:01 8.2 C 7.03 g/m*3 8.2 C 0 km/h
1437 23-02-2010 08:04:02 8.3 C 7.16 g/m*3 8.3 C 0 km/h
1438 23-02-2010 08:16:01 8.5 C 7.26 g/m*3 8.5 C 0 km/h
1439 23-02-2010 08:28:01 8.6 C 7.22 g/m*3 8.6 C 0 km/h
1440 23-02-2010 08:40:02 8.8 C 7.31 g/m*3 8.8 C 0 km/h
1441 23-02-2010 08:52:02 8.9 C 7.27 g/m*3 8.9 C 0 km/h
1442 23-02-2010 09:04:02 9 C 7.23 g/m*3 9 C 0 km/h
1443 23-02-2010 09:16:01 9.1 C 7.28 g/m*3 9.1 C 0 km/h
1444 23-02-2010 09:28:01 9.1 C 7.1 g/m*3 9.1 C 0 km/h
1445 23-02-2010 09:40:02 9.1 C 7.01 g/m*3 9.1 C 0 km/h
1446 23-02-2010 09:52:02 9.3 C 7.19 g/m*3 9.3 C 0 km/h
1447 23-02-2010 10:04:02 9.7 C 7.19 g/m*3 9.7 C 0 km/h
1448 23-02-2010 10:16:01 10.4 C 7.04 g/m*3 10.4 C 0 km/h
1449 23-02-2010 10:28:01 10.7 C 6.88 g/m*3 10.7 C 0 km/h
1450 23-02-2010 10:40:02 10.6 C 6.83 g/m*3 10.6 C 0 km/h
Sensor: Nr:Datum:Temp:Abs-Feuchte:Windchill:Wind:
Aussen-T/F 1451 23-02-2010 10:52:01 10.6 C 6.73 g/m*3 10.6 C 0 km/h
1452 23-02-2010 11:04:02 10.8 C 6.92 g/m*3 10.8 C 0 km/h
1453 23-02-2010 11:16:02 11 C 6.81 g/m*3 11 C 0 km/h
1454 23-02-2010 11:28:02 11.2 C 6.69 g/m*3 11.2 C 0 km/h
1455 23-02-2010 11:40:02 11.4 C 6.57 g/m*3 11.4 C 0 km/h
1456 23-02-2010 11:52:01 11.6 C 6.55 g/m*3 11.6 C 0 km/h
1457 23-02-2010 12:04:02 11.2 C 6.49 g/m*3 11.2 C 0 km/h
1458 23-02-2010 12:16:02 10.9 C 6.66 g/m*3 10.9 C 0 km/h
1459 23-02-2010 12:28:02 10.3 C 6.9 g/m*3 10.3 C 0 km/h
1460 23-02-2010 12:40:01 10.5 C 7.27 g/m*3 10.5 C 0 km/h
1461 23-02-2010 12:52:02 10.4 C 7.13 g/m*3 10.4 C 0 km/h
1462 23-02-2010 13:04:01 10.3 C 7.18 g/m*3 10.3 C 0 km/h
1463 23-02-2010 13:16:02 10.4 C 7.32 g/m*3 10.4 C 0 km/h
1464 23-02-2010 13:28:02 10.5 C 7.37 g/m*3 10.5 C 0 km/h
1465 23-02-2010 13:40:01 10.3 C 7.47 g/m*3 10.3 C 0 km/h
1466 23-02-2010 13:52:02 10.6 C 7.71 g/m*3 10.6 C 0 km/h
1467 23-02-2010 14:04:02 10.9 C 7.76 g/m*3 10.9 C 0 km/h
1468 23-02-2010 14:16:02 11 C 7.81 g/m*3 11 C 0 km/h
1469 23-02-2010 14:28:02 10.8 C 7.71 g/m*3 10.8 C 0 km/h
1470 23-02-2010 14:40:03 10.9 C 7.76 g/m*3 10.9 C 0 km/h
1471 23-02-2010 14:52:02 11 C 7.61 g/m*3 11 C 0 km/h
1472 23-02-2010 15:04:01 11 C 7.71 g/m*3 11 C 0 km/h
1473 23-02-2010 15:16:02 11 C 7.71 g/m*3 11 C 0 km/h
1474 23-02-2010 15:28:02 11 C 7.81 g/m*3 11 C 0 km/h
1475 23-02-2010 15:40:02 11.1 C 7.66 g/m*3 11.1 C 0 km/h
Sensor: Nr:Datum:Temp:Abs-Feuchte:Windchill:Wind:
Aussen-T/F 1476 23-02-2010 15:52:02 11 C 7.51 g/m*3 11 C 0 km/h
1477 23-02-2010 16:04:03 10.7 C 7.46 g/m*3 10.7 C 0 km/h
1478 23-02-2010 16:16:02 10.5 C 7.47 g/m*3 10.5 C 0 km/h
1479 23-02-2010 16:28:02 10.6 C 7.52 g/m*3 10.6 C 0 km/h
1480 23-02-2010 16:40:02 10.6 C 7.52 g/m*3 10.6 C 0 km/h
1481 23-02-2010 16:52:01 10.4 C 7.32 g/m*3 10.4 C 0 km/h
1482 23-02-2010 17:04:02 10.4 C 7.32 g/m*3 10.4 C 0 km/h
1483 23-02-2010 17:16:01 10.2 C 7.23 g/m*3 10.2 C 0 km/h
1484 23-02-2010 17:28:01 10.1 C 7.09 g/m*3 10.1 C 0 km/h
1485 23-02-2010 17:40:02 10.1 C 7.19 g/m*3 10.1 C 0 km/h
1486 23-02-2010 17:52:01 10 C 7.14 g/m*3 10 C 0 km/h
1487 23-02-2010 18:04:02 9.8 C 7.24 g/m*3 9.8 C 0 km/h
1488 23-02-2010 18:16:01 9.6 C 7.33 g/m*3 9.6 C 0 km/h
1489 23-02-2010 18:28:01 9.6 C 7.33 g/m*3 9.6 C 0 km/h
1490 23-02-2010 18:40:02 9.5 C 7.37 g/m*3 9.5 C 0 km/h
1491 23-02-2010 18:52:01 9.5 C 7.46 g/m*3 9.5 C 0 km/h
1492 23-02-2010 19:04:02 9.2 C 7.41 g/m*3 9.2 C 0 km/h
1493 23-02-2010 19:16:02 9.1 C 7.45 g/m*3 9.1 C 0 km/h
1494 23-02-2010 19:28:02 9.2 C 7.59 g/m*3 9.2 C 0 km/h
1495 23-02-2010 19:40:02 9.2 C 7.68 g/m*3 9.2 C 0 km/h
1496 23-02-2010 19:52:02 9.2 C 7.68 g/m*3 9.2 C 0 km/h
1497 23-02-2010 20:04:02 9 C 7.67 g/m*3 9 C 0 km/h
1498 23-02-2010 20:16:02 9.1 C 7.81 g/m*3 9.1 C 0 km/h
1499 23-02-2010 20:28:02 9 C 7.76 g/m*3 9 C 0 km/h
1500 23-02-2010 20:40:02 9 C 7.76 g/m*3 9 C 0 km/h
Sensor: Nr:Datum:Temp:Abs-Feuchte:Windchill:Wind:
Aussen-T/F 1501 23-02-2010 20:52:01 9.2 C 7.86 g/m*3 9.2 C 0 km/h
1502 23-02-2010 21:04:02 9.3 C 7.91 g/m*3 9.3 C 0 km/h
1503 23-02-2010 21:16:01 9.4 C 7.78 g/m*3 9.4 C 0 km/h
1504 23-02-2010 21:28:01 9.6 C 7.6 g/m*3 9.6 C 0 km/h
1505 23-02-2010 21:40:02 9.6 C 7.33 g/m*3 9.6 C 0 km/h
1506 23-02-2010 21:52:02 9.5 C 7.1 g/m*3 9.5 C 0 km/h
1507 23-02-2010 22:04:02 9.3 C 6.92 g/m*3 9.3 C 0 km/h
1508 23-02-2010 22:16:02 9.3 C 6.92 g/m*3 9.3 C 0 km/h
1509 23-02-2010 22:28:02 9.3 C 6.74 g/m*3 9.3 C 0 km/h
1510 23-02-2010 22:40:02 8.9 C 6.75 g/m*3 8.9 C 0 km/h
1511 23-02-2010 22:52:01 8.7 C 6.75 g/m*3 8.7 C 0 km/h
1512 23-02-2010 23:04:02 8.5 C 6.66 g/m*3 8.5 C 0 km/h
1513 23-02-2010 23:16:02 8.5 C 6.66 g/m*3 8.5 C 0 km/h
1514 23-02-2010 23:28:02 8.2 C 6.62 g/m*3 8.2 C 0 km/h
1515 23-02-2010 23:40:01 8.2 C 6.7 g/m*3 8.2 C 0 km/h
1516 23-02-2010 23:52:02 8.2 C 6.7 g/m*3 8.2 C 0 km/h
1517 24-02-2010 00:04:01 8.1 C 6.66 g/m*3 8.1 C 0 km/h
1518 24-02-2010 00:16:02 7.9 C 6.74 g/m*3 7.9 C 0 km/h
1519 24-02-2010 00:28:02 7.9 C 6.82 g/m*3 7.9 C 0 km/h
1520 24-02-2010 00:40:01 7.8 C 6.77 g/m*3 7.8 C 0 km/h
1521 24-02-2010 00:52:02 7.5 C 6.64 g/m*3 7.5 C 0 km/h
1522 24-02-2010 01:04:01 7.3 C 6.64 g/m*3 7.3 C 0 km/h
1523 24-02-2010 01:16:02 7.5 C 6.8 g/m*3 7.5 C 0 km/h
1524 24-02-2010 01:28:02 8.1 C 6.99 g/m*3 8.1 C 0 km/h
1525 24-02-2010 01:40:01 8.7 C 6.92 g/m*3 8.7 C 0 km/h
Sensor: Nr:Datum:Temp:Abs-Feuchte:Windchill:Wind:
Aussen-T/F 1526 24-02-2010 01:52:02 8.6 C 6.7 g/m*3 8.6 C 0 km/h
1527 24-02-2010 02:04:02 8.3 C 6.57 g/m*3 8.3 C 0 km/h
1528 24-02-2010 02:16:02 8.1 C 6.57 g/m*3 8.1 C 0 km/h
1529 24-02-2010 02:28:02 7.9 C 6.74 g/m*3 7.9 C 0 km/h
1530 24-02-2010 02:40:02 7.9 C 6.82 g/m*3 7.9 C 0 km/h
1531 24-02-2010 02:52:01 7.8 C 6.77 g/m*3 7.8 C 0 km/h
1532 24-02-2010 03:04:01 7.7 C 6.73 g/m*3 7.7 C 0 km/h
1533 24-02-2010 03:16:01 7.9 C 6.9 g/m*3 7.9 C 0 km/h
1534 24-02-2010 03:28:01 8 C 6.86 g/m*3 8 C 0 km/h
1535 24-02-2010 03:40:02 8 C 6.78 g/m*3 8 C 0 km/h
1536 24-02-2010 03:52:02 8 C 6.78 g/m*3 8 C 0 km/h
1537 24-02-2010 04:04:01 8 C 6.78 g/m*3 8 C 0 km/h
1538 24-02-2010 04:16:02 8 C 6.86 g/m*3 8 C 0 km/h
1539 24-02-2010 04:28:02 8 C 6.86 g/m*3 8 C 0 km/h
1540 24-02-2010 04:40:01 8 C 6.86 g/m*3 8 C 0 km/h
1541 24-02-2010 04:52:02 8.1 C 6.91 g/m*3 8.1 C 0 km/h
1542 24-02-2010 05:04:01 8.3 C 7 g/m*3 8.3 C 0 km/h
1543 24-02-2010 05:16:01 8.4 C 6.96 g/m*3 8.4 C 0 km/h
1544 24-02-2010 05:28:01 8.2 C 6.78 g/m*3 8.2 C 0 km/h
1545 24-02-2010 05:40:01 8.3 C 6.83 g/m*3 8.3 C 0 km/h
1546 24-02-2010 05:52:02 8.4 C 6.79 g/m*3 8.4 C 0 km/h
1547 24-02-2010 06:04:01 8.2 C 6.62 g/m*3 8.2 C 0 km/h
1548 24-02-2010 06:16:01 7.9 C 6.65 g/m*3 7.9 C 0 km/h
1549 24-02-2010 06:28:01 7.8 C 6.61 g/m*3 7.8 C 0 km/h
1550 24-02-2010 06:40:02 7.6 C 6.53 g/m*3 7.6 C 0 km/h
Sensor: Nr:Datum:Temp:Abs-Feuchte:Windchill:Wind:
Aussen-T/F 1551 24-02-2010 06:52:01 7.3 C 6.4 g/m*3 7.3 C 0 km/h
1552 24-02-2010 07:04:01 7.3 C 6.56 g/m*3 7.3 C 0 km/h
1553 24-02-2010 07:16:01 7.4 C 6.6 g/m*3 7.4 C 0 km/h
1554 24-02-2010 07:28:01 7.5 C 6.64 g/m*3 7.5 C 0 km/h
1555 24-02-2010 07:40:02 7.5 C 6.56 g/m*3 7.5 C 0 km/h
1556 24-02-2010 07:52:01 7.4 C 6.6 g/m*3 7.4 C 0 km/h
1557 24-02-2010 08:04:02 7.5 C 6.64 g/m*3 7.5 C 0 km/h
1558 24-02-2010 08:16:01 7.5 C 6.56 g/m*3 7.5 C 0 km/h
1559 24-02-2010 08:28:01 7.9 C 6.82 g/m*3 7.9 C 0 km/h
1560 24-02-2010 08:40:02 8.1 C 6.74 g/m*3 8.1 C 0 km/h
1561 24-02-2010 08:52:01 8.5 C 6.92 g/m*3 8.5 C 0 km/h
1562 24-02-2010 09:04:02 8.6 C 6.79 g/m*3 8.6 C 0 km/h
1563 24-02-2010 09:16:01 8.9 C 6.83 g/m*3 8.9 C 0 km/h
1564 24-02-2010 09:28:01 9.1 C 6.65 g/m*3 9.1 C 0 km/h
1565 24-02-2010 09:40:01 9.2 C 6.52 g/m*3 9.2 C 0 km/h
1566 24-02-2010 09:52:01 9.4 C 6.51 g/m*3 9.4 C 0 km/h
1567 24-02-2010 10:04:02 9.7 C 6.55 g/m*3 9.7 C 0 km/h
1568 24-02-2010 10:16:01 10 C 6.39 g/m*3 10 C 0 km/h
1569 24-02-2010 10:28:01 10.2 C 6.28 g/m*3 10.2 C 0 km/h
1570 24-02-2010 10:40:01 10.4 C 6.26 g/m*3 10.4 C 0 km/h
1571 24-02-2010 10:52:01 10.9 C 6.17 g/m*3 10.9 C 0 km/h
1572 24-02-2010 11:04:01 10.9 C 5.97 g/m*3 10.9 C 0 km/h
1573 24-02-2010 11:16:02 11.1 C 5.74 g/m*3 11.1 C 0 km/h
1574 24-02-2010 11:28:02 11.2 C 5.68 g/m*3 11.2 C 0 km/h
1575 24-02-2010 11:40:01 11.2 C 5.57 g/m*3 11.2 C 0 km/h
Sensor: Nr:Datum:Temp:Abs-Feuchte:Windchill:Wind:
Aussen-T/F 1576 24-02-2010 11:52:01 11.3 C 5.61 g/m*3 11.3 C 0 km/h
1577 24-02-2010 12:04:01 11.1 C 5.64 g/m*3 11.1 C 0 km/h
1578 24-02-2010 12:16:02 11.2 C 5.57 g/m*3 11.2 C 0 km/h
1579 24-02-2010 12:28:02 11.6 C 5.72 g/m*3 11.6 C 0 km/h
1580 24-02-2010 12:40:01 11.8 C 5.58 g/m*3 11.8 C 0 km/h
1581 24-02-2010 12:52:02 12 C 5.54 g/m*3 12 C 0 km/h
1582 24-02-2010 13:04:01 12 C 5.54 g/m*3 12 C 0 km/h
1583 24-02-2010 13:16:02 11.8 C 5.58 g/m*3 11.8 C 0 km/h
1584 24-02-2010 13:28:02 12 C 5.44 g/m*3 12 C 0 km/h
1585 24-02-2010 13:40:01 12.2 C 5.61 g/m*3 12.2 C 0 km/h
1586 24-02-2010 13:52:02 12.4 C 5.35 g/m*3 12.4 C 0 km/h
1587 24-02-2010 14:04:01 12.3 C 5.32 g/m*3 12.3 C 0 km/h
1588 24-02-2010 14:16:01 12.6 C 5.53 g/m*3 12.6 C 0 km/h
1589 24-02-2010 14:28:01 12.7 C 5.45 g/m*3 12.7 C 0 km/h
1590 24-02-2010 14:40:01 12.8 C 5.38 g/m*3 12.8 C 0 km/h
1591 24-02-2010 14:52:02 13.1 C 5.36 g/m*3 13.1 C 0 km/h
1592 24-02-2010 15:04:01 13.2 C 5.4 g/m*3 13.2 C 0 km/h
1593 24-02-2010 15:16:01 13.1 C 5.36 g/m*3 13.1 C 0 km/h
1594 24-02-2010 15:28:01 13.2 C 5.4 g/m*3 13.2 C 0 km/h
1595 24-02-2010 15:40:02 13.7 C 5.45 g/m*3 13.7 C 0 km/h
1596 24-02-2010 15:52:01 14.1 C 5.46 g/m*3 14.1 C 0 km/h
1597 24-02-2010 16:04:01 15.2 C 5.58 g/m*3 15.2 C 0 km/h
1598 24-02-2010 16:16:01 14.4 C 5.19 g/m*3 14.4 C 0 km/h
1599 24-02-2010 16:28:01 14 C 5.43 g/m*3 14 C 0 km/h
1600 24-02-2010 16:40:02 14.4 C 5.32 g/m*3 14.4 C 0 km/h
Sensor: Nr:Datum:Temp:Abs-Feuchte:Windchill:Wind:
Aussen-T/F 1601 24-02-2010 16:52:01 14.2 C 5.13 g/m*3 14.2 C 0 km/h
1602 24-02-2010 17:04:02 13.6 C 5.3 g/m*3 13.6 C 0 km/h
1603 24-02-2010 17:16:01 12.8 C 5.38 g/m*3 12.8 C 0 km/h
1604 24-02-2010 17:28:01 11.8 C 5.68 g/m*3 11.8 C 0 km/h
1605 24-02-2010 17:40:02 11.2 C 5.68 g/m*3 11.2 C 0 km/h
1606 24-02-2010 17:52:01 10.7 C 5.8 g/m*3 10.7 C 0 km/h
1607 24-02-2010 18:04:02 10.2 C 5.8 g/m*3 10.2 C 0 km/h
1608 24-02-2010 18:16:01 9.8 C 5.85 g/m*3 9.8 C 0 km/h
1609 24-02-2010 18:28:02 9.7 C 5.9 g/m*3 9.7 C 0 km/h
1610 24-02-2010 18:40:01 9.6 C 5.95 g/m*3 9.6 C 0 km/h
1611 24-02-2010 18:52:01 9.6 C 6.05 g/m*3 9.6 C 0 km/h
1612 24-02-2010 19:04:01 9.7 C 6.18 g/m*3 9.7 C 0 km/h
1613 24-02-2010 19:16:01 9.5 C 6.55 g/m*3 9.5 C 0 km/h
1614 24-02-2010 19:28:01 8.8 C 6.7 g/m*3 8.8 C 0 km/h
1615 24-02-2010 19:40:01 8.5 C 6.92 g/m*3 8.5 C 0 km/h
1616 24-02-2010 19:52:01 8.5 C 7.09 g/m*3 8.5 C 0 km/h
1617 24-02-2010 20:04:01 8.4 C 7.13 g/m*3 8.4 C 0 km/h
1618 24-02-2010 20:16:02 8.3 C 7.16 g/m*3 8.3 C 0 km/h
1619 24-02-2010 20:28:02 8.4 C 7.3 g/m*3 8.4 C 0 km/h
1620 24-02-2010 20:40:01 8.3 C 7.33 g/m*3 8.3 C 0 km/h
1621 24-02-2010 20:52:01 8.5 C 7.43 g/m*3 8.5 C 0 km/h
1622 24-02-2010 21:04:01 8.5 C 7.51 g/m*3 8.5 C 0 km/h
1623 24-02-2010 21:16:02 8.4 C 7.38 g/m*3 8.4 C 0 km/h
1624 24-02-2010 21:28:02 7.9 C 7.23 g/m*3 7.9 C 0 km/h
1625 24-02-2010 21:40:01 7.8 C 7.18 g/m*3 7.8 C 0 km/h
Sensor: Nr:Datum:Temp:Abs-Feuchte:Windchill:Wind:
Aussen-T/F 1626 24-02-2010 21:52:02 7.6 C 7.09 g/m*3 7.6 C 0 km/h
1627 24-02-2010 22:04:01 7.5 C 6.96 g/m*3 7.5 C 0 km/h
1628 24-02-2010 22:16:02 7.6 C 7.01 g/m*3 7.6 C 0 km/h
1629 24-02-2010 22:28:02 7.7 C 7.05 g/m*3 7.7 C 0 km/h
1630 24-02-2010 22:40:01 8 C 7.03 g/m*3 8 C 0 km/h
1631 24-02-2010 22:52:02 8.1 C 6.82 g/m*3 8.1 C 0 km/h
1632 24-02-2010 23:04:01 8.2 C 6.7 g/m*3 8.2 C 0 km/h
1633 24-02-2010 23:16:01 8.3 C 6.74 g/m*3 8.3 C 0 km/h
1634 24-02-2010 23:28:01 8.4 C 6.62 g/m*3 8.4 C 0 km/h
1635 24-02-2010 23:40:01 8.4 C 6.53 g/m*3 8.4 C 0 km/h
1636 24-02-2010 23:52:02 8.4 C 6.45 g/m*3 8.4 C 0 km/h
1637 25-02-2010 00:04:01 8.7 C 6.49 g/m*3 8.7 C 0 km/h
1638 25-02-2010 00:16:02 8.7 C 6.4 g/m*3 8.7 C 0 km/h
1639 25-02-2010 00:28:02 8.6 C 6.36 g/m*3 8.6 C 0 km/h
1640 25-02-2010 00:40:01 8.4 C 6.28 g/m*3 8.4 C 0 km/h
1641 25-02-2010 00:52:02 8.1 C 6.24 g/m*3 8.1 C 0 km/h
1642 25-02-2010 01:04:01 8.1 C 6.41 g/m*3 8.1 C 0 km/h
1643 25-02-2010 01:16:01 8.4 C 6.36 g/m*3 8.4 C 0 km/h
1644 25-02-2010 01:28:01 8.5 C 6.23 g/m*3 8.5 C 0 km/h
1645 25-02-2010 01:40:02 8.6 C 6.19 g/m*3 8.6 C 0 km/h
1646 25-02-2010 01:52:01 8.6 C 6.19 g/m*3 8.6 C 0 km/h
1647 25-02-2010 02:04:01 8.4 C 6.11 g/m*3 8.4 C 0 km/h
1648 25-02-2010 02:16:01 8 C 6.12 g/m*3 8 C 0 km/h
1649 25-02-2010 02:28:01 7.9 C 6.32 g/m*3 7.9 C 0 km/h
1650 25-02-2010 02:40:02 7.9 C 6.41 g/m*3 7.9 C 0 km/h
Sensor: Nr:Datum:Temp:Abs-Feuchte:Windchill:Wind:
Aussen-T/F 1651 25-02-2010 02:52:01 7.8 C 6.28 g/m*3 7.8 C 0 km/h
1652 25-02-2010 03:04:01 7.7 C 6.32 g/m*3 7.7 C 0 km/h
1653 25-02-2010 03:16:02 7.5 C 6.48 g/m*3 7.5 C 0 km/h
1654 25-02-2010 03:28:02 7.4 C 6.6 g/m*3 7.4 C 0 km/h
1655 25-02-2010 03:40:02 7.3 C 6.56 g/m*3 7.3 C 0 km/h
1656 25-02-2010 03:52:02 7.3 C 6.56 g/m*3 7.3 C 0 km/h
1657 25-02-2010 04:04:01 7.2 C 6.52 g/m*3 7.2 C 0 km/h
1658 25-02-2010 04:16:01 7.2 C 6.52 g/m*3 7.2 C 0 km/h
1659 25-02-2010 04:28:01 7.2 C 6.52 g/m*3 7.2 C 0 km/h
1660 25-02-2010 04:40:02 7.1 C 6.47 g/m*3 7.1 C 0 km/h
1661 25-02-2010 04:52:01 7.1 C 6.55 g/m*3 7.1 C 0 km/h
1662 25-02-2010 05:04:02 7.3 C 6.56 g/m*3 7.3 C 0 km/h
1663 25-02-2010 05:16:01 7.2 C 6.52 g/m*3 7.2 C 0 km/h
1664 25-02-2010 05:28:01 7.4 C 6.6 g/m*3 7.4 C 0 km/h
1665 25-02-2010 05:40:02 7.6 C 6.53 g/m*3 7.6 C 0 km/h
1666 25-02-2010 05:52:01 7.9 C 6.32 g/m*3 7.9 C 0 km/h
1667 25-02-2010 06:04:02 8.1 C 6.07 g/m*3 8.1 C 0 km/h
1668 25-02-2010 06:16:01 8.3 C 5.98 g/m*3 8.3 C 0 km/h
1669 25-02-2010 06:28:01 8.5 C 5.89 g/m*3 8.5 C 0 km/h
1670 25-02-2010 06:40:02 8.6 C 5.84 g/m*3 8.6 C 0 km/h
1671 25-02-2010 06:52:02 8.7 C 5.79 g/m*3 8.7 C 0 km/h
1672 25-02-2010 07:04:01 8.7 C 5.79 g/m*3 8.7 C 0 km/h
1673 25-02-2010 07:16:01 8.8 C 5.74 g/m*3 8.8 C 0 km/h
1674 25-02-2010 07:28:01 8.8 C 5.83 g/m*3 8.8 C 0 km/h
1675 25-02-2010 07:40:01 8.7 C 5.88 g/m*3 8.7 C 0 km/h
Sensor: Nr:Datum:Temp:Abs-Feuchte:Windchill:Wind:
Aussen-T/F 1676 25-02-2010 07:52:02 8.6 C 5.93 g/m*3 8.6 C 0 km/h
1677 25-02-2010 08:04:01 8.4 C 6.02 g/m*3 8.4 C 0 km/h
1678 25-02-2010 08:16:01 8.6 C 5.93 g/m*3 8.6 C 0 km/h
1679 25-02-2010 08:28:01 8.9 C 5.78 g/m*3 8.9 C 0 km/h
1680 25-02-2010 08:40:02 9 C 5.64 g/m*3 9 C 0 km/h
1681 25-02-2010 08:52:01 9.1 C 5.68 g/m*3 9.1 C 0 km/h
1682 25-02-2010 09:04:02 9.3 C 5.66 g/m*3 9.3 C 0 km/h
1683 25-02-2010 09:16:01 9.5 C 5.64 g/m*3 9.5 C 0 km/h
1684 25-02-2010 09:28:01 9.6 C 5.5 g/m*3 9.6 C 0 km/h
1685 25-02-2010 09:40:02 9.6 C 5.59 g/m*3 9.6 C 0 km/h
1686 25-02-2010 09:52:01 9.9 C 5.6 g/m*3 9.9 C 0 km/h
1687 25-02-2010 10:04:02 9.9 C 5.51 g/m*3 9.9 C 0 km/h
1688 25-02-2010 10:16:01 9.9 C 5.6 g/m*3 9.9 C 0 km/h
1689 25-02-2010 10:28:01 10.2 C 5.42 g/m*3 10.2 C 0 km/h
1690 25-02-2010 10:40:02 10.6 C 5.37 g/m*3 10.6 C 0 km/h
1691 25-02-2010 10:52:01 10.7 C 5.21 g/m*3 10.7 C 0 km/h
1692 25-02-2010 11:04:01 10.6 C 5.17 g/m*3 10.6 C 0 km/h
1693 25-02-2010 11:16:01 11.2 C 5.17 g/m*3 11.2 C 0 km/h
1694 25-02-2010 11:28:01 10.9 C 5.17 g/m*3 10.9 C 0 km/h
1695 25-02-2010 11:40:02 11.2 C 5.07 g/m*3 11.2 C 0 km/h
1696 25-02-2010 11:52:01 11.3 C 5.1 g/m*3 11.3 C 0 km/h
1697 25-02-2010 12:04:02 11.4 C 4.82 g/m*3 11.4 C 0 km/h
1698 25-02-2010 12:16:01 11.4 C 4.82 g/m*3 11.4 C 0 km/h
1699 25-02-2010 12:28:01 11.4 C 4.82 g/m*3 11.4 C 0 km/h
1700 25-02-2010 12:40:02 11.1 C 4.73 g/m*3 11.1 C 0 km/h
Sensor: Nr:Datum:Temp:Abs-Feuchte:Windchill:Wind:
Aussen-T/F 1701 25-02-2010 12:52:01 11.4 C 4.82 g/m*3 11.4 C 0 km/h
1702 25-02-2010 13:04:02 11.7 C 4.81 g/m*3 11.7 C 0 km/h
1703 25-02-2010 13:16:01 12.9 C 4.85 g/m*3 12.9 C 0 km/h
1704 25-02-2010 13:28:01 13 C 4.54 g/m*3 13 C 0 km/h
1705 25-02-2010 13:40:02 12.7 C 4.68 g/m*3 12.7 C 0 km/h
1706 25-02-2010 13:52:01 11.9 C 4.77 g/m*3 11.9 C 0 km/h
1707 25-02-2010 14:04:02 12.2 C 4.96 g/m*3 12.2 C 0 km/h
1708 25-02-2010 14:16:01 13 C 4.88 g/m*3 13 C 0 km/h
1709 25-02-2010 14:28:01 12.8 C 4.82 g/m*3 12.8 C 0 km/h
1710 25-02-2010 14:40:01 12.4 C 4.7 g/m*3 12.4 C 0 km/h
1711 25-02-2010 14:52:01 12.6 C 4.87 g/m*3 12.6 C 0 km/h
1712 25-02-2010 15:04:02 12.7 C 4.68 g/m*3 12.7 C 0 km/h
1713 25-02-2010 15:16:01 12.8 C 4.59 g/m*3 12.8 C 0 km/h
1714 25-02-2010 15:28:01 12.5 C 4.4 g/m*3 12.5 C 0 km/h
1715 25-02-2010 15:40:01 12.5 C 4.4 g/m*3 12.5 C 0 km/h
1716 25-02-2010 15:52:01 12.3 C 4.34 g/m*3 12.3 C 0 km/h
1717 25-02-2010 16:04:01 12.2 C 4.32 g/m*3 12.2 C 0 km/h
1718 25-02-2010 16:16:02 12 C 4.26 g/m*3 12 C 0 km/h
1719 25-02-2010 16:28:02 11.8 C 4.53 g/m*3 11.8 C 0 km/h
1720 25-02-2010 16:40:01 11.6 C 4.68 g/m*3 11.6 C 0 km/h
1721 25-02-2010 16:52:01 11.5 C 4.75 g/m*3 11.5 C 0 km/h
1722 25-02-2010 17:04:01 11.2 C 5.07 g/m*3 11.2 C 0 km/h
1723 25-02-2010 17:16:01 11.2 C 4.97 g/m*3 11.2 C 0 km/h
1724 25-02-2010 17:28:01 11 C 4.8 g/m*3 11 C 0 km/h
1725 25-02-2010 17:40:01 11 C 4.8 g/m*3 11 C 0 km/h
Sensor: Nr:Datum:Temp:Abs-Feuchte:Windchill:Wind:
Aussen-T/F 1726 25-02-2010 17:52:01 10.9 C 4.87 g/m*3 10.9 C 0 km/h
1727 25-02-2010 18:04:02 10.5 C 5.14 g/m*3 10.5 C 0 km/h
1728 25-02-2010 18:16:01 9.7 C 5.35 g/m*3 9.7 C 0 km/h
1729 25-02-2010 18:28:01 9.3 C 5.93 g/m*3 9.3 C 0 km/h
1730 25-02-2010 18:40:02 8.9 C 6.22 g/m*3 8.9 C 0 km/h
1731 25-02-2010 18:52:02 8.8 C 6.53 g/m*3 8.8 C 0 km/h
1732 25-02-2010 19:04:01 8.5 C 6.57 g/m*3 8.5 C 0 km/h
1733 25-02-2010 19:16:01 8.6 C 6.79 g/m*3 8.6 C 0 km/h
1734 25-02-2010 19:28:01 8.5 C 6.83 g/m*3 8.5 C 0 km/h
1735 25-02-2010 19:40:02 8.4 C 6.87 g/m*3 8.4 C 0 km/h
1736 25-02-2010 19:52:01 8.5 C 6.83 g/m*3 8.5 C 0 km/h
1737 25-02-2010 20:04:02 8.6 C 6.79 g/m*3 8.6 C 0 km/h
1738 25-02-2010 20:16:01 8.6 C 6.7 g/m*3 8.6 C 0 km/h
1739 25-02-2010 20:28:01 8.6 C 6.7 g/m*3 8.6 C 0 km/h
1740 25-02-2010 20:40:02 8.7 C 6.66 g/m*3 8.7 C 0 km/h
1741 25-02-2010 20:52:01 8.8 C 6.61 g/m*3 8.8 C 0 km/h
1742 25-02-2010 21:04:02 8.9 C 6.66 g/m*3 8.9 C 0 km/h
1743 25-02-2010 21:16:01 9 C 6.52 g/m*3 9 C 0 km/h
1744 25-02-2010 21:28:01 9.2 C 6.61 g/m*3 9.2 C 0 km/h
1745 25-02-2010 21:40:02 9.2 C 6.52 g/m*3 9.2 C 0 km/h
1746 25-02-2010 21:52:01 9.2 C 6.52 g/m*3 9.2 C 0 km/h
1747 25-02-2010 22:04:01 9.1 C 6.57 g/m*3 9.1 C 0 km/h
1748 25-02-2010 22:16:01 9.1 C 6.65 g/m*3 9.1 C 0 km/h
1749 25-02-2010 22:28:01 9.2 C 6.61 g/m*3 9.2 C 0 km/h
1750 25-02-2010 22:40:01 9.3 C 6.65 g/m*3 9.3 C 0 km/h
Sensor: Nr:Datum:Temp:Abs-Feuchte:Windchill:Wind:
Aussen-T/F 1751 25-02-2010 22:52:02 9.2 C 6.61 g/m*3 9.2 C 0 km/h
1752 25-02-2010 23:04:01 9.2 C 6.7 g/m*3 9.2 C 0 km/h
1753 25-02-2010 23:16:01 9.5 C 6.83 g/m*3 9.5 C 0 km/h
1754 25-02-2010 23:28:01 9.4 C 6.78 g/m*3 9.4 C 0 km/h
1755 25-02-2010 23:40:02 9.3 C 6.74 g/m*3 9.3 C 0 km/h
1756 25-02-2010 23:52:01 9.4 C 6.78 g/m*3 9.4 C 0 km/h
1757 26-02-2010 00:04:02 9.3 C 6.83 g/m*3 9.3 C 0 km/h
1758 26-02-2010 00:16:01 9.4 C 6.87 g/m*3 9.4 C 0 km/h
1759 26-02-2010 00:28:01 9.4 C 6.87 g/m*3 9.4 C 0 km/h
1760 26-02-2010 00:40:02 9.3 C 6.83 g/m*3 9.3 C 0 km/h
1761 26-02-2010 00:52:01 9.3 C 6.92 g/m*3 9.3 C 0 km/h
1762 26-02-2010 01:04:02 9.4 C 6.96 g/m*3 9.4 C 0 km/h
1763 26-02-2010 01:16:01 9.5 C 7.01 g/m*3 9.5 C 0 km/h
1764 26-02-2010 01:28:01 9.4 C 6.96 g/m*3 9.4 C 0 km/h
1765 26-02-2010 01:40:01 9.6 C 7.05 g/m*3 9.6 C 0 km/h
1766 26-02-2010 01:52:01 9.6 C 6.96 g/m*3 9.6 C 0 km/h
1767 26-02-2010 02:04:01 9.8 C 7.05 g/m*3 9.8 C 0 km/h
1768 26-02-2010 02:16:01 9.8 C 7.05 g/m*3 9.8 C 0 km/h
1769 26-02-2010 02:28:01 9.7 C 7.01 g/m*3 9.7 C 0 km/h
1770 26-02-2010 02:40:01 9.8 C 7.05 g/m*3 9.8 C 0 km/h
1771 26-02-2010 02:53:06 9.8 C 7.05 g/m*3 9.8 C 0 km/h
1772 26-02-2010 03:05:06 9.8 C 7.05 g/m*3 9.8 C 0 km/h
1773 26-02-2010 03:17:06 10 C 6.95 g/m*3 10 C 0 km/h
1774 26-02-2010 03:29:06 9.9 C 7 g/m*3 9.9 C 0 km/h
1775 26-02-2010 03:41:02 9.9 C 6.91 g/m*3 9.9 C 0 km/h
Sensor: Nr:Datum:Temp:Abs-Feuchte:Windchill:Wind:
Aussen-T/F 1776 26-02-2010 03:53:02 9.7 C 6.82 g/m*3 9.7 C 0 km/h
1777 26-02-2010 04:05:03 9.5 C 6.83 g/m*3 9.5 C 0 km/h
1778 26-02-2010 04:17:02 9.5 C 6.83 g/m*3 9.5 C 0 km/h
1779 26-02-2010 04:29:02 9.5 C 6.83 g/m*3 9.5 C 0 km/h
1780 26-02-2010 04:41:02 9.7 C 6.73 g/m*3 9.7 C 0 km/h
1781 26-02-2010 04:53:01 9.5 C 6.64 g/m*3 9.5 C 0 km/h
1782 26-02-2010 05:05:02 9.4 C 6.51 g/m*3 9.4 C 0 km/h
1783 26-02-2010 05:17:01 9.4 C 6.42 g/m*3 9.4 C 0 km/h
1784 26-02-2010 05:29:01 9.6 C 6.32 g/m*3 9.6 C 0 km/h
1785 26-02-2010 05:41:02 9.2 C 6.34 g/m*3 9.2 C 0 km/h
1786 26-02-2010 05:53:01 9.1 C 6.3 g/m*3 9.1 C 0 km/h
1787 26-02-2010 06:05:02 8.8 C 6.27 g/m*3 8.8 C 0 km/h
1788 26-02-2010 06:17:01 9 C 6.26 g/m*3 9 C 0 km/h
1789 26-02-2010 06:29:01 9.1 C 6.21 g/m*3 9.1 C 0 km/h
1790 26-02-2010 06:41:02 9.2 C 6.07 g/m*3 9.2 C 0 km/h
1791 26-02-2010 06:53:01 9.4 C 6.15 g/m*3 9.4 C 0 km/h
1792 26-02-2010 07:05:02 9.1 C 6.03 g/m*3 9.1 C 0 km/h
1793 26-02-2010 07:17:02 8.9 C 6.31 g/m*3 8.9 C 0 km/h
1794 26-02-2010 07:29:02 9 C 6.26 g/m*3 9 C 0 km/h
1795 26-02-2010 07:41:02 9.2 C 6.07 g/m*3 9.2 C 0 km/h
1796 26-02-2010 07:53:02 9.5 C 5.92 g/m*3 9.5 C 0 km/h
1797 26-02-2010 08:05:02 9.6 C 5.77 g/m*3 9.6 C 0 km/h
1798 26-02-2010 08:17:02 9.6 C 5.68 g/m*3 9.6 C 0 km/h
1799 26-02-2010 08:29:02 9.8 C 5.57 g/m*3 9.8 C 0 km/h
1800 26-02-2010 08:41:02 9.7 C 5.72 g/m*3 9.7 C 0 km/h
Sensor: Nr:Datum:Temp:Abs-Feuchte:Windchill:Wind:
Aussen-T/F 1801 26-02-2010 08:53:02 9.8 C 5.66 g/m*3 9.8 C 0 km/h
1802 26-02-2010 09:05:02 10.2 C 5.52 g/m*3 10.2 C 0 km/h
1803 26-02-2010 09:17:02 10.2 C 5.42 g/m*3 10.2 C 0 km/h
1804 26-02-2010 09:29:02 10.1 C 5.58 g/m*3 10.1 C 0 km/h
1805 26-02-2010 09:41:02 10.1 C 5.39 g/m*3 10.1 C 0 km/h
1806 26-02-2010 09:53:02 10.5 C 5.33 g/m*3 10.5 C 0 km/h
1807 26-02-2010 10:05:02 9.8 C 5.66 g/m*3 9.8 C 0 km/h
1808 26-02-2010 10:17:02 9.5 C 5.92 g/m*3 9.5 C 0 km/h
1809 26-02-2010 10:29:02 9.9 C 5.88 g/m*3 9.9 C 0 km/h
1810 26-02-2010 10:41:02 10.1 C 5.48 g/m*3 10.1 C 0 km/h
1811 26-02-2010 10:53:02 10.3 C 5.36 g/m*3 10.3 C 0 km/h
1812 26-02-2010 11:05:02 10.6 C 5.47 g/m*3 10.6 C 0 km/h
1813 26-02-2010 11:17:03 10.8 C 5.34 g/m*3 10.8 C 0 km/h
1814 26-02-2010 11:29:03 11 C 5.2 g/m*3 11 C 0 km/h
1815 26-02-2010 11:41:02 11.2 C 5.17 g/m*3 11.2 C 0 km/h
1816 26-02-2010 11:53:02 10.2 C 5.52 g/m*3 10.2 C 0 km/h
1817 26-02-2010 12:05:02 9.7 C 5.72 g/m*3 9.7 C 0 km/h
1818 26-02-2010 12:17:02 10 C 5.64 g/m*3 10 C 0 km/h
1819 26-02-2010 12:29:02 10.8 C 5.73 g/m*3 10.8 C 0 km/h
1820 26-02-2010 12:41:02 10.8 C 5.44 g/m*3 10.8 C 0 km/h
1821 26-02-2010 12:53:02 10.3 C 5.84 g/m*3 10.3 C 0 km/h
1822 26-02-2010 13:05:02 10.4 C 5.78 g/m*3 10.4 C 0 km/h
1823 26-02-2010 13:17:03 10.7 C 5.6 g/m*3 10.7 C 0 km/h
1824 26-02-2010 13:29:03 11.4 C 5.44 g/m*3 11.4 C 0 km/h
1825 26-02-2010 13:41:02 11.1 C 5.24 g/m*3 11.1 C 0 km/h
Sensor: Nr:Datum:Temp:Abs-Feuchte:Windchill:Wind:
Aussen-T/F 1826 26-02-2010 13:53:01 10.9 C 5.07 g/m*3 10.9 C 0 km/h
1827 26-02-2010 14:05:01 11.1 C 5.34 g/m*3 11.1 C 0 km/h
1828 26-02-2010 14:17:02 10.8 C 5.14 g/m*3 10.8 C 0 km/h
1829 26-02-2010 14:29:02 10.6 C 5.17 g/m*3 10.6 C 0 km/h
1830 26-02-2010 14:41:02 10.1 C 5.01 g/m*3 10.1 C 0 km/h
1831 26-02-2010 14:53:03 9.4 C 5.25 g/m*3 9.4 C 0 km/h
1832 26-02-2010 15:05:03 9.2 C 5.36 g/m*3 9.2 C 0 km/h
1833 26-02-2010 15:17:02 8.9 C 5.26 g/m*3 8.9 C 0 km/h
1834 26-02-2010 15:29:03 8.7 C 5.28 g/m*3 8.7 C 0 km/h
1835 26-02-2010 15:41:02 8.4 C 5.34 g/m*3 8.4 C 0 km/h
1836 26-02-2010 15:53:02 8.3 C 4.89 g/m*3 8.3 C 0 km/h
1837 26-02-2010 16:05:02 8.2 C 4.69 g/m*3 8.2 C 0 km/h
1838 26-02-2010 16:17:02 8 C 4.3 g/m*3 8 C 0 km/h
1839 26-02-2010 16:29:02 7.9 C 4.19 g/m*3 7.9 C 0 km/h
1840 26-02-2010 16:41:04 7.9 C 4.02 g/m*3 7.9 C 0 km/h
1841 26-02-2010 16:53:02 7.9 C 4.11 g/m*3 7.9 C 0 km/h
1842 26-02-2010 17:05:01 8.1 C 4.08 g/m*3 8.1 C 0 km/h
1843 26-02-2010 17:17:02 8 C 4.05 g/m*3 8 C 0 km/h
1844 26-02-2010 17:29:02 7.9 C 4.11 g/m*3 7.9 C 0 km/h
1845 26-02-2010 17:41:02 7.8 C 4.16 g/m*3 7.8 C 0 km/h
1846 26-02-2010 17:53:02 7.7 C 4.22 g/m*3 7.7 C 0 km/h
1847 26-02-2010 18:05:02 7.6 C 4.27 g/m*3 7.6 C 0 km/h
1848 26-02-2010 18:17:01 7.3 C 4.42 g/m*3 7.3 C 0 km/h
1849 26-02-2010 18:29:01 6.6 C 4.76 g/m*3 6.6 C 0 km/h
1850 26-02-2010 18:41:02 6.3 C 4.44 g/m*3 6.3 C 0 km/h
Sensor: Nr:Datum:Temp:Abs-Feuchte:Windchill:Wind:
Aussen-T/F 1851 26-02-2010 18:53:02 6.3 C 4.22 g/m*3 6.3 C 0 km/h
1852 26-02-2010 19:05:02 6.5 C 4.2 g/m*3 6.5 C 0 km/h
1853 26-02-2010 19:17:02 6.3 C 4.29 g/m*3 6.3 C 0 km/h
1854 26-02-2010 19:29:02 5.8 C 4.3 g/m*3 5.8 C 0 km/h
1855 26-02-2010 19:41:04 5.8 C 4.01 g/m*3 5.8 C 0 km/h
1856 26-02-2010 19:53:04 5.8 C 3.94 g/m*3 5.8 C 0 km/h
1857 26-02-2010 20:05:02 5.9 C 4.04 g/m*3 5.9 C 0 km/h
1858 26-02-2010 20:17:02 6 C 4.14 g/m*3 6 C 0 km/h
1859 26-02-2010 20:29:02 5.9 C 4.18 g/m*3 5.9 C 0 km/h
1860 26-02-2010 20:41:03 6 C 3.92 g/m*3 6 C 0 km/h
1861 26-02-2010 20:53:02 5.9 C 3.89 g/m*3 5.9 C 0 km/h
1862 26-02-2010 21:05:02 5.8 C 3.94 g/m*3 5.8 C 0 km/h
1863 26-02-2010 21:17:03 5.6 C 4.03 g/m*3 5.6 C 0 km/h
1864 26-02-2010 21:29:03 5.5 C 4 g/m*3 5.5 C 0 km/h
1865 26-02-2010 21:41:02 5.6 C 3.89 g/m*3 5.6 C 0 km/h
1866 26-02-2010 21:53:03 5.7 C 3.91 g/m*3 5.7 C 0 km/h
1867 26-02-2010 22:05:02 5.5 C 3.86 g/m*3 5.5 C 0 km/h
1868 26-02-2010 22:17:03 5.4 C 3.84 g/m*3 5.4 C 0 km/h
1869 26-02-2010 22:29:03 5.3 C 3.81 g/m*3 5.3 C 0 km/h
1870 26-02-2010 22:42:04 5.2 C 3.65 g/m*3 5.2 C 0 km/h
1871 26-02-2010 22:54:04 5.1 C 3.69 g/m*3 5.1 C 0 km/h
1872 26-02-2010 23:06:04 5.1 C 3.63 g/m*3 5.1 C 0 km/h
1873 26-02-2010 23:18:04 5.1 C 3.63 g/m*3 5.1 C 0 km/h
1874 26-02-2010 23:30:04 4.9 C 3.71 g/m*3 4.9 C 0 km/h
1875 26-02-2010 23:42:04 4.7 C 3.66 g/m*3 4.7 C 0 km/h
Sensor: Nr:Datum:Temp:Abs-Feuchte:Windchill:Wind:
Aussen-T/F 1876 26-02-2010 23:54:05 4.7 C 3.6 g/m*3 4.7 C 0 km/h
1877 27-02-2010 00:06:05 4.5 C 3.62 g/m*3 4.5 C 0 km/h
1878 27-02-2010 00:18:05 4.4 C 3.59 g/m*3 4.4 C 0 km/h
1879 27-02-2010 00:30:05 4.4 C 3.59 g/m*3 4.4 C 0 km/h
1880 27-02-2010 00:42:05 4.3 C 3.57 g/m*3 4.3 C 0 km/h
1881 27-02-2010 00:54:05 4.1 C 3.58 g/m*3 4.1 C 0 km/h
1882 27-02-2010 01:06:05 3.8 C 3.64 g/m*3 3.8 C 0 km/h
1883 27-02-2010 01:18:05 3.9 C 3.73 g/m*3 3.9 C 0 km/h
1884 27-02-2010 01:30:05 4 C 3.62 g/m*3 4 C 0 km/h
1885 27-02-2010 01:42:05 4.1 C 3.58 g/m*3 4.1 C 0 km/h
1886 27-02-2010 01:54:05 3.7 C 3.68 g/m*3 3.7 C 0 km/h
1887 27-02-2010 02:06:05 3.2 C 3.74 g/m*3 3.2 C 0 km/h
1888 27-02-2010 02:18:05 2.8 C 3.75 g/m*3 2.8 C 0 km/h
1889 27-02-2010 02:30:05 3.1 C 3.77 g/m*3 3.1 C 0 km/h
1890 27-02-2010 02:42:05 3.1 C 3.77 g/m*3 3.1 C 0 km/h
1891 27-02-2010 02:54:05 3.2 C 3.74 g/m*3 3.2 C 0 km/h
1892 27-02-2010 03:06:05 3.3 C 3.76 g/m*3 3.3 C 0 km/h
1893 27-02-2010 03:18:05 3.5 C 3.69 g/m*3 3.5 C 0 km/h
1894 27-02-2010 03:30:05 3.7 C 3.74 g/m*3 3.7 C 0 km/h
1895 27-02-2010 03:42:05 3.6 C 3.78 g/m*3 3.6 C 0 km/h
1896 27-02-2010 03:54:05 3.5 C 3.81 g/m*3 3.5 C 0 km/h
1897 27-02-2010 04:06:06 3.4 C 3.79 g/m*3 3.4 C 0 km/h
1898 27-02-2010 04:18:06 3.3 C 3.88 g/m*3 3.3 C 0 km/h
1899 27-02-2010 04:30:06 3.4 C 3.97 g/m*3 3.4 C 0 km/h
1900 27-02-2010 04:42:06 3.6 C 4.09 g/m*3 3.6 C 0 km/h
Sensor: Nr:Datum:Temp:Abs-Feuchte:Windchill:Wind:
Aussen-T/F 1901 27-02-2010 04:54:06 4.1 C 4.16 g/m*3 4.1 C 0 km/h
1902 27-02-2010 05:06:06 4 C 4.07 g/m*3 4 C 0 km/h
1903 27-02-2010 05:18:06 3.9 C 4.17 g/m*3 3.9 C 0 km/h
1904 27-02-2010 05:30:06 3.9 C 4.23 g/m*3 3.9 C 0 km/h
1905 27-02-2010 05:42:06 3.8 C 4.2 g/m*3 3.8 C 0 km/h
1906 27-02-2010 05:54:06 3.6 C 4.21 g/m*3 3.6 C 0 km/h
1907 27-02-2010 06:06:06 4 C 4.26 g/m*3 4 C 0 km/h
1908 27-02-2010 06:18:06 4.3 C 4.28 g/m*3 4.3 C 0 km/h
1909 27-02-2010 06:30:06 4.3 C 4.22 g/m*3 4.3 C 0 km/h
1910 27-02-2010 06:42:06 4.4 C 4.31 g/m*3 4.4 C 0 km/h
1911 27-02-2010 06:54:06 4.6 C 4.37 g/m*3 4.6 C 0 km/h
1912 27-02-2010 07:06:06 4.4 C 4.31 g/m*3 4.4 C 0 km/h
1913 27-02-2010 07:18:06 4.7 C 4.46 g/m*3 4.7 C 0 km/h
1914 27-02-2010 07:30:06 4.8 C 4.49 g/m*3 4.8 C 0 km/h
1915 27-02-2010 07:42:06 5.2 C 4.54 g/m*3 5.2 C 0 km/h
1916 27-02-2010 07:54:06 5.3 C 4.57 g/m*3 5.3 C 0 km/h
1917 27-02-2010 08:06:07 5.4 C 4.6 g/m*3 5.4 C 0 km/h
1918 27-02-2010 08:18:07 5.6 C 4.67 g/m*3 5.6 C 0 km/h
1919 27-02-2010 08:30:07 5.8 C 4.66 g/m*3 5.8 C 0 km/h
1920 27-02-2010 08:42:03 6.4 C 4.62 g/m*3 6.4 C 0 km/h
1921 27-02-2010 08:54:01 6.5 C 4.57 g/m*3 6.5 C 0 km/h
1922 27-02-2010 09:06:02 6.6 C 4.6 g/m*3 6.6 C 0 km/h
1923 27-02-2010 09:18:02 6.8 C 4.59 g/m*3 6.8 C 0 km/h
1924 27-02-2010 09:30:02 7 C 4.49 g/m*3 7 C 0 km/h
1925 27-02-2010 09:42:01 7.1 C 4.45 g/m*3 7.1 C 0 km/h
Sensor: Nr:Datum:Temp:Abs-Feuchte:Windchill:Wind:
Aussen-T/F 1926 27-02-2010 09:54:02 7.3 C 4.5 g/m*3 7.3 C 0 km/h
1927 27-02-2010 10:06:01 7.5 C 4.48 g/m*3 7.5 C 0 km/h
1928 27-02-2010 10:18:02 7.6 C 4.43 g/m*3 7.6 C 0 km/h
1929 27-02-2010 10:30:02 8.1 C 4.49 g/m*3 8.1 C 0 km/h
1930 27-02-2010 10:42:01 8.7 C 4.58 g/m*3 8.7 C 0 km/h
1931 27-02-2010 10:54:03 8.6 C 4.55 g/m*3 8.6 C 0 km/h
1932 27-02-2010 11:06:02 8.7 C 4.5 g/m*3 8.7 C 0 km/h
1933 27-02-2010 11:18:02 9.1 C 4.53 g/m*3 9.1 C 0 km/h
1934 27-02-2010 11:30:03 9.3 C 4.49 g/m*3 9.3 C 0 km/h
1935 27-02-2010 11:42:02 9.3 C 4.31 g/m*3 9.3 C 0 km/h
1936 27-02-2010 11:54:02 9.3 C 4.31 g/m*3 9.3 C 0 km/h
1937 27-02-2010 12:06:02 9.4 C 4.34 g/m*3 9.4 C 0 km/h
1938 27-02-2010 12:18:02 9.8 C 4.36 g/m*3 9.8 C 0 km/h
1939 27-02-2010 12:30:02 10.1 C 4.35 g/m*3 10.1 C 0 km/h
1940 27-02-2010 12:42:02 10.8 C 4.35 g/m*3 10.8 C 0 km/h
1941 27-02-2010 12:54:02 11.2 C 4.16 g/m*3 11.2 C 0 km/h
1942 27-02-2010 13:06:01 11.8 C 4.1 g/m*3 11.8 C 0 km/h
1943 27-02-2010 13:18:01 11.8 C 3.68 g/m*3 11.8 C 0 km/h
1944 27-02-2010 13:30:01 12.3 C 3.58 g/m*3 12.3 C 0 km/h
1945 27-02-2010 13:42:02 12.9 C 3.49 g/m*3 12.9 C 0 km/h
1946 27-02-2010 13:54:02 12.9 C 3.38 g/m*3 12.9 C 0 km/h
1947 27-02-2010 14:06:02 13.4 C 3.49 g/m*3 13.4 C 0 km/h
1948 27-02-2010 14:18:02 14.2 C 3.42 g/m*3 14.2 C 0 km/h
1949 27-02-2010 14:30:02 14.5 C 3.23 g/m*3 14.5 C 0 km/h
1950 27-02-2010 14:42:02 14.8 C 3.17 g/m*3 14.8 C 0 km/h
Sensor: Nr:Datum:Temp:Abs-Feuchte:Windchill:Wind:
Aussen-T/F 1951 27-02-2010 14:54:01 14.9 C 2.8 g/m*3 14.9 C 0 km/h
1952 27-02-2010 15:06:02 14.8 C 2.79 g/m*3 14.8 C 0 km/h
1953 27-02-2010 15:18:01 15.5 C 2.78 g/m*3 15.5 C 0 km/h
1954 27-02-2010 15:30:01 15.9 C 2.84 g/m*3 15.9 C 0 km/h
1955 27-02-2010 15:42:02 15.6 C 2.93 g/m*3 15.6 C 0 km/h
1956 27-02-2010 15:54:02 15.7 C 3.08 g/m*3 15.7 C 0 km/h
1957 27-02-2010 16:06:02 15.7 C 2.81 g/m*3 15.7 C 0 km/h
1958 27-02-2010 16:18:01 14.8 C 2.66 g/m*3 14.8 C 0 km/h
1959 27-02-2010 16:30:01 15 C 2.56 g/m*3 15 C 0 km/h
1960 27-02-2010 16:42:02 14.3 C 2.46 g/m*3 14.3 C 0 km/h
1961 27-02-2010 16:54:02 14.6 C 2.5 g/m*3 14.6 C 0 km/h
1962 27-02-2010 17:06:02 15.7 C 2.68 g/m*3 15.7 C 0 km/h
1963 27-02-2010 17:18:02 14.4 C 2.47 g/m*3 14.4 C 0 km/h
1964 27-02-2010 17:30:02 13.5 C 2.57 g/m*3 13.5 C 0 km/h
1965 27-02-2010 17:42:02 12.9 C 3.38 g/m*3 12.9 C 0 km/h
1966 27-02-2010 17:54:02 11.7 C 3.66 g/m*3 11.7 C 0 km/h
1967 27-02-2010 18:06:02 11 C 3.7 g/m*3 11 C 0 km/h
1968 27-02-2010 18:18:03 10.5 C 3.88 g/m*3 10.5 C 0 km/h
1969 27-02-2010 18:30:03 10.2 C 3.81 g/m*3 10.2 C 0 km/h
1970 27-02-2010 18:42:02 10 C 3.95 g/m*3 10 C 0 km/h
1971 27-02-2010 18:54:02 9.9 C 4.2 g/m*3 9.9 C 0 km/h
1972 27-02-2010 19:06:02 9.8 C 4.27 g/m*3 9.8 C 0 km/h
1973 27-02-2010 19:18:02 10 C 4.23 g/m*3 10 C 0 km/h
1974 27-02-2010 19:30:02 10 C 4.23 g/m*3 10 C 0 km/h
1975 27-02-2010 19:42:02 9.8 C 4.18 g/m*3 9.8 C 0 km/h
Sensor: Nr:Datum:Temp:Abs-Feuchte:Windchill:Wind:
Aussen-T/F 1976 27-02-2010 19:54:02 9.8 C 4.18 g/m*3 9.8 C 0 km/h
1977 27-02-2010 20:06:02 10 C 4.13 g/m*3 10 C 0 km/h
1978 27-02-2010 20:18:02 9.9 C 4.2 g/m*3 9.9 C 0 km/h
1979 27-02-2010 20:30:02 9.7 C 4.15 g/m*3 9.7 C 0 km/h
1980 27-02-2010 20:42:02 9.9 C 4.01 g/m*3 9.9 C 0 km/h
1981 27-02-2010 20:54:02 9.8 C 4.18 g/m*3 9.8 C 0 km/h
1982 27-02-2010 21:06:01 9.6 C 3.94 g/m*3 9.6 C 0 km/h
1983 27-02-2010 21:18:02 9.6 C 3.94 g/m*3 9.6 C 0 km/h
1984 27-02-2010 21:30:02 9.6 C 3.94 g/m*3 9.6 C 0 km/h
1985 27-02-2010 21:42:01 9.7 C 3.69 g/m*3 9.7 C 0 km/h
1986 27-02-2010 21:54:03 9.6 C 3.66 g/m*3 9.6 C 0 km/h
1987 27-02-2010 22:06:03 9.7 C 3.78 g/m*3 9.7 C 0 km/h
1988 27-02-2010 22:18:02 9.8 C 3.71 g/m*3 9.8 C 0 km/h
1989 27-02-2010 22:30:02 9.8 C 3.71 g/m*3 9.8 C 0 km/h
1990 27-02-2010 22:43:02 9.9 C 3.64 g/m*3 9.9 C 0 km/h
1991 27-02-2010 22:55:02 9.8 C 3.71 g/m*3 9.8 C 0 km/h
1992 27-02-2010 23:07:02 9.8 C 3.71 g/m*3 9.8 C 0 km/h
1993 27-02-2010 23:19:02 9.7 C 3.69 g/m*3 9.7 C 0 km/h
1994 27-02-2010 23:31:02 9.6 C 3.66 g/m*3 9.6 C 0 km/h
1995 27-02-2010 23:43:03 9.6 C 3.76 g/m*3 9.6 C 0 km/h
1996 27-02-2010 23:55:03 9.4 C 3.8 g/m*3 9.4 C 0 km/h
1997 28-02-2010 00:07:03 9.3 C 3.77 g/m*3 9.3 C 0 km/h
1998 28-02-2010 00:19:03 8.9 C 4.2 g/m*3 8.9 C 0 km/h
1999 28-02-2010 00:31:03 8.6 C 4.04 g/m*3 8.6 C 0 km/h
2000 28-02-2010 00:43:03 8.5 C 4.44 g/m*3 8.5 C 0 km/h
Sensor: Nr:Datum:Temp:Abs-Feuchte:Windchill:Wind:
Aussen-T/F 2001 28-02-2010 00:55:03 7.3 C 4.98 g/m*3 7.3 C 0 km/h
2002 28-02-2010 01:07:03 6.9 C 5.54 g/m*3 6.9 C 0 km/h
2003 28-02-2010 01:19:03 6.6 C 5.59 g/m*3 6.6 C 0 km/h
2004 28-02-2010 01:31:03 6.4 C 5.74 g/m*3 6.4 C 0 km/h
2005 28-02-2010 01:43:03 6.4 C 5.89 g/m*3 6.4 C 0 km/h
2006 28-02-2010 01:55:03 6.2 C 5.88 g/m*3 6.2 C 0 km/h
2007 28-02-2010 02:07:03 6.2 C 6.03 g/m*3 6.2 C 0 km/h
2008 28-02-2010 02:19:03 6.2 C 6.1 g/m*3 6.2 C 0 km/h
2009 28-02-2010 02:31:03 5.9 C 6.06 g/m*3 5.9 C 0 km/h
2010 28-02-2010 02:43:03 5.9 C 6.13 g/m*3 5.9 C 0 km/h
2011 28-02-2010 02:55:03 5.8 C 6.09 g/m*3 5.8 C 0 km/h
2012 28-02-2010 03:07:03 5.8 C 6.16 g/m*3 5.8 C 0 km/h
2013 28-02-2010 03:19:03 5.7 C 6.12 g/m*3 5.7 C 0 km/h
2014 28-02-2010 03:31:03 5.7 C 6.12 g/m*3 5.7 C 0 km/h
2015 28-02-2010 03:43:03 5.7 C 6.12 g/m*3 5.7 C 0 km/h
2016 28-02-2010 03:55:04 5.8 C 6.09 g/m*3 5.8 C 0 km/h
2017 28-02-2010 04:07:04 5.9 C 6.13 g/m*3 5.9 C 0 km/h
2018 28-02-2010 04:19:04 6 C 6.17 g/m*3 6 C 0 km/h
2019 28-02-2010 04:31:04 6.3 C 6.29 g/m*3 6.3 C 0 km/h
2020 28-02-2010 04:43:04 6.3 C 6.37 g/m*3 6.3 C 0 km/h
2021 28-02-2010 04:55:04 6.1 C 6.28 g/m*3 6.1 C 0 km/h
2022 28-02-2010 05:07:04 6.1 C 6.36 g/m*3 6.1 C 0 km/h
2023 28-02-2010 05:19:04 6.3 C 6.44 g/m*3 6.3 C 0 km/h
2024 28-02-2010 05:31:04 6.3 C 6.44 g/m*3 6.3 C 0 km/h
2025 28-02-2010 05:43:04 6.3 C 6.44 g/m*3 6.3 C 0 km/h
Sensor: Nr:Datum:Temp:Abs-Feuchte:Windchill:Wind:
Aussen-T/F 2026 28-02-2010 05:55:04 6.3 C 6.44 g/m*3 6.3 C 0 km/h
2027 28-02-2010 06:07:04 6.1 C 6.43 g/m*3 6.1 C 0 km/h
2028 28-02-2010 06:19:04 6.3 C 6.51 g/m*3 6.3 C 0 km/h
2029 28-02-2010 06:31:04 6.2 C 6.47 g/m*3 6.2 C 0 km/h
2030 28-02-2010 06:43:04 6.1 C 6.5 g/m*3 6.1 C 0 km/h
2031 28-02-2010 06:55:04 6.1 C 6.5 g/m*3 6.1 C 0 km/h
2032 28-02-2010 07:07:04 6.3 C 6.66 g/m*3 6.3 C 0 km/h
2033 28-02-2010 07:19:04 6.3 C 6.66 g/m*3 6.3 C 0 km/h
2034 28-02-2010 07:31:04 6.2 C 6.69 g/m*3 6.2 C 0 km/h
2035 28-02-2010 07:43:04 6.3 C 6.74 g/m*3 6.3 C 0 km/h
2036 28-02-2010 07:55:04 6.4 C 6.85 g/m*3 6.4 C 0 km/h
2037 28-02-2010 08:07:01 6.5 C 6.9 g/m*3 6.5 C 0 km/h
2038 28-02-2010 08:19:02 6.7 C 7.07 g/m*3 6.7 C 0 km/h
2039 28-02-2010 08:31:02 6.9 C 7.16 g/m*3 6.9 C 0 km/h
2040 28-02-2010 08:43:02 7 C 7.13 g/m*3 7 C 0 km/h
2041 28-02-2010 08:55:01 7.3 C 7.35 g/m*3 7.3 C 0 km/h
2042 28-02-2010 09:07:02 7.9 C 7.47 g/m*3 7.9 C 0 km/h
2043 28-02-2010 09:19:02 8.2 C 7.2 g/m*3 8.2 C 0 km/h
2044 28-02-2010 09:31:01 8.5 C 7.09 g/m*3 8.5 C 0 km/h
2045 28-02-2010 09:43:01 8.8 C 6.96 g/m*3 8.8 C 0 km/h
2046 28-02-2010 09:55:01 8.8 C 6.88 g/m*3 8.8 C 0 km/h
2047 28-02-2010 10:07:02 8.9 C 6.75 g/m*3 8.9 C 0 km/h
2048 28-02-2010 10:19:02 9.3 C 6.65 g/m*3 9.3 C 0 km/h
2049 28-02-2010 10:31:01 9.6 C 6.69 g/m*3 9.6 C 0 km/h
2050 28-02-2010 10:43:01 9.8 C 6.87 g/m*3 9.8 C 0 km/h
Sensor: Nr:Datum:Temp:Abs-Feuchte:Windchill:Wind:
Aussen-T/F 2051 28-02-2010 10:55:01 10.2 C 6.66 g/m*3 10.2 C 0 km/h
2052 28-02-2010 11:07:02 10.7 C 6.78 g/m*3 10.7 C 0 km/h
2053 28-02-2010 11:19:02 12.3 C 5.97 g/m*3 12.3 C 0 km/h
2054 28-02-2010 11:31:01 13.2 C 5.28 g/m*3 13.2 C 0 km/h
2055 28-02-2010 11:43:01 13 C 5.22 g/m*3 13 C 0 km/h
2056 28-02-2010 11:55:01 13 C 4.65 g/m*3 13 C 0 km/h
2057 28-02-2010 12:07:01 13 C 4.65 g/m*3 13 C 0 km/h
2058 28-02-2010 12:19:02 12.7 C 4.56 g/m*3 12.7 C 0 km/h
2059 28-02-2010 12:31:01 13 C 4.31 g/m*3 13 C 0 km/h
2060 28-02-2010 12:43:01 12.6 C 4.54 g/m*3 12.6 C 0 km/h
2061 28-02-2010 12:55:02 12.5 C 4.29 g/m*3 12.5 C 0 km/h
2062 28-02-2010 13:07:01 12.5 C 4.18 g/m*3 12.5 C 0 km/h
2063 28-02-2010 13:19:02 12.2 C 4.1 g/m*3 12.2 C 0 km/h
2064 28-02-2010 13:31:01 11.9 C 3.92 g/m*3 11.9 C 0 km/h
2065 28-02-2010 13:43:01 11.8 C 3.89 g/m*3 11.8 C 0 km/h
2066 28-02-2010 13:55:02 11.8 C 3.79 g/m*3 11.8 C 0 km/h
2067 28-02-2010 14:07:42 11.6 C 3.64 g/m*3 11.6 C 0 km/h
2068 28-02-2010 14:19:02 11.4 C 3.59 g/m*3 11.4 C 0 km/h
2069 28-02-2010 14:31:02 11.1 C 3.63 g/m*3 11.1 C 0 km/h
2070 28-02-2010 14:43:02 10.7 C 3.83 g/m*3 10.7 C 0 km/h
2071 28-02-2010 14:55:02 10.5 C 3.88 g/m*3 10.5 C 0 km/h
2072 28-02-2010 15:07:01 10.6 C 3.9 g/m*3 10.6 C 0 km/h
2073 28-02-2010 15:19:02 10.5 C 3.88 g/m*3 10.5 C 0 km/h
2074 28-02-2010 15:31:01 9.7 C 4.52 g/m*3 9.7 C 0 km/h
2075 28-02-2010 15:43:01 10 C 4.51 g/m*3 10 C 0 km/h
Sensor: Nr:Datum:Temp:Abs-Feuchte:Windchill:Wind:
Aussen-T/F 2076 28-02-2010 15:55:03 10 C 4.32 g/m*3 10 C 0 km/h
2077 28-02-2010 16:07:02 10 C 4.42 g/m*3 10 C 0 km/h
2078 28-02-2010 16:19:02 9.8 C 4.45 g/m*3 9.8 C 0 km/h
2079 28-02-2010 16:31:02 9.6 C 4.49 g/m*3 9.6 C 0 km/h
2080 28-02-2010 16:43:02 9.5 C 4.64 g/m*3 9.5 C 0 km/h
2081 28-02-2010 16:55:02 9.2 C 4.64 g/m*3 9.2 C 0 km/h
2082 28-02-2010 17:07:02 9.2 C 4.64 g/m*3 9.2 C 0 km/h
2083 28-02-2010 17:19:02 9.2 C 4.64 g/m*3 9.2 C 0 km/h
2084 28-02-2010 17:31:02 9.1 C 4.53 g/m*3 9.1 C 0 km/h
2085 28-02-2010 17:43:02 8.9 C 4.56 g/m*3 8.9 C 0 km/h
2086 28-02-2010 17:55:02 8.7 C 4.76 g/m*3 8.7 C 0 km/h
2087 28-02-2010 18:07:01 8.2 C 5.02 g/m*3 8.2 C 0 km/h
2088 28-02-2010 18:19:02 8.1 C 4.99 g/m*3 8.1 C 0 km/h
2089 28-02-2010 18:31:01 8.2 C 5.02 g/m*3 8.2 C 0 km/h
2090 28-02-2010 18:43:01 8.2 C 4.94 g/m*3 8.2 C 0 km/h
2091 28-02-2010 18:55:03 8 C 5.13 g/m*3 8 C 0 km/h
2092 28-02-2010 19:07:02 7.9 C 5.09 g/m*3 7.9 C 0 km/h
2093 28-02-2010 19:19:03 8 C 4.88 g/m*3 8 C 0 km/h
2094 28-02-2010 19:31:03 8.1 C 4.74 g/m*3 8.1 C 0 km/h
2095 28-02-2010 19:43:03 8 C 4.71 g/m*3 8 C 0 km/h
2096 28-02-2010 19:55:02 8.1 C 4.74 g/m*3 8.1 C 0 km/h
2097 28-02-2010 20:07:03 8 C 4.71 g/m*3 8 C 0 km/h
2098 28-02-2010 20:19:02 7.8 C 4.9 g/m*3 7.8 C 0 km/h
2099 28-02-2010 20:31:01 7.8 C 4.98 g/m*3 7.8 C 0 km/h
2100 28-02-2010 20:43:01 7.7 C 4.95 g/m*3 7.7 C 0 km/h
Sensor: Nr:Datum:Temp:Abs-Feuchte:Windchill:Wind:
Aussen-T/F 2101 28-02-2010 20:55:01 7.8 C 4.73 g/m*3 7.8 C 0 km/h
2102 28-02-2010 21:07:02 7.8 C 4.57 g/m*3 7.8 C 0 km/h
2103 28-02-2010 21:19:02 7.6 C 4.51 g/m*3 7.6 C 0 km/h
2104 28-02-2010 21:31:02 7.5 C 4.56 g/m*3 7.5 C 0 km/h
2105 28-02-2010 21:43:02 7.6 C 4.51 g/m*3 7.6 C 0 km/h
2106 28-02-2010 21:55:02 7.7 C 4.54 g/m*3 7.7 C 0 km/h
2107 28-02-2010 22:08:03 7.6 C 4.51 g/m*3 7.6 C 0 km/h
2108 28-02-2010 22:20:03 7.5 C 4.48 g/m*3 7.5 C 0 km/h
2109 28-02-2010 22:32:03 7.4 C 4.53 g/m*3 7.4 C 0 km/h
2110 28-02-2010 22:44:03 7.1 C 4.68 g/m*3 7.1 C 0 km/h
2111 28-02-2010 22:56:03 7 C 4.65 g/m*3 7 C 0 km/h
2112 28-02-2010 23:08:03 7 C 4.8 g/m*3 7 C 0 km/h
2113 28-02-2010 23:20:03 7 C 4.8 g/m*3 7 C 0 km/h
2114 28-02-2010 23:32:03 6.9 C 4.93 g/m*3 6.9 C 0 km/h
2115 28-02-2010 23:44:03 6.7 C 4.94 g/m*3 6.7 C 0 km/h
2116 28-02-2010 23:56:03 6.6 C 4.98 g/m*3 6.6 C 0 km/h
2117 01-03-2010 00:08:03 6.3 C 4.89 g/m*3 6.3 C 0 km/h
2118 01-03-2010 00:20:04 6.1 C 4.89 g/m*3 6.1 C 0 km/h
2119 01-03-2010 00:32:04 6.2 C 4.85 g/m*3 6.2 C 0 km/h
2120 01-03-2010 00:44:04 6.1 C 4.75 g/m*3 6.1 C 0 km/h
2121 01-03-2010 00:56:04 6.1 C 4.6 g/m*3 6.1 C 0 km/h
2122 01-03-2010 01:08:04 5.9 C 4.76 g/m*3 5.9 C 0 km/h
2123 01-03-2010 01:20:04 5.7 C 4.7 g/m*3 5.7 C 0 km/h
2124 01-03-2010 01:32:04 5.8 C 4.37 g/m*3 5.8 C 0 km/h
2125 01-03-2010 01:44:04 5.7 C 4.34 g/m*3 5.7 C 0 km/h
Sensor: Nr:Datum:Temp:Abs-Feuchte:Windchill:Wind:
Aussen-T/F 2126 01-03-2010 01:56:04 5.8 C 4.23 g/m*3 5.8 C 0 km/h
2127 01-03-2010 02:08:04 5.8 C 4.23 g/m*3 5.8 C 0 km/h
2128 01-03-2010 02:20:04 5.7 C 3.99 g/m*3 5.7 C 0 km/h
2129 01-03-2010 02:32:04 5.6 C 3.96 g/m*3 5.6 C 0 km/h
2130 01-03-2010 02:44:05 5.5 C 3.93 g/m*3 5.5 C 0 km/h
2131 01-03-2010 02:56:05 5.4 C 4.05 g/m*3 5.4 C 0 km/h
2132 01-03-2010 03:08:05 5.3 C 4.09 g/m*3 5.3 C 0 km/h
2133 01-03-2010 03:20:05 5 C 4.14 g/m*3 5 C 0 km/h
2134 01-03-2010 03:32:05 5 C 4.14 g/m*3 5 C 0 km/h
2135 01-03-2010 03:44:05 4.9 C 4.12 g/m*3 4.9 C 0 km/h
2136 01-03-2010 03:56:05 4.8 C 4.09 g/m*3 4.8 C 0 km/h
2137 01-03-2010 04:08:05 4.7 C 4.13 g/m*3 4.7 C 0 km/h
2138 01-03-2010 04:20:05 4.6 C 4.17 g/m*3 4.6 C 0 km/h
2139 01-03-2010 04:32:05 4.6 C 4.23 g/m*3 4.6 C 0 km/h
2140 01-03-2010 04:44:05 4.7 C 4.33 g/m*3 4.7 C 0 km/h
2141 01-03-2010 04:56:05 4.8 C 4.36 g/m*3 4.8 C 0 km/h
2142 01-03-2010 05:08:05 4.4 C 4.7 g/m*3 4.4 C 0 km/h
2143 01-03-2010 05:20:05 4.1 C 4.99 g/m*3 4.1 C 0 km/h
2144 01-03-2010 05:32:05 3.8 C 5.08 g/m*3 3.8 C 0 km/h
2145 01-03-2010 05:44:05 3.5 C 5.04 g/m*3 3.5 C 0 km/h
2146 01-03-2010 05:56:05 3.5 C 5.04 g/m*3 3.5 C 0 km/h
2147 01-03-2010 06:08:05 3.4 C 5.01 g/m*3 3.4 C 0 km/h
2148 01-03-2010 06:20:05 3.4 C 5.01 g/m*3 3.4 C 0 km/h
2149 01-03-2010 06:32:05 3.6 C 4.89 g/m*3 3.6 C 0 km/h
2150 01-03-2010 06:44:05 3.8 C 4.77 g/m*3 3.8 C 0 km/h
Sensor: Nr:Datum:Temp:Abs-Feuchte:Windchill:Wind:
Aussen-T/F 2151 01-03-2010 06:56:05 4 C 4.64 g/m*3 4 C 0 km/h
2152 01-03-2010 07:08:05 4.1 C 4.48 g/m*3 4.1 C 0 km/h
2153 01-03-2010 07:20:03 4.2 C 4.38 g/m*3 4.2 C 0 km/h
2154 01-03-2010 07:32:03 4.2 C 4.12 g/m*3 4.2 C 0 km/h
2155 01-03-2010 07:44:03 4.4 C 3.92 g/m*3 4.4 C 0 km/h
2156 01-03-2010 07:56:02 4.6 C 3.77 g/m*3 4.6 C 0 km/h
2157 01-03-2010 08:08:02 4.6 C 3.71 g/m*3 4.6 C 0 km/h
2158 01-03-2010 08:20:02 4.8 C 3.69 g/m*3 4.8 C 0 km/h
2159 01-03-2010 08:32:02 4.9 C 3.71 g/m*3 4.9 C 0 km/h
2160 01-03-2010 08:44:02 5 C 3.67 g/m*3 5 C 0 km/h
2161 01-03-2010 08:56:01 5.1 C 3.69 g/m*3 5.1 C 0 km/h
2162 01-03-2010 09:08:02 5.2 C 3.86 g/m*3 5.2 C 0 km/h
2163 01-03-2010 09:20:01 5.3 C 4.02 g/m*3 5.3 C 0 km/h
2164 01-03-2010 09:32:02 5.4 C 3.91 g/m*3 5.4 C 0 km/h
2165 01-03-2010 09:44:02 5.6 C 3.96 g/m*3 5.6 C 0 km/h
2166 01-03-2010 09:56:01 5.8 C 4.01 g/m*3 5.8 C 0 km/h
2167 01-03-2010 10:08:02 6 C 3.7 g/m*3 6 C 0 km/h
2168 01-03-2010 10:20:01 6.2 C 3.6 g/m*3 6.2 C 0 km/h
2169 01-03-2010 10:32:02 6.4 C 3.65 g/m*3 6.4 C 0 km/h
2170 01-03-2010 10:44:02 6.3 C 3.48 g/m*3 6.3 C 0 km/h
2171 01-03-2010 10:56:01 6.4 C 3.5 g/m*3 6.4 C 0 km/h
2172 01-03-2010 11:08:02 6.7 C 3.5 g/m*3 6.7 C 0 km/h
2173 01-03-2010 11:20:02 6.6 C 3.47 g/m*3 6.6 C 0 km/h
2174 01-03-2010 11:32:02 6.3 C 3.41 g/m*3 6.3 C 0 km/h
2175 01-03-2010 11:44:02 6.6 C 3.47 g/m*3 6.6 C 0 km/h
Sensor: Nr:Datum:Temp:Abs-Feuchte:Windchill:Wind:
Aussen-T/F 2176 01-03-2010 11:56:01 7 C 3.33 g/m*3 7 C 0 km/h
2177 01-03-2010 12:08:02 7 C 3.33 g/m*3 7 C 0 km/h
2178 01-03-2010 12:20:02 7.2 C 3.3 g/m*3 7.2 C 0 km/h
2179 01-03-2010 12:32:01 7.5 C 3.2 g/m*3 7.5 C 0 km/h
2180 01-03-2010 12:44:01 7.9 C 3.2 g/m*3 7.9 C 0 km/h
2181 01-03-2010 12:56:02 7.8 C 3.18 g/m*3 7.8 C 0 km/h
2182 01-03-2010 13:08:01 7.7 C 3.16 g/m*3 7.7 C 0 km/h
2183 01-03-2010 13:20:02 8 C 3.14 g/m*3 8 C 0 km/h
2184 01-03-2010 13:32:01 8 C 3.06 g/m*3 8 C 0 km/h
2185 01-03-2010 13:44:01 7.8 C 3.02 g/m*3 7.8 C 0 km/h
2186 01-03-2010 13:56:01 7.7 C 3 g/m*3 7.7 C 0 km/h
2187 01-03-2010 14:08:01 7.3 C 3.16 g/m*3 7.3 C 0 km/h
2188 01-03-2010 14:20:01 7.1 C 3.2 g/m*3 7.1 C 0 km/h
2189 01-03-2010 14:32:02 7.6 C 3.22 g/m*3 7.6 C 0 km/h
2190 01-03-2010 14:44:02 7.5 C 3.2 g/m*3 7.5 C 0 km/h
2191 01-03-2010 14:56:02 7.4 C 3.18 g/m*3 7.4 C 0 km/h
2192 01-03-2010 15:08:02 7.3 C 3.24 g/m*3 7.3 C 0 km/h
2193 01-03-2010 15:20:02 7.6 C 3.3 g/m*3 7.6 C 0 km/h
2194 01-03-2010 15:32:02 7.5 C 3.28 g/m*3 7.5 C 0 km/h
2195 01-03-2010 15:44:02 7.4 C 3.1 g/m*3 7.4 C 0 km/h
2196 01-03-2010 15:56:02 7.3 C 3 g/m*3 7.3 C 0 km/h
2197 01-03-2010 16:08:01 7.3 C 3.08 g/m*3 7.3 C 0 km/h
2198 01-03-2010 16:20:02 7.3 C 3.08 g/m*3 7.3 C 0 km/h
2199 01-03-2010 16:32:02 7.3 C 3.08 g/m*3 7.3 C 0 km/h
2200 01-03-2010 16:44:02 7.3 C 3.08 g/m*3 7.3 C 0 km/h
Sensor: Nr:Datum:Temp:Abs-Feuchte:Windchill:Wind:
Aussen-T/F 2201 01-03-2010 16:56:02 7.2 C 3.06 g/m*3 7.2 C 0 km/h
2202 01-03-2010 17:08:03 7.1 C 3.12 g/m*3 7.1 C 0 km/h
2203 01-03-2010 17:20:02 6.9 C 3.08 g/m*3 6.9 C 0 km/h
2204 01-03-2010 17:32:02 6.8 C 3.06 g/m*3 6.8 C 0 km/h
2205 01-03-2010 17:44:02 6.8 C 3.14 g/m*3 6.8 C 0 km/h
2206 01-03-2010 17:56:01 6.7 C 3.12 g/m*3 6.7 C 0 km/h
2207 01-03-2010 18:08:02 6.5 C 3.22 g/m*3 6.5 C 0 km/h
2208 01-03-2010 18:20:01 6.4 C 3.5 g/m*3 6.4 C 0 km/h
2209 01-03-2010 18:32:01 6 C 3.56 g/m*3 6 C 0 km/h
2210 01-03-2010 18:44:01 5.8 C 3.72 g/m*3 5.8 C 0 km/h
2211 01-03-2010 18:56:01 5.7 C 3.77 g/m*3 5.7 C 0 km/h
2212 01-03-2010 19:08:02 5.6 C 3.68 g/m*3 5.6 C 0 km/h
2213 01-03-2010 19:20:01 5.6 C 3.53 g/m*3 5.6 C 0 km/h
2214 01-03-2010 19:32:02 5.4 C 3.56 g/m*3 5.4 C 0 km/h
2215 01-03-2010 19:44:02 5.3 C 3.53 g/m*3 5.3 C 0 km/h
2216 01-03-2010 19:56:02 5.1 C 3.42 g/m*3 5.1 C 0 km/h
2217 01-03-2010 20:08:03 5 C 3.4 g/m*3 5 C 0 km/h
2218 01-03-2010 20:20:02 5.1 C 3.42 g/m*3 5.1 C 0 km/h
2219 01-03-2010 20:32:02 4.6 C 3.44 g/m*3 4.6 C 0 km/h
2220 01-03-2010 20:44:02 4.4 C 3.46 g/m*3 4.4 C 0 km/h
2221 01-03-2010 20:56:02 4.4 C 3.4 g/m*3 4.4 C 0 km/h
2222 01-03-2010 21:08:02 3.8 C 3.51 g/m*3 3.8 C 0 km/h
2223 01-03-2010 21:20:02 3.4 C 3.54 g/m*3 3.4 C 0 km/h
2224 01-03-2010 21:32:01 3.4 C 3.6 g/m*3 3.4 C 0 km/h
2225 01-03-2010 21:44:01 3.3 C 3.64 g/m*3 3.3 C 0 km/h
Sensor: Nr:Datum:Temp:Abs-Feuchte:Windchill:Wind:
Aussen-T/F 2226 01-03-2010 21:56:02 3.1 C 3.71 g/m*3 3.1 C 0 km/h
2227 01-03-2010 22:08:02 2.8 C 3.64 g/m*3 2.8 C 0 km/h
2228 01-03-2010 22:21:03 2.6 C 3.82 g/m*3 2.6 C 0 km/h
2229 01-03-2010 22:33:03 2.4 C 3.83 g/m*3 2.4 C 0 km/h
2230 01-03-2010 22:45:03 2.1 C 3.86 g/m*3 2.1 C 0 km/h
2231 01-03-2010 22:57:03 2 C 3.89 g/m*3 2 C 0 km/h
2232 01-03-2010 23:09:03 1.8 C 3.95 g/m*3 1.8 C 0 km/h
2233 01-03-2010 23:21:03 1.5 C 3.92 g/m*3 1.5 C 0 km/h
2234 01-03-2010 23:33:03 1.2 C 3.89 g/m*3 1.2 C 0 km/h
2235 01-03-2010 23:45:03 1.1 C 3.92 g/m*3 1.1 C 0 km/h
2236 01-03-2010 23:57:03 1.1 C 3.97 g/m*3 1.1 C 0 km/h
2237 02-03-2010 00:09:03 0.9 C 3.97 g/m*3 0.9 C 0 km/h
2238 02-03-2010 00:21:03 0.7 C 3.97 g/m*3 0.7 C 0 km/h
2239 02-03-2010 00:33:03 0.5 C 3.96 g/m*3 0.5 C 0 km/h
2240 02-03-2010 00:45:03 0.2 C 3.88 g/m*3 0.2 C 0 km/h
2241 02-03-2010 00:57:03 0.2 C 3.88 g/m*3 0.2 C 0 km/h
2242 02-03-2010 01:09:03 0.1 C 3.9 g/m*3 0.1 C 0 km/h
2243 02-03-2010 01:21:03 0.2 C 3.98 g/m*3 0.2 C 0 km/h
2244 02-03-2010 01:33:03 0.3 C 4.01 g/m*3 0.3 C 0 km/h
2245 02-03-2010 01:45:03 0 C 3.92 g/m*3 0 C 0 km/h
2246 02-03-2010 01:57:03 0 C 3.97 g/m*3 0 C 0 km/h
2247 02-03-2010 02:09:03 0 C 3.97 g/m*3 0 C 0 km/h
2248 02-03-2010 02:21:04 -0.2 C 3.92 g/m*3 -0.2 C 0 km/h
2249 02-03-2010 02:33:04 -0.2 C 3.97 g/m*3 -0.2 C 0 km/h
2250 02-03-2010 02:45:04 -0.4 C 3.91 g/m*3 -0.4 C 0 km/h
Sensor: Nr:Datum:Temp:Abs-Feuchte:Windchill:Wind:
Aussen-T/F 2251 02-03-2010 02:57:04 -0.6 C 3.86 g/m*3 -0.6 C 0 km/h
2252 02-03-2010 03:09:04 -0.7 C 3.83 g/m*3 -0.7 C 0 km/h
2253 02-03-2010 03:21:04 -0.6 C 3.86 g/m*3 -0.6 C 0 km/h
2254 02-03-2010 03:33:04 -0.7 C 3.83 g/m*3 -0.7 C 0 km/h
2255 02-03-2010 03:45:04 -0.9 C 3.82 g/m*3 -0.9 C 0 km/h
2256 02-03-2010 03:57:04 -1 C 3.8 g/m*3 -1 C 0 km/h
2257 02-03-2010 04:09:04 -1.3 C 3.72 g/m*3 -1.3 C 0 km/h
2258 02-03-2010 04:21:04 -1.3 C 3.72 g/m*3 -1.3 C 0 km/h
2259 02-03-2010 04:33:04 -1.4 C 3.69 g/m*3 -1.4 C 0 km/h
2260 02-03-2010 04:45:04 -1.2 C 3.79 g/m*3 -1.2 C 0 km/h
2261 02-03-2010 04:57:04 -1.2 C 3.79 g/m*3 -1.2 C 0 km/h
2262 02-03-2010 05:09:04 -1.1 C 3.86 g/m*3 -1.1 C 0 km/h
2263 02-03-2010 05:21:04 -1.1 C 3.86 g/m*3 -1.1 C 0 km/h
2264 02-03-2010 05:33:04 -1.1 C 3.86 g/m*3 -1.1 C 0 km/h
2265 02-03-2010 05:45:04 -1.1 C 3.86 g/m*3 -1.1 C 0 km/h
2266 02-03-2010 05:57:04 -1.4 C 3.74 g/m*3 -1.4 C 0 km/h
2267 02-03-2010 06:09:04 -1.6 C 3.68 g/m*3 -1.6 C 0 km/h
2268 02-03-2010 06:21:04 -1.7 C 3.66 g/m*3 -1.7 C 0 km/h
2269 02-03-2010 06:33:05 -1.8 C 3.63 g/m*3 -1.8 C 0 km/h
2270 02-03-2010 06:45:05 -1.9 C 3.65 g/m*3 -1.9 C 0 km/h
2271 02-03-2010 06:57:05 -1.9 C 3.65 g/m*3 -1.9 C 0 km/h
2272 02-03-2010 07:09:02 -2 C 3.63 g/m*3 -2 C 0 km/h
2273 02-03-2010 07:21:03 -1.8 C 3.72 g/m*3 -1.8 C 0 km/h
2274 02-03-2010 07:33:02 -1.8 C 3.72 g/m*3 -1.8 C 0 km/h
2275 02-03-2010 07:45:02 -1.6 C 3.77 g/m*3 -1.6 C 0 km/h
Sensor: Nr:Datum:Temp:Abs-Feuchte:Windchill:Wind:
Aussen-T/F 2276 02-03-2010 07:57:02 -1.2 C 3.92 g/m*3 -1.2 C 0 km/h
2277 02-03-2010 08:09:02 -0.9 C 4.01 g/m*3 -0.9 C 0 km/h
2278 02-03-2010 08:21:02 -0.7 C 4.06 g/m*3 -0.7 C 0 km/h
2279 02-03-2010 08:33:03 -0.7 C 4.06 g/m*3 -0.7 C 0 km/h
2280 02-03-2010 08:45:02 -0.6 C 4.09 g/m*3 -0.6 C 0 km/h
2281 02-03-2010 08:57:03 -0.6 C 4.09 g/m*3 -0.6 C 0 km/h
2282 02-03-2010 09:09:01 -0.5 C 4.07 g/m*3 -0.5 C 0 km/h
2283 02-03-2010 09:21:02 0 C 4.26 g/m*3 0 C 0 km/h
2284 02-03-2010 09:33:02 0.1 C 4.24 g/m*3 0.1 C 0 km/h
2285 02-03-2010 09:45:02 -0.1 C 4.14 g/m*3 -0.1 C 0 km/h
2286 02-03-2010 09:57:02 -0.1 C 4.14 g/m*3 -0.1 C 0 km/h
2287 02-03-2010 10:09:03 0.3 C 4.25 g/m*3 0.3 C 0 km/h
2288 02-03-2010 10:21:02 0.7 C 4.32 g/m*3 0.7 C 0 km/h
2289 02-03-2010 10:33:02 1.2 C 4.42 g/m*3 1.2 C 0 km/h
2290 02-03-2010 10:45:01 1.6 C 4.49 g/m*3 1.6 C 0 km/h
2291 02-03-2010 10:57:01 2.1 C 4.48 g/m*3 2.1 C 0 km/h
2292 02-03-2010 11:09:02 2.6 C 4.57 g/m*3 2.6 C 0 km/h
2293 02-03-2010 11:21:01 3.1 C 4.61 g/m*3 3.1 C 0 km/h
2294 02-03-2010 11:33:02 4 C 4.7 g/m*3 4 C 0 km/h
2295 02-03-2010 11:45:02 4 C 4.51 g/m*3 4 C 0 km/h
2296 02-03-2010 11:57:02 4.2 C 4.25 g/m*3 4.2 C 0 km/h
2297 02-03-2010 12:09:02 5.1 C 3.63 g/m*3 5.1 C 0 km/h
2298 02-03-2010 12:21:01 6.1 C 3.29 g/m*3 6.1 C 0 km/h
2299 02-03-2010 12:33:02 6.3 C 3.26 g/m*3 6.3 C 0 km/h
2300 02-03-2010 12:45:02 7 C 3.02 g/m*3 7 C 0 km/h
Sensor: Nr:Datum:Temp:Abs-Feuchte:Windchill:Wind:
Aussen-T/F 2301 02-03-2010 12:57:02 7.4 C 2.86 g/m*3 7.4 C 0 km/h
2302 02-03-2010 13:09:02 8.1 C 2.91 g/m*3 8.1 C 0 km/h
2303 02-03-2010 13:21:01 9.1 C 2.75 g/m*3 9.1 C 0 km/h
2304 02-03-2010 13:33:02 8.5 C 2.65 g/m*3 8.5 C 0 km/h
2305 02-03-2010 13:45:01 9.5 C 2.73 g/m*3 9.5 C 0 km/h
2306 02-03-2010 13:57:01 10.3 C 2.49 g/m*3 10.3 C 0 km/h
2307 02-03-2010 14:09:02 10.2 C 2.38 g/m*3 10.2 C 0 km/h
2308 02-03-2010 14:21:02 10.1 C 2.65 g/m*3 10.1 C 0 km/h
2309 02-03-2010 14:33:02 9.5 C 2.28 g/m*3 9.5 C 0 km/h
2310 02-03-2010 14:45:02 9.5 C 2.46 g/m*3 9.5 C 0 km/h
2311 02-03-2010 14:57:02 9 C 2.29 g/m*3 9 C 0 km/h
2312 02-03-2010 15:09:02 8.7 C 2.42 g/m*3 8.7 C 0 km/h
2313 02-03-2010 15:21:02 9.5 C 2.55 g/m*3 9.5 C 0 km/h
2314 02-03-2010 15:33:01 10.3 C 2.49 g/m*3 10.3 C 0 km/h
2315 02-03-2010 15:45:02 11 C 2.4 g/m*3 11 C 0 km/h
2316 02-03-2010 15:57:02 10.7 C 1.96 g/m*3 10.7 C 0 km/h
2317 02-03-2010 16:09:01 9.7 C 1.84 g/m*3 9.7 C 0 km/h
2318 02-03-2010 16:21:02 9.5 C 1.82 g/m*3 9.5 C 0 km/h
2319 02-03-2010 16:33:01 8.7 C 2.51 g/m*3 8.7 C 0 km/h
2320 02-03-2010 16:45:02 8.4 C 2.63 g/m*3 8.4 C 0 km/h
2321 02-03-2010 16:57:03 8.7 C 2.77 g/m*3 8.7 C 0 km/h
2322 02-03-2010 17:09:02 8.7 C 2.77 g/m*3 8.7 C 0 km/h
2323 02-03-2010 17:21:02 9 C 2.73 g/m*3 9 C 0 km/h
2324 02-03-2010 17:33:02 8.4 C 2.71 g/m*3 8.4 C 0 km/h
2325 02-03-2010 17:45:02 8.2 C 2.93 g/m*3 8.2 C 0 km/h
Sensor: Nr:Datum:Temp:Abs-Feuchte:Windchill:Wind:
Aussen-T/F 2326 02-03-2010 17:57:03 7.9 C 2.96 g/m*3 7.9 C 0 km/h
2327 02-03-2010 18:09:01 7.5 C 3.04 g/m*3 7.5 C 0 km/h
2328 02-03-2010 18:21:02 7 C 3.1 g/m*3 7 C 0 km/h
2329 02-03-2010 18:33:02 6.5 C 3.3 g/m*3 6.5 C 0 km/h
2330 02-03-2010 18:45:02 6.2 C 3.38 g/m*3 6.2 C 0 km/h
2331 02-03-2010 18:57:02 5.9 C 3.53 g/m*3 5.9 C 0 km/h
2332 02-03-2010 19:09:01 5.9 C 3.53 g/m*3 5.9 C 0 km/h
2333 02-03-2010 19:21:02 5.9 C 3.39 g/m*3 5.9 C 0 km/h
2334 02-03-2010 19:33:02 5.8 C 3.3 g/m*3 5.8 C 0 km/h
2335 02-03-2010 19:45:01 5.8 C 3.3 g/m*3 5.8 C 0 km/h
2336 02-03-2010 19:57:01 5.8 C 3.3 g/m*3 5.8 C 0 km/h
2337 02-03-2010 20:09:02 6 C 3.19 g/m*3 6 C 0 km/h
2338 02-03-2010 20:21:01 5.8 C 3.22 g/m*3 5.8 C 0 km/h
2339 02-03-2010 20:33:01 5.5 C 3.3 g/m*3 5.5 C 0 km/h
2340 02-03-2010 20:45:01 5 C 3.47 g/m*3 5 C 0 km/h
2341 02-03-2010 20:57:02 4.4 C 3.66 g/m*3 4.4 C 0 km/h
2342 02-03-2010 21:09:01 4.3 C 3.83 g/m*3 4.3 C 0 km/h
2343 02-03-2010 21:21:02 3.8 C 4.02 g/m*3 3.8 C 0 km/h
2344 02-03-2010 21:33:02 3.2 C 4.34 g/m*3 3.2 C 0 km/h
2345 02-03-2010 21:45:02 2.9 C 4.43 g/m*3 2.9 C 0 km/h
2346 02-03-2010 21:57:02 2.7 C 4.43 g/m*3 2.7 C 0 km/h
2347 02-03-2010 22:10:02 2.5 C 4.37 g/m*3 2.5 C 0 km/h
2348 02-03-2010 22:22:02 2.5 C 4.43 g/m*3 2.5 C 0 km/h
2349 02-03-2010 22:34:02 2.4 C 4.34 g/m*3 2.4 C 0 km/h
2350 02-03-2010 22:46:02 2.2 C 4.34 g/m*3 2.2 C 0 km/h
Sensor: Nr:Datum:Temp:Abs-Feuchte:Windchill:Wind:
Aussen-T/F 2351 02-03-2010 22:58:02 2 C 4.28 g/m*3 2 C 0 km/h
2352 02-03-2010 23:10:02 1.8 C 4.28 g/m*3 1.8 C 0 km/h
2353 02-03-2010 23:22:02 1.7 C 4.3 g/m*3 1.7 C 0 km/h
2354 02-03-2010 23:34:02 1.5 C 4.24 g/m*3 1.5 C 0 km/h
2355 02-03-2010 23:46:02 1.3 C 4.19 g/m*3 1.3 C 0 km/h
2356 02-03-2010 23:58:02 1.3 C 4.13 g/m*3 1.3 C 0 km/h
2357 03-03-2010 00:10:03 1.1 C 4.08 g/m*3 1.1 C 0 km/h
2358 03-03-2010 00:22:03 1.2 C 4.05 g/m*3 1.2 C 0 km/h
2359 03-03-2010 00:34:03 1.1 C 3.92 g/m*3 1.1 C 0 km/h
2360 03-03-2010 00:46:03 0.9 C 3.87 g/m*3 0.9 C 0 km/h
2361 03-03-2010 00:58:03 0.9 C 3.81 g/m*3 0.9 C 0 km/h
2362 03-03-2010 01:10:03 0.8 C 3.79 g/m*3 0.8 C 0 km/h
2363 03-03-2010 01:22:03 0.5 C 3.71 g/m*3 0.5 C 0 km/h
2364 03-03-2010 01:34:03 0.3 C 3.66 g/m*3 0.3 C 0 km/h
2365 03-03-2010 01:46:03 0.1 C 3.66 g/m*3 0.1 C 0 km/h
2366 03-03-2010 01:58:03 -0.1 C 3.66 g/m*3 -0.1 C 0 km/h
2367 03-03-2010 02:10:03 0 C 3.78 g/m*3 0 C 0 km/h
2368 03-03-2010 02:22:03 -0.1 C 3.8 g/m*3 -0.1 C 0 km/h
2369 03-03-2010 02:34:03 -0.4 C 3.72 g/m*3 -0.4 C 0 km/h
2370 03-03-2010 02:46:03 -0.5 C 3.74 g/m*3 -0.5 C 0 km/h
2371 03-03-2010 02:58:03 -0.6 C 3.76 g/m*3 -0.6 C 0 km/h
2372 03-03-2010 03:10:03 -0.7 C 3.74 g/m*3 -0.7 C 0 km/h
2373 03-03-2010 03:22:03 -0.9 C 3.69 g/m*3 -0.9 C 0 km/h
2374 03-03-2010 03:34:03 -0.9 C 3.73 g/m*3 -0.9 C 0 km/h
2375 03-03-2010 03:46:03 -1 C 3.71 g/m*3 -1 C 0 km/h
Sensor: Nr:Datum:Temp:Abs-Feuchte:Windchill:Wind:
Aussen-T/F 2376 03-03-2010 03:58:04 -1.1 C 3.68 g/m*3 -1.1 C 0 km/h
2377 03-03-2010 04:10:04 -1.2 C 3.7 g/m*3 -1.2 C 0 km/h
2378 03-03-2010 04:22:04 -1.3 C 3.67 g/m*3 -1.3 C 0 km/h
2379 03-03-2010 04:34:04 -1.5 C 3.62 g/m*3 -1.5 C 0 km/h
2380 03-03-2010 04:46:04 -1.4 C 3.69 g/m*3 -1.4 C 0 km/h
2381 03-03-2010 04:58:04 -1.6 C 3.64 g/m*3 -1.6 C 0 km/h
2382 03-03-2010 05:10:04 -1.7 C 3.62 g/m*3 -1.7 C 0 km/h
2383 03-03-2010 05:22:04 -2 C 3.54 g/m*3 -2 C 0 km/h
2384 03-03-2010 05:34:04 -2 C 3.54 g/m*3 -2 C 0 km/h
2385 03-03-2010 05:46:04 -2.1 C 3.52 g/m*3 -2.1 C 0 km/h
2386 03-03-2010 05:58:04 -2.1 C 3.56 g/m*3 -2.1 C 0 km/h
2387 03-03-2010 06:10:04 -2.2 C 3.53 g/m*3 -2.2 C 0 km/h
2388 03-03-2010 06:22:04 -1.8 C 3.68 g/m*3 -1.8 C 0 km/h
2389 03-03-2010 06:34:04 -1.4 C 3.82 g/m*3 -1.4 C 0 km/h
2390 03-03-2010 06:46:04 -1.1 C 3.91 g/m*3 -1.1 C 0 km/h
2391 03-03-2010 06:58:04 -1.1 C 3.91 g/m*3 -1.1 C 0 km/h
2392 03-03-2010 07:10:02 -1.1 C 3.86 g/m*3 -1.1 C 0 km/h
2393 03-03-2010 07:22:02 -1.1 C 3.86 g/m*3 -1.1 C 0 km/h
2394 03-03-2010 07:34:02 -1.1 C 3.82 g/m*3 -1.1 C 0 km/h
2395 03-03-2010 07:46:02 -1.3 C 3.72 g/m*3 -1.3 C 0 km/h
2396 03-03-2010 07:58:02 -1.5 C 3.67 g/m*3 -1.5 C 0 km/h
2397 03-03-2010 08:10:02 -1.4 C 3.69 g/m*3 -1.4 C 0 km/h
2398 03-03-2010 08:22:02 -1.3 C 3.72 g/m*3 -1.3 C 0 km/h
2399 03-03-2010 08:34:02 -1.2 C 3.79 g/m*3 -1.2 C 0 km/h
2400 03-03-2010 08:46:02 -0.7 C 3.92 g/m*3 -0.7 C 0 km/h
Sensor: Nr:Datum:Temp:Abs-Feuchte:Windchill:Wind:
Aussen-T/F 2401 03-03-2010 08:58:02 0.1 C 4.2 g/m*3 0.1 C 0 km/h
2402 03-03-2010 09:10:01 0.6 C 4.29 g/m*3 0.6 C 0 km/h
2403 03-03-2010 09:22:02 0.8 C 4.15 g/m*3 0.8 C 0 km/h
2404 03-03-2010 09:34:02 1 C 3.84 g/m*3 1 C 0 km/h
2405 03-03-2010 09:46:02 1.2 C 3.68 g/m*3 1.2 C 0 km/h
2406 03-03-2010 09:58:02 1.5 C 3.54 g/m*3 1.5 C 0 km/h
2407 03-03-2010 10:10:03 1.4 C 3.41 g/m*3 1.4 C 0 km/h
2408 03-03-2010 10:22:02 1.1 C 3.4 g/m*3 1.1 C 0 km/h
2409 03-03-2010 10:34:02 1.2 C 3.47 g/m*3 1.2 C 0 km/h
2410 03-03-2010 10:46:01 1.3 C 3.5 g/m*3 1.3 C 0 km/h
2411 03-03-2010 10:58:01 1.7 C 3.54 g/m*3 1.7 C 0 km/h
2412 03-03-2010 11:10:02 2.2 C 3.49 g/m*3 2.2 C 0 km/h
2413 03-03-2010 11:22:01 2.5 C 3.45 g/m*3 2.5 C 0 km/h
2414 03-03-2010 11:34:01 2.8 C 3.46 g/m*3 2.8 C 0 km/h
2415 03-03-2010 11:46:01 3.1 C 3.35 g/m*3 3.1 C 0 km/h
2416 03-03-2010 11:58:01 3.7 C 3.24 g/m*3 3.7 C 0 km/h
2417 03-03-2010 12:10:02 4.3 C 3.24 g/m*3 4.3 C 0 km/h
2418 03-03-2010 12:22:01 4.8 C 3.22 g/m*3 4.8 C 0 km/h
2419 03-03-2010 12:34:02 5.1 C 3.15 g/m*3 5.1 C 0 km/h
2420 03-03-2010 12:46:01 5.8 C 3.15 g/m*3 5.8 C 0 km/h
2421 03-03-2010 12:58:01 6.5 C 3 g/m*3 6.5 C 0 km/h
2422 03-03-2010 13:10:02 7 C 2.94 g/m*3 7 C 0 km/h
2423 03-03-2010 13:22:01 7.8 C 2.86 g/m*3 7.8 C 0 km/h
2424 03-03-2010 13:34:02 8.5 C 2.48 g/m*3 8.5 C 0 km/h
2425 03-03-2010 13:46:01 8.9 C 2.19 g/m*3 8.9 C 0 km/h
Sensor: Nr:Datum:Temp:Abs-Feuchte:Windchill:Wind:
Aussen-T/F 2426 03-03-2010 13:58:01 9.1 C 1.77 g/m*3 9.1 C 0 km/h
2427 03-03-2010 14:10:02 9.4 C 1.81 g/m*3 9.4 C 0 km/h
2428 03-03-2010 14:22:02 9.8 C 1.86 g/m*3 9.8 C 0 km/h
2429 03-03-2010 14:34:01 10.3 C 1.92 g/m*3 10.3 C 0 km/h
2430 03-03-2010 14:46:02 10.5 C 1.94 g/m*3 10.5 C 0 km/h
2431 03-03-2010 14:58:02 10.2 C 1.9 g/m*3 10.2 C 0 km/h
2432 03-03-2010 15:10:01 10.7 C 1.96 g/m*3 10.7 C 0 km/h
2433 03-03-2010 15:22:02 11 C 2 g/m*3 11 C 0 km/h
2434 03-03-2010 15:34:01 11 C 2 g/m*3 11 C 0 km/h
2435 03-03-2010 15:46:03 10.5 C 1.94 g/m*3 10.5 C 0 km/h
2436 03-03-2010 15:58:03 11 C 2 g/m*3 11 C 0 km/h
2437 03-03-2010 16:10:02 11.2 C 2.03 g/m*3 11.2 C 0 km/h
2438 03-03-2010 16:22:02 11.5 C 2.07 g/m*3 11.5 C 0 km/h
2439 03-03-2010 16:34:02 11.1 C 2.01 g/m*3 11.1 C 0 km/h
2440 03-03-2010 16:46:02 10.3 C 1.92 g/m*3 10.3 C 0 km/h
2441 03-03-2010 16:58:02 10.3 C 1.92 g/m*3 10.3 C 0 km/h
2442 03-03-2010 17:10:01 9.3 C 1.8 g/m*3 9.3 C 0 km/h
2443 03-03-2010 17:22:02 8.5 C 1.71 g/m*3 8.5 C 0 km/h
2444 03-03-2010 17:34:02 7.8 C 1.63 g/m*3 7.8 C 0 km/h
2445 03-03-2010 17:46:02 7.2 C 1.96 g/m*3 7.2 C 0 km/h
2446 03-03-2010 17:58:03 6.6 C 1.89 g/m*3 6.6 C 0 km/h
2447 03-03-2010 18:10:02 6.2 C 2.21 g/m*3 6.2 C 0 km/h
2448 03-03-2010 18:22:02 5.7 C 2.13 g/m*3 5.7 C 0 km/h
2449 03-03-2010 18:34:03 5.4 C 2.02 g/m*3 5.4 C 0 km/h
2450 03-03-2010 18:46:02 5.1 C 2.05 g/m*3 5.1 C 0 km/h
Sensor: Nr:Datum:Temp:Abs-Feuchte:Windchill:Wind:
Aussen-T/F 2451 03-03-2010 18:58:02 4.8 C 2.15 g/m*3 4.8 C 0 km/h
2452 03-03-2010 19:10:02 4.6 C 2.12 g/m*3 4.6 C 0 km/h
2453 03-03-2010 19:22:02 4.4 C 2.15 g/m*3 4.4 C 0 km/h
2454 03-03-2010 19:34:02 4.2 C 2.19 g/m*3 4.2 C 0 km/h
2455 03-03-2010 19:46:02 4.1 C 2.24 g/m*3 4.1 C 0 km/h
2456 03-03-2010 19:58:02 3.9 C 2.46 g/m*3 3.9 C 0 km/h
2457 03-03-2010 20:10:02 3.7 C 2.49 g/m*3 3.7 C 0 km/h
2458 03-03-2010 20:22:02 3.7 C 2.49 g/m*3 3.7 C 0 km/h
2459 03-03-2010 20:34:02 3.6 C 2.54 g/m*3 3.6 C 0 km/h
2460 03-03-2010 20:46:01 3.4 C 2.57 g/m*3 3.4 C 0 km/h
2461 03-03-2010 20:58:01 3.3 C 2.55 g/m*3 3.3 C 0 km/h
2462 03-03-2010 21:10:02 3.2 C 2.59 g/m*3 3.2 C 0 km/h
2463 03-03-2010 21:22:01 3 C 2.62 g/m*3 3 C 0 km/h
2464 03-03-2010 21:34:02 3 C 2.68 g/m*3 3 C 0 km/h
2465 03-03-2010 21:46:02 2.9 C 2.72 g/m*3 2.9 C 0 km/h
2466 03-03-2010 21:58:02 2.8 C 2.76 g/m*3 2.8 C 0 km/h
2467 03-03-2010 22:11:02 2.7 C 2.8 g/m*3 2.7 C 0 km/h
2468 03-03-2010 22:23:02 2.6 C 2.84 g/m*3 2.6 C 0 km/h
2469 03-03-2010 22:35:02 2.5 C 2.82 g/m*3 2.5 C 0 km/h
2470 03-03-2010 22:47:03 2.4 C 2.8 g/m*3 2.4 C 0 km/h
2471 03-03-2010 22:59:03 2.2 C 2.82 g/m*3 2.2 C 0 km/h
2472 03-03-2010 23:11:03 1.9 C 2.87 g/m*3 1.9 C 0 km/h
2473 03-03-2010 23:23:03 1.7 C 2.89 g/m*3 1.7 C 0 km/h
2474 03-03-2010 23:35:03 1.6 C 2.92 g/m*3 1.6 C 0 km/h
2475 03-03-2010 23:47:03 1.5 C 2.95 g/m*3 1.5 C 0 km/h
Sensor: Nr:Datum:Temp:Abs-Feuchte:Windchill:Wind:
Aussen-T/F 2476 03-03-2010 23:59:03 1.4 C 2.93 g/m*3 1.4 C 0 km/h
2477 04-03-2010 00:11:03 1.3 C 2.97 g/m*3 1.3 C 0 km/h
2478 04-03-2010 00:23:03 1.2 C 2.89 g/m*3 1.2 C 0 km/h
2479 04-03-2010 00:35:03 1.2 C 2.89 g/m*3 1.2 C 0 km/h
2480 04-03-2010 00:47:03 1.2 C 2.89 g/m*3 1.2 C 0 km/h
2481 04-03-2010 00:59:03 1.3 C 2.91 g/m*3 1.3 C 0 km/h
2482 04-03-2010 01:11:03 1.3 C 2.91 g/m*3 1.3 C 0 km/h
2483 04-03-2010 01:23:03 1.2 C 2.89 g/m*3 1.2 C 0 km/h
2484 04-03-2010 01:35:03 1.1 C 2.87 g/m*3 1.1 C 0 km/h
2485 04-03-2010 01:47:03 1.2 C 2.89 g/m*3 1.2 C 0 km/h
2486 04-03-2010 01:59:03 1 C 2.85 g/m*3 1 C 0 km/h
2487 04-03-2010 02:11:03 0.8 C 2.92 g/m*3 0.8 C 0 km/h
2488 04-03-2010 02:23:03 0.5 C 2.96 g/m*3 0.5 C 0 km/h
2489 04-03-2010 02:35:03 0.2 C 2.95 g/m*3 0.2 C 0 km/h
2490 04-03-2010 02:47:03 0.1 C 2.98 g/m*3 0.1 C 0 km/h
2491 04-03-2010 02:59:04 0 C 2.96 g/m*3 0 C 0 km/h
2492 04-03-2010 03:11:04 -0.2 C 2.96 g/m*3 -0.2 C 0 km/h
2493 04-03-2010 03:23:04 -0.4 C 2.87 g/m*3 -0.4 C 0 km/h
2494 04-03-2010 03:35:04 -0.6 C 2.88 g/m*3 -0.6 C 0 km/h
2495 04-03-2010 03:47:04 -0.7 C 2.86 g/m*3 -0.7 C 0 km/h
2496 04-03-2010 03:59:04 -0.8 C 2.89 g/m*3 -0.8 C 0 km/h
2497 04-03-2010 04:11:04 -0.9 C 2.87 g/m*3 -0.9 C 0 km/h
2498 04-03-2010 04:23:04 -0.7 C 2.95 g/m*3 -0.7 C 0 km/h
2499 04-03-2010 04:35:04 -0.7 C 2.91 g/m*3 -0.7 C 0 km/h
2500 04-03-2010 04:47:04 -0.7 C 2.95 g/m*3 -0.7 C 0 km/h
Sensor: Nr:Datum:Temp:Abs-Feuchte:Windchill:Wind:
Aussen-T/F 2501 04-03-2010 04:59:04 -0.8 C 2.89 g/m*3 -0.8 C 0 km/h
2502 04-03-2010 05:11:04 -0.7 C 2.95 g/m*3 -0.7 C 0 km/h
2503 04-03-2010 05:23:04 -0.8 C 2.93 g/m*3 -0.8 C 0 km/h
2504 04-03-2010 05:35:04 -0.9 C 2.96 g/m*3 -0.9 C 0 km/h
2505 04-03-2010 05:47:04 -0.7 C 3 g/m*3 -0.7 C 0 km/h
2506 04-03-2010 05:59:04 -1 C 2.94 g/m*3 -1 C 0 km/h
2507 04-03-2010 06:11:04 -1 C 2.98 g/m*3 -1 C 0 km/h
2508 04-03-2010 06:23:04 -1.1 C 2.96 g/m*3 -1.1 C 0 km/h
2509 04-03-2010 06:35:04 -1.3 C 2.92 g/m*3 -1.3 C 0 km/h
2510 04-03-2010 06:47:04 -1.4 C 2.95 g/m*3 -1.4 C 0 km/h
2511 04-03-2010 06:59:04 -1.4 C 2.99 g/m*3 -1.4 C 0 km/h
2512 04-03-2010 07:11:01 -1.4 C 3.03 g/m*3 -1.4 C 0 km/h
2513 04-03-2010 07:23:02 -1.3 C 3.05 g/m*3 -1.3 C 0 km/h
2514 04-03-2010 07:35:02 -1.3 C 3.01 g/m*3 -1.3 C 0 km/h
2515 04-03-2010 07:47:01 -1.2 C 3.08 g/m*3 -1.2 C 0 km/h
2516 04-03-2010 07:59:01 -1.1 C 3.1 g/m*3 -1.1 C 0 km/h
2517 04-03-2010 08:11:02 -1.1 C 3.1 g/m*3 -1.1 C 0 km/h
2518 04-03-2010 08:23:01 -1 C 3.12 g/m*3 -1 C 0 km/h
2519 04-03-2010 08:35:01 -1.1 C 3.1 g/m*3 -1.1 C 0 km/h
2520 04-03-2010 08:47:02 -1.1 C 3.1 g/m*3 -1.1 C 0 km/h
2521 04-03-2010 08:59:02 -1 C 3.16 g/m*3 -1 C 0 km/h
2522 04-03-2010 09:11:02 -0.5 C 3.23 g/m*3 -0.5 C 0 km/h
2523 04-03-2010 09:23:02 0 C 3.29 g/m*3 0 C 0 km/h
2524 04-03-2010 09:35:01 0.2 C 3.24 g/m*3 0.2 C 0 km/h
2525 04-03-2010 09:47:02 0.5 C 3.26 g/m*3 0.5 C 0 km/h
Sensor: Nr:Datum:Temp:Abs-Feuchte:Windchill:Wind:
Aussen-T/F 2526 04-03-2010 09:59:02 1.3 C 3.34 g/m*3 1.3 C 0 km/h
2527 04-03-2010 10:11:01 2 C 3.28 g/m*3 2 C 0 km/h
2528 04-03-2010 10:23:02 3 C 3.21 g/m*3 3 C 0 km/h
2529 04-03-2010 10:35:02 3.6 C 2.85 g/m*3 3.6 C 0 km/h
2530 04-03-2010 10:47:02 3.4 C 2.63 g/m*3 3.4 C 0 km/h
2531 04-03-2010 10:59:03 3.9 C 2.59 g/m*3 3.9 C 0 km/h
2532 04-03-2010 11:11:01 3.8 C 2.45 g/m*3 3.8 C 0 km/h
2533 04-03-2010 11:23:02 4.1 C 2.24 g/m*3 4.1 C 0 km/h
2534 04-03-2010 11:35:02 4.4 C 2.35 g/m*3 4.4 C 0 km/h
2535 04-03-2010 11:47:01 4.6 C 2.32 g/m*3 4.6 C 0 km/h
2536 04-03-2010 11:59:01 4.3 C 2.08 g/m*3 4.3 C 0 km/h
2537 04-03-2010 12:11:02 4.2 C 2.19 g/m*3 4.2 C 0 km/h
2538 04-03-2010 12:23:01 4.5 C 2.3 g/m*3 4.5 C 0 km/h
2539 04-03-2010 12:35:01 4.8 C 2.28 g/m*3 4.8 C 0 km/h
2540 04-03-2010 12:47:02 4.8 C 2.08 g/m*3 4.8 C 0 km/h
2541 04-03-2010 12:59:02 5.8 C 2.08 g/m*3 5.8 C 0 km/h
2542 04-03-2010 13:11:02 6.3 C 1.92 g/m*3 6.3 C 0 km/h
2543 04-03-2010 13:23:01 6.8 C 1.53 g/m*3 6.8 C 0 km/h
2544 04-03-2010 13:35:02 7.1 C 1.56 g/m*3 7.1 C 0 km/h
2545 04-03-2010 13:47:02 6.9 C 1.54 g/m*3 6.9 C 0 km/h
2546 04-03-2010 13:59:02 7.1 C 1.56 g/m*3 7.1 C 0 km/h
2547 04-03-2010 14:11:02 7.9 C 1.64 g/m*3 7.9 C 0 km/h
2548 04-03-2010 14:23:01 8.2 C 1.67 g/m*3 8.2 C 0 km/h
2549 04-03-2010 14:35:02 9 C 1.76 g/m*3 9 C 0 km/h
2550 04-03-2010 14:47:02 8.9 C 1.75 g/m*3 8.9 C 0 km/h
Sensor: Nr:Datum:Temp:Abs-Feuchte:Windchill:Wind:
Aussen-T/F 2551 04-03-2010 14:59:02 9.2 C 1.79 g/m*3 9.2 C 0 km/h
2552 04-03-2010 15:11:02 9.2 C 1.79 g/m*3 9.2 C 0 km/h
2553 04-03-2010 15:23:01 9.3 C 1.8 g/m*3 9.3 C 0 km/h
2554 04-03-2010 15:35:02 8.2 C 1.67 g/m*3 8.2 C 0 km/h
2555 04-03-2010 15:47:02 8.9 C 1.75 g/m*3 8.9 C 0 km/h
2556 04-03-2010 15:59:02 9.2 C 1.79 g/m*3 9.2 C 0 km/h
2557 04-03-2010 16:11:02 9.4 C 1.81 g/m*3 9.4 C 0 km/h
2558 04-03-2010 16:23:01 9.3 C 1.8 g/m*3 9.3 C 0 km/h
2559 04-03-2010 16:35:02 9.1 C 1.77 g/m*3 9.1 C 0 km/h
2560 04-03-2010 16:47:01 9 C 1.76 g/m*3 9 C 0 km/h
2561 04-03-2010 16:59:01 8.5 C 1.71 g/m*3 8.5 C 0 km/h
2562 04-03-2010 17:11:02 8.3 C 1.69 g/m*3 8.3 C 0 km/h
2563 04-03-2010 17:23:02 7.7 C 1.62 g/m*3 7.7 C 0 km/h
2564 04-03-2010 17:35:01 7.3 C 1.58 g/m*3 7.3 C 0 km/h
2565 04-03-2010 17:47:02 6.9 C 1.54 g/m*3 6.9 C 0 km/h
2566 04-03-2010 17:59:02 5.7 C 1.42 g/m*3 5.7 C 0 km/h
2567 04-03-2010 18:11:01 4.9 C 1.42 g/m*3 4.9 C 0 km/h
2568 04-03-2010 18:23:02 4.3 C 1.62 g/m*3 4.3 C 0 km/h
2569 04-03-2010 18:35:01 4 C 1.78 g/m*3 4 C 0 km/h
2570 04-03-2010 18:47:02 3.5 C 1.91 g/m*3 3.5 C 0 km/h
2571 04-03-2010 18:59:02 3.2 C 1.93 g/m*3 3.2 C 0 km/h
2572 04-03-2010 19:11:02 3 C 2.08 g/m*3 3 C 0 km/h
2573 04-03-2010 19:23:02 2.6 C 2.14 g/m*3 2.6 C 0 km/h
2574 04-03-2010 19:35:02 2.2 C 2.25 g/m*3 2.2 C 0 km/h
2575 04-03-2010 19:47:01 1.9 C 2.32 g/m*3 1.9 C 0 km/h
Sensor: Nr:Datum:Temp:Abs-Feuchte:Windchill:Wind:
Aussen-T/F 2576 04-03-2010 19:59:01 1.6 C 2.33 g/m*3 1.6 C 0 km/h
2577 04-03-2010 20:11:02 1.5 C 2.36 g/m*3 1.5 C 0 km/h
2578 04-03-2010 20:23:02 1.4 C 2.35 g/m*3 1.4 C 0 km/h
2579 04-03-2010 20:35:01 1.3 C 2.38 g/m*3 1.3 C 0 km/h
2580 04-03-2010 20:47:02 1.1 C 2.35 g/m*3 1.1 C 0 km/h
2581 04-03-2010 20:59:02 1.1 C 2.51 g/m*3 1.1 C 0 km/h
2582 04-03-2010 21:11:02 1.1 C 2.51 g/m*3 1.1 C 0 km/h
2583 04-03-2010 21:23:01 1.1 C 2.51 g/m*3 1.1 C 0 km/h
2584 04-03-2010 21:35:02 0.8 C 2.56 g/m*3 0.8 C 0 km/h
2585 04-03-2010 21:47:02 0.6 C 2.58 g/m*3 0.6 C 0 km/h
2586 04-03-2010 21:59:02 0.7 C 2.59 g/m*3 0.7 C 0 km/h
2587 04-03-2010 22:11:02 0.9 C 2.68 g/m*3 0.9 C 0 km/h
2588 04-03-2010 22:24:03 0.7 C 2.64 g/m*3 0.7 C 0 km/h
2589 04-03-2010 22:36:03 0.3 C 2.57 g/m*3 0.3 C 0 km/h
2590 04-03-2010 22:48:03 0.1 C 2.63 g/m*3 0.1 C 0 km/h
2591 04-03-2010 23:00:03 0 C 2.62 g/m*3 0 C 0 km/h
2592 04-03-2010 23:12:03 -0.1 C 2.6 g/m*3 -0.1 C 0 km/h
2593 04-03-2010 23:24:03 -0.2 C 2.53 g/m*3 -0.2 C 0 km/h
2594 04-03-2010 23:36:03 -0.2 C 2.53 g/m*3 -0.2 C 0 km/h
2595 04-03-2010 23:48:03 -0.3 C 2.56 g/m*3 -0.3 C 0 km/h
2596 05-03-2010 00:00:03 -0.4 C 2.5 g/m*3 -0.4 C 0 km/h
2597 05-03-2010 00:12:03 -0.5 C 2.53 g/m*3 -0.5 C 0 km/h
2598 05-03-2010 00:24:03 -0.7 C 2.49 g/m*3 -0.7 C 0 km/h
2599 05-03-2010 00:36:03 -1 C 2.49 g/m*3 -1 C 0 km/h
2600 05-03-2010 00:48:03 -1.1 C 2.47 g/m*3 -1.1 C 0 km/h
Sensor: Nr:Datum:Temp:Abs-Feuchte:Windchill:Wind:
Aussen-T/F 2601 05-03-2010 01:00:03 -1.3 C 2.43 g/m*3 -1.3 C 0 km/h
2602 05-03-2010 01:12:03 -1.4 C 2.46 g/m*3 -1.4 C 0 km/h
2603 05-03-2010 01:24:03 -1.6 C 2.43 g/m*3 -1.6 C 0 km/h
2604 05-03-2010 01:36:04 -1.5 C 2.44 g/m*3 -1.5 C 0 km/h
2605 05-03-2010 01:48:04 -1.5 C 2.4 g/m*3 -1.5 C 0 km/h
2606 05-03-2010 02:00:04 -1.6 C 2.38 g/m*3 -1.6 C 0 km/h
2607 05-03-2010 02:12:04 -1.4 C 2.37 g/m*3 -1.4 C 0 km/h
2608 05-03-2010 02:24:04 -1.3 C 2.26 g/m*3 -1.3 C 0 km/h
2609 05-03-2010 02:36:04 -1.5 C 2.18 g/m*3 -1.5 C 0 km/h
2610 05-03-2010 02:48:04 -1.7 C 2.15 g/m*3 -1.7 C 0 km/h
2611 05-03-2010 03:00:04 -1.7 C 2.11 g/m*3 -1.7 C 0 km/h
2612 05-03-2010 03:12:04 -1.9 C 2.04 g/m*3 -1.9 C 0 km/h
2613 05-03-2010 03:24:04 -2 C 2.11 g/m*3 -2 C 0 km/h
2614 05-03-2010 03:36:04 -1.9 C 2.16 g/m*3 -1.9 C 0 km/h
2615 05-03-2010 03:48:04 -1.9 C 2.16 g/m*3 -1.9 C 0 km/h
2616 05-03-2010 04:00:04 -1.9 C 2.21 g/m*3 -1.9 C 0 km/h
2617 05-03-2010 04:12:04 -2.1 C 2.18 g/m*3 -2.1 C 0 km/h
2618 05-03-2010 04:24:04 -2.3 C 2.19 g/m*3 -2.3 C 0 km/h
2619 05-03-2010 04:36:04 -2.4 C 2.21 g/m*3 -2.4 C 0 km/h
2620 05-03-2010 04:48:04 -2.4 C 2.25 g/m*3 -2.4 C 0 km/h
2621 05-03-2010 05:00:04 -2.5 C 2.28 g/m*3 -2.5 C 0 km/h
2622 05-03-2010 05:12:04 -2.6 C 2.3 g/m*3 -2.6 C 0 km/h
2623 05-03-2010 05:24:04 -2.6 C 2.38 g/m*3 -2.6 C 0 km/h
2624 05-03-2010 05:36:04 -2.8 C 2.43 g/m*3 -2.8 C 0 km/h
2625 05-03-2010 05:48:05 -2.3 C 2.64 g/m*3 -2.3 C 0 km/h
Sensor: Nr:Datum:Temp:Abs-Feuchte:Windchill:Wind:
Aussen-T/F 2626 05-03-2010 06:00:05 -1.9 C 2.67 g/m*3 -1.9 C 0 km/h
2627 05-03-2010 06:12:05 -2 C 2.7 g/m*3 -2 C 0 km/h
2628 05-03-2010 06:24:05 -2.4 C 2.62 g/m*3 -2.4 C 0 km/h
2629 05-03-2010 06:36:05 -2.6 C 2.63 g/m*3 -2.6 C 0 km/h
2630 05-03-2010 06:48:05 -2.8 C 2.63 g/m*3 -2.8 C 0 km/h
2631 05-03-2010 07:00:05 -2.9 C 2.65 g/m*3 -2.9 C 0 km/h
2632 05-03-2010 07:12:02 -2.9 C 2.69 g/m*3 -2.9 C 0 km/h
2633 05-03-2010 07:24:03 -2.8 C 2.71 g/m*3 -2.8 C 0 km/h
2634 05-03-2010 07:36:02 -2.7 C 2.77 g/m*3 -2.7 C 0 km/h
2635 05-03-2010 07:48:02 -2.9 C 2.69 g/m*3 -2.9 C 0 km/h
2636 05-03-2010 08:00:02 -2.9 C 2.73 g/m*3 -2.9 C 0 km/h
2637 05-03-2010 08:12:02 -2.8 C 2.75 g/m*3 -2.8 C 0 km/h
2638 05-03-2010 08:24:03 -2.8 C 2.75 g/m*3 -2.8 C 0 km/h
2639 05-03-2010 08:36:02 -2.6 C 2.83 g/m*3 -2.6 C 0 km/h
2640 05-03-2010 08:48:01 -2.6 C 2.79 g/m*3 -2.6 C 0 km/h
2641 05-03-2010 09:00:01 -2.5 C 2.77 g/m*3 -2.5 C 0 km/h
2642 05-03-2010 09:12:02 -2.3 C 2.72 g/m*3 -2.3 C 0 km/h
2643 05-03-2010 09:24:01 -2 C 2.66 g/m*3 -2 C 0 km/h
2644 05-03-2010 09:36:02 -1.8 C 2.48 g/m*3 -1.8 C 0 km/h
2645 05-03-2010 09:48:02 -1.4 C 2.46 g/m*3 -1.4 C 0 km/h
2646 05-03-2010 10:00:02 -1 C 2.49 g/m*3 -1 C 0 km/h
2647 05-03-2010 10:12:02 -0.5 C 2.53 g/m*3 -0.5 C 0 km/h
2648 05-03-2010 10:24:02 0.4 C 2.54 g/m*3 0.4 C 0 km/h
2649 05-03-2010 10:36:02 0.9 C 2.06 g/m*3 0.9 C 0 km/h
2650 05-03-2010 10:48:02 1.4 C 1.92 g/m*3 1.4 C 0 km/h
Sensor: Nr:Datum:Temp:Abs-Feuchte:Windchill:Wind:
Aussen-T/F 2651 05-03-2010 11:00:02 1.8 C 1.97 g/m*3 1.8 C 0 km/h
2652 05-03-2010 11:12:02 2.1 C 2.01 g/m*3 2.1 C 0 km/h
2653 05-03-2010 11:24:02 2.1 C 1.96 g/m*3 2.1 C 0 km/h
2654 05-03-2010 11:36:02 2.2 C 1.52 g/m*3 2.2 C 0 km/h
2655 05-03-2010 11:48:01 2.5 C 1.21 g/m*3 2.5 C 0 km/h
2656 05-03-2010 12:00:01 3.5 C 1.54 g/m*3 3.5 C 0 km/h
2657 05-03-2010 12:12:02 2.5 C 1.21 g/m*3 2.5 C 0 km/h
2658 05-03-2010 12:24:01 2.7 C 1.34 g/m*3 2.7 C 0 km/h
2659 05-03-2010 12:36:01 3 C 1.19 g/m*3 3 C 0 km/h
2660 05-03-2010 12:48:01 3.6 C 1.24 g/m*3 3.6 C 0 km/h
2661 05-03-2010 13:00:01 3.5 C 1.23 g/m*3 3.5 C 0 km/h
2662 05-03-2010 13:12:02 3.3 C 1.21 g/m*3 3.3 C 0 km/h
2663 05-03-2010 13:24:01 3.5 C 1.23 g/m*3 3.5 C 0 km/h
2664 05-03-2010 13:36:01 3.2 C 1.21 g/m*3 3.2 C 0 km/h
2665 05-03-2010 13:48:01 3.2 C 1.51 g/m*3 3.2 C 0 km/h
2666 05-03-2010 14:00:01 3.1 C 1.26 g/m*3 3.1 C 0 km/h
2667 05-03-2010 14:12:02 3.6 C 1.3 g/m*3 3.6 C 0 km/h
2668 05-03-2010 14:24:02 4 C 1.27 g/m*3 4 C 0 km/h
2669 05-03-2010 14:36:01 3.7 C 1.25 g/m*3 3.7 C 0 km/h
2670 05-03-2010 14:48:01 4 C 1.34 g/m*3 4 C 0 km/h
2671 05-03-2010 15:00:01 4.5 C 1.38 g/m*3 4.5 C 0 km/h
2672 05-03-2010 15:12:02 5.2 C 1.58 g/m*3 5.2 C 0 km/h
2673 05-03-2010 15:24:02 4.8 C 1.41 g/m*3 4.8 C 0 km/h
2674 05-03-2010 15:36:01 5.5 C 1.47 g/m*3 5.5 C 0 km/h
2675 05-03-2010 15:48:01 6 C 1.45 g/m*3 6 C 0 km/h
Sensor: Nr:Datum:Temp:Abs-Feuchte:Windchill:Wind:
Aussen-T/F 2676 05-03-2010 16:00:01 5.4 C 1.4 g/m*3 5.4 C 0 km/h
2677 05-03-2010 16:12:01 4.9 C 1.35 g/m*3 4.9 C 0 km/h
2678 05-03-2010 16:24:02 4.8 C 1.34 g/m*3 4.8 C 0 km/h
2679 05-03-2010 16:36:01 4.5 C 1.38 g/m*3 4.5 C 0 km/h
2680 05-03-2010 16:48:02 4.4 C 1.63 g/m*3 4.4 C 0 km/h
2681 05-03-2010 17:00:02 4.4 C 1.7 g/m*3 4.4 C 0 km/h
2682 05-03-2010 17:12:01 4.3 C 1.49 g/m*3 4.3 C 0 km/h
2683 05-03-2010 17:24:02 4.2 C 1.48 g/m*3 4.2 C 0 km/h
2684 05-03-2010 17:36:01 4 C 1.46 g/m*3 4 C 0 km/h
2685 05-03-2010 17:48:03 3.8 C 1.44 g/m*3 3.8 C 0 km/h
2686 05-03-2010 18:00:03 3.8 C 1.57 g/m*3 3.8 C 0 km/h
2687 05-03-2010 18:12:02 3.5 C 1.66 g/m*3 3.5 C 0 km/h
2688 05-03-2010 18:24:02 3.3 C 1.82 g/m*3 3.3 C 0 km/h
2689 05-03-2010 18:36:02 3.2 C 1.99 g/m*3 3.2 C 0 km/h
2690 05-03-2010 18:48:02 3.1 C 2.21 g/m*3 3.1 C 0 km/h
2691 05-03-2010 19:00:02 3 C 2.32 g/m*3 3 C 0 km/h
2692 05-03-2010 19:12:02 2.9 C 2.42 g/m*3 2.9 C 0 km/h
2693 05-03-2010 19:24:02 2.8 C 2.46 g/m*3 2.8 C 0 km/h
2694 05-03-2010 19:36:02 2.7 C 2.56 g/m*3 2.7 C 0 km/h
2695 05-03-2010 19:48:02 2.6 C 2.66 g/m*3 2.6 C 0 km/h
2696 05-03-2010 20:00:02 2.5 C 2.7 g/m*3 2.5 C 0 km/h
2697 05-03-2010 20:12:01 2.5 C 2.76 g/m*3 2.5 C 0 km/h
2698 05-03-2010 20:24:02 2.4 C 2.8 g/m*3 2.4 C 0 km/h
2699 05-03-2010 20:36:01 2.5 C 2.82 g/m*3 2.5 C 0 km/h
2700 05-03-2010 20:48:02 2.5 C 2.82 g/m*3 2.5 C 0 km/h
Sensor: Nr:Datum:Temp:Abs-Feuchte:Windchill:Wind:
Aussen-T/F 2701 05-03-2010 21:00:02 2.5 C 2.82 g/m*3 2.5 C 0 km/h
2702 05-03-2010 21:12:01 2.4 C 2.91 g/m*3 2.4 C 0 km/h
2703 05-03-2010 21:24:01 2.1 C 3.13 g/m*3 2.1 C 0 km/h
2704 05-03-2010 21:36:02 1.8 C 3.4 g/m*3 1.8 C 0 km/h
2705 05-03-2010 21:48:02 1.5 C 3.54 g/m*3 1.5 C 0 km/h
2706 05-03-2010 22:00:03 1.3 C 3.71 g/m*3 1.3 C 0 km/h
2707 05-03-2010 22:12:02 1 C 3.84 g/m*3 1 C 0 km/h
2708 05-03-2010 22:24:02 0.9 C 3.97 g/m*3 0.9 C 0 km/h
2709 05-03-2010 22:36:02 0.8 C 4.04 g/m*3 0.8 C 0 km/h
2710 05-03-2010 22:48:02 0.8 C 4.1 g/m*3 0.8 C 0 km/h
2711 05-03-2010 23:00:02 0.7 C 4.12 g/m*3 0.7 C 0 km/h
2712 05-03-2010 23:12:01 0.5 C 4.16 g/m*3 0.5 C 0 km/h
2713 05-03-2010 23:24:02 0.6 C 4.24 g/m*3 0.6 C 0 km/h
2714 05-03-2010 23:36:02 0.7 C 4.27 g/m*3 0.7 C 0 km/h
2715 05-03-2010 23:48:02 0.7 C 4.27 g/m*3 0.7 C 0 km/h
2716 06-03-2010 00:00:03 0.9 C 4.28 g/m*3 0.9 C 0 km/h
2717 06-03-2010 00:12:02 0.7 C 4.17 g/m*3 0.7 C 0 km/h
2718 06-03-2010 00:25:05 0.6 C 4.24 g/m*3 0.6 C 0 km/h
2719 06-03-2010 00:37:05 0.7 C 4.27 g/m*3 0.7 C 0 km/h
2720 06-03-2010 00:49:05 0.6 C 4.29 g/m*3 0.6 C 0 km/h
2721 06-03-2010 01:01:05 0.6 C 4.34 g/m*3 0.6 C 0 km/h
2722 06-03-2010 01:13:05 0.5 C 4.36 g/m*3 0.5 C 0 km/h
2723 06-03-2010 01:25:05 0.5 C 4.41 g/m*3 0.5 C 0 km/h
2724 06-03-2010 01:37:06 0.4 C 4.43 g/m*3 0.4 C 0 km/h
2725 06-03-2010 01:49:06 0.5 C 4.46 g/m*3 0.5 C 0 km/h
Sensor: Nr:Datum:Temp:Abs-Feuchte:Windchill:Wind:
Aussen-T/F 2726 06-03-2010 02:01:06 0.6 C 4.54 g/m*3 0.6 C 0 km/h
2727 06-03-2010 02:13:06 0.6 C 4.6 g/m*3 0.6 C 0 km/h
2728 06-03-2010 02:25:06 0.6 C 4.6 g/m*3 0.6 C 0 km/h
2729 06-03-2010 02:37:06 0.6 C 4.6 g/m*3 0.6 C 0 km/h
2730 06-03-2010 02:49:06 0.5 C 4.61 g/m*3 0.5 C 0 km/h
2731 06-03-2010 03:01:06 0.4 C 4.58 g/m*3 0.4 C 0 km/h
2732 06-03-2010 03:13:06 0.3 C 4.55 g/m*3 0.3 C 0 km/h
2733 06-03-2010 03:25:06 0.2 C 4.57 g/m*3 0.2 C 0 km/h
2734 06-03-2010 03:37:06 0.1 C 4.54 g/m*3 0.1 C 0 km/h
2735 06-03-2010 03:49:06 0 C 4.51 g/m*3 0 C 0 km/h
2736 06-03-2010 04:01:06 0 C 4.51 g/m*3 0 C 0 km/h
2737 06-03-2010 04:13:06 0 C 4.51 g/m*3 0 C 0 km/h
2738 06-03-2010 04:25:06 0 C 4.51 g/m*3 0 C 0 km/h
2739 06-03-2010 04:37:06 0 C 4.55 g/m*3 0 C 0 km/h
2740 06-03-2010 04:49:06 0 C 4.55 g/m*3 0 C 0 km/h
2741 06-03-2010 05:01:06 0 C 4.55 g/m*3 0 C 0 km/h
2742 06-03-2010 05:13:06 -0.1 C 4.47 g/m*3 -0.1 C 0 km/h
2743 06-03-2010 05:25:06 0 C 4.51 g/m*3 0 C 0 km/h
2744 06-03-2010 05:37:06 0 C 4.51 g/m*3 0 C 0 km/h
2745 06-03-2010 05:49:07 0 C 4.51 g/m*3 0 C 0 km/h
2746 06-03-2010 06:01:07 -0.1 C 4.43 g/m*3 -0.1 C 0 km/h
2747 06-03-2010 06:13:07 -0.2 C 4.4 g/m*3 -0.2 C 0 km/h
2748 06-03-2010 06:25:07 -0.2 C 4.3 g/m*3 -0.2 C 0 km/h
2749 06-03-2010 06:37:07 -0.2 C 4.21 g/m*3 -0.2 C 0 km/h
2750 06-03-2010 06:49:07 -0.1 C 4.14 g/m*3 -0.1 C 0 km/h
Sensor: Nr:Datum:Temp:Abs-Feuchte:Windchill:Wind:
Aussen-T/F 2751 06-03-2010 07:01:07 -0.1 C 4.09 g/m*3 -0.1 C 0 km/h
2752 06-03-2010 07:13:07 0 C 4.12 g/m*3 0 C 0 km/h
2753 06-03-2010 07:25:07 0 C 4.17 g/m*3 0 C 0 km/h
2754 06-03-2010 07:37:07 0 C 4.17 g/m*3 0 C 0 km/h
2755 06-03-2010 07:49:01 0 C 4.12 g/m*3 0 C 0 km/h
2756 06-03-2010 08:01:02 0.1 C 4.2 g/m*3 0.1 C 0 km/h
2757 06-03-2010 08:13:02 0.1 C 4.2 g/m*3 0.1 C 0 km/h
2758 06-03-2010 08:25:01 0.2 C 4.22 g/m*3 0.2 C 0 km/h
2759 06-03-2010 08:37:02 0.4 C 4.23 g/m*3 0.4 C 0 km/h
2760 06-03-2010 08:49:01 0.4 C 4.13 g/m*3 0.4 C 0 km/h
2761 06-03-2010 09:01:02 0.4 C 4.03 g/m*3 0.4 C 0 km/h
2762 06-03-2010 09:13:02 0.4 C 4.03 g/m*3 0.4 C 0 km/h
2763 06-03-2010 09:25:02 0.4 C 4.08 g/m*3 0.4 C 0 km/h
2764 06-03-2010 09:37:02 0.3 C 4.06 g/m*3 0.3 C 0 km/h
2765 06-03-2010 09:49:02 0.4 C 4.03 g/m*3 0.4 C 0 km/h
2766 06-03-2010 10:01:02 0.4 C 3.88 g/m*3 0.4 C 0 km/h
2767 06-03-2010 10:13:02 0.5 C 3.71 g/m*3 0.5 C 0 km/h
2768 06-03-2010 10:25:02 0.5 C 3.71 g/m*3 0.5 C 0 km/h
2769 06-03-2010 10:37:02 0.5 C 3.71 g/m*3 0.5 C 0 km/h
2770 06-03-2010 10:49:01 0.4 C 3.59 g/m*3 0.4 C 0 km/h
2771 06-03-2010 11:01:02 0.5 C 3.66 g/m*3 0.5 C 0 km/h
2772 06-03-2010 11:13:02 0.4 C 3.59 g/m*3 0.4 C 0 km/h
2773 06-03-2010 11:25:01 0.5 C 3.56 g/m*3 0.5 C 0 km/h
2774 06-03-2010 11:37:01 0.4 C 3.39 g/m*3 0.4 C 0 km/h
2775 06-03-2010 11:49:01 0.3 C 3.26 g/m*3 0.3 C 0 km/h
Sensor: Nr:Datum:Temp:Abs-Feuchte:Windchill:Wind:
Aussen-T/F 2776 06-03-2010 12:01:02 0.4 C 3.34 g/m*3 0.4 C 0 km/h
2777 06-03-2010 12:13:02 0.5 C 3.26 g/m*3 0.5 C 0 km/h
2778 06-03-2010 12:25:01 0.4 C 3.19 g/m*3 0.4 C 0 km/h
2779 06-03-2010 12:37:02 0.6 C 3.23 g/m*3 0.6 C 0 km/h
2780 06-03-2010 12:49:02 0.7 C 3.36 g/m*3 0.7 C 0 km/h
2781 06-03-2010 13:01:02 0.8 C 3.28 g/m*3 0.8 C 0 km/h
2782 06-03-2010 13:13:02 1.1 C 3.29 g/m*3 1.1 C 0 km/h
2783 06-03-2010 13:25:01 0.9 C 2.94 g/m*3 0.9 C 0 km/h
2784 06-03-2010 13:37:02 0.5 C 3.11 g/m*3 0.5 C 0 km/h
2785 06-03-2010 13:49:02 0.4 C 3.34 g/m*3 0.4 C 0 km/h
2786 06-03-2010 14:01:02 0.2 C 3.19 g/m*3 0.2 C 0 km/h
2787 06-03-2010 14:13:02 0.5 C 3.36 g/m*3 0.5 C 0 km/h
2788 06-03-2010 14:25:02 1 C 3.32 g/m*3 1 C 0 km/h
2789 06-03-2010 14:37:02 1.7 C 3.27 g/m*3 1.7 C 0 km/h
2790 06-03-2010 14:49:02 1.4 C 3.04 g/m*3 1.4 C 0 km/h
2791 06-03-2010 15:01:02 1.3 C 3.02 g/m*3 1.3 C 0 km/h
2792 06-03-2010 15:13:02 1.3 C 2.97 g/m*3 1.3 C 0 km/h
2793 06-03-2010 15:25:02 1.5 C 2.79 g/m*3 1.5 C 0 km/h
2794 06-03-2010 15:37:02 1.3 C 2.7 g/m*3 1.3 C 0 km/h
2795 06-03-2010 15:49:02 1.4 C 2.67 g/m*3 1.4 C 0 km/h
2796 06-03-2010 16:01:02 1.4 C 2.72 g/m*3 1.4 C 0 km/h
2797 06-03-2010 16:13:02 0.9 C 2.63 g/m*3 0.9 C 0 km/h
2798 06-03-2010 16:25:02 1 C 2.6 g/m*3 1 C 0 km/h
2799 06-03-2010 16:37:02 0.8 C 2.66 g/m*3 0.8 C 0 km/h
2800 06-03-2010 16:49:02 0.5 C 2.71 g/m*3 0.5 C 0 km/h
Sensor: Nr:Datum:Temp:Abs-Feuchte:Windchill:Wind:
Aussen-T/F 2801 06-03-2010 17:01:02 0.2 C 2.55 g/m*3 0.2 C 0 km/h
2802 06-03-2010 17:13:02 -0.2 C 2.25 g/m*3 -0.2 C 0 km/h
2803 06-03-2010 17:25:02 -0.5 C 2.15 g/m*3 -0.5 C 0 km/h
2804 06-03-2010 17:37:02 -0.6 C 2.14 g/m*3 -0.6 C 0 km/h
2805 06-03-2010 17:49:01 -1 C 2.08 g/m*3 -1 C 0 km/h
2806 06-03-2010 18:01:02 -1.4 C 2.02 g/m*3 -1.4 C 0 km/h
2807 06-03-2010 18:13:02 -1.6 C 2.08 g/m*3 -1.6 C 0 km/h
2808 06-03-2010 18:25:02 -1.8 C 2.05 g/m*3 -1.8 C 0 km/h
2809 06-03-2010 18:37:02 -1.9 C 2.08 g/m*3 -1.9 C 0 km/h
2810 06-03-2010 18:49:02 -1.8 C 2.05 g/m*3 -1.8 C 0 km/h
2811 06-03-2010 19:01:02 -2 C 2.11 g/m*3 -2 C 0 km/h
2812 06-03-2010 19:13:02 -2.3 C 2.1 g/m*3 -2.3 C 0 km/h
2813 06-03-2010 19:25:02 -2.5 C 2.2 g/m*3 -2.5 C 0 km/h
2814 06-03-2010 19:37:01 -2.6 C 2.22 g/m*3 -2.6 C 0 km/h
2815 06-03-2010 19:49:02 -2.7 C 2.21 g/m*3 -2.7 C 0 km/h
2816 06-03-2010 20:01:01 -2.7 C 2.21 g/m*3 -2.7 C 0 km/h
2817 06-03-2010 20:13:01 -2.8 C 2.15 g/m*3 -2.8 C 0 km/h
2818 06-03-2010 20:25:02 -3.1 C 2.15 g/m*3 -3.1 C 0 km/h
2819 06-03-2010 20:37:01 -3.4 C 2.25 g/m*3 -3.4 C 0 km/h
2820 06-03-2010 20:49:02 -3.6 C 2.3 g/m*3 -3.6 C 0 km/h
2821 06-03-2010 21:01:01 -3.8 C 2.3 g/m*3 -3.8 C 0 km/h
2822 06-03-2010 21:13:01 -4 C 2.34 g/m*3 -4 C 0 km/h
2823 06-03-2010 21:25:02 -4 C 2.38 g/m*3 -4 C 0 km/h
2824 06-03-2010 21:37:01 -4.2 C 2.38 g/m*3 -4.2 C 0 km/h
2825 06-03-2010 21:50:03 -4.2 C 2.42 g/m*3 -4.2 C 0 km/h
Sensor: Nr:Datum:Temp:Abs-Feuchte:Windchill:Wind:
Aussen-T/F 2826 06-03-2010 22:02:03 -4.3 C 2.43 g/m*3 -4.3 C 0 km/h
2827 06-03-2010 22:14:03 -4.2 C 2.49 g/m*3 -4.2 C 0 km/h
2828 06-03-2010 22:26:03 -4 C 2.52 g/m*3 -4 C 0 km/h
2829 06-03-2010 22:38:03 -3.7 C 2.58 g/m*3 -3.7 C 0 km/h
2830 06-03-2010 22:50:03 -3.4 C 2.6 g/m*3 -3.4 C 0 km/h
2831 06-03-2010 23:02:03 -3.4 C 2.6 g/m*3 -3.4 C 0 km/h
2832 06-03-2010 23:14:03 -3.3 C 2.58 g/m*3 -3.3 C 0 km/h
2833 06-03-2010 23:26:03 -3.3 C 2.58 g/m*3 -3.3 C 0 km/h
2834 06-03-2010 23:38:03 -3.5 C 2.5 g/m*3 -3.5 C 0 km/h
2835 06-03-2010 23:50:03 -3.8 C 2.45 g/m*3 -3.8 C 0 km/h
2836 07-03-2010 00:02:03 -4.2 C 2.42 g/m*3 -4.2 C 0 km/h
2837 07-03-2010 00:14:03 -4.4 C 2.42 g/m*3 -4.4 C 0 km/h
2838 07-03-2010 00:26:04 -4.5 C 2.4 g/m*3 -4.5 C 0 km/h
2839 07-03-2010 00:38:04 -4.7 C 2.4 g/m*3 -4.7 C 0 km/h
2840 07-03-2010 00:50:04 -4.6 C 2.42 g/m*3 -4.6 C 0 km/h
2841 07-03-2010 01:02:04 -4.4 C 2.49 g/m*3 -4.4 C 0 km/h
2842 07-03-2010 01:14:04 -4.3 C 2.47 g/m*3 -4.3 C 0 km/h
2843 07-03-2010 01:26:04 -4.4 C 2.45 g/m*3 -4.4 C 0 km/h
2844 07-03-2010 01:38:04 -4.5 C 2.44 g/m*3 -4.5 C 0 km/h
2845 07-03-2010 01:50:04 -4.4 C 2.45 g/m*3 -4.4 C 0 km/h
2846 07-03-2010 02:02:04 -4.4 C 2.49 g/m*3 -4.4 C 0 km/h
2847 07-03-2010 02:14:04 -4.4 C 2.49 g/m*3 -4.4 C 0 km/h
2848 07-03-2010 02:26:04 -4.6 C 2.45 g/m*3 -4.6 C 0 km/h
2849 07-03-2010 02:38:04 -4.4 C 2.52 g/m*3 -4.4 C 0 km/h
2850 07-03-2010 02:50:04 -4.5 C 2.51 g/m*3 -4.5 C 0 km/h
Sensor: Nr:Datum:Temp:Abs-Feuchte:Windchill:Wind:
Aussen-T/F 2851 07-03-2010 03:02:04 -4.6 C 2.49 g/m*3 -4.6 C 0 km/h
2852 07-03-2010 03:14:04 -4.8 C 2.45 g/m*3 -4.8 C 0 km/h
2853 07-03-2010 03:26:04 -5 C 2.45 g/m*3 -5 C 0 km/h
2854 07-03-2010 03:38:04 -5.1 C 2.43 g/m*3 -5.1 C 0 km/h
2855 07-03-2010 03:50:04 -5.2 C 2.45 g/m*3 -5.2 C 0 km/h
2856 07-03-2010 04:02:04 -5.3 C 2.43 g/m*3 -5.3 C 0 km/h
2857 07-03-2010 04:14:04 -5.1 C 2.5 g/m*3 -5.1 C 0 km/h
2858 07-03-2010 04:26:05 -4.9 C 2.54 g/m*3 -4.9 C 0 km/h
2859 07-03-2010 04:38:05 -4.6 C 2.63 g/m*3 -4.6 C 0 km/h
2860 07-03-2010 04:50:05 -4.6 C 2.63 g/m*3 -4.6 C 0 km/h
2861 07-03-2010 05:02:05 -4.8 C 2.56 g/m*3 -4.8 C 0 km/h
2862 07-03-2010 05:14:05 -5 C 2.52 g/m*3 -5 C 0 km/h
2863 07-03-2010 05:26:05 -5.2 C 2.48 g/m*3 -5.2 C 0 km/h
2864 07-03-2010 05:38:05 -5.3 C 2.47 g/m*3 -5.3 C 0 km/h
2865 07-03-2010 05:50:05 -5.3 C 2.47 g/m*3 -5.3 C 0 km/h
2866 07-03-2010 06:02:05 -5.6 C 2.41 g/m*3 -5.6 C 0 km/h
2867 07-03-2010 06:14:05 -5.8 C 2.38 g/m*3 -5.8 C 0 km/h
2868 07-03-2010 06:26:05 -5.8 C 2.41 g/m*3 -5.8 C 0 km/h
2869 07-03-2010 06:38:05 -5.9 C 2.42 g/m*3 -5.9 C 0 km/h
2870 07-03-2010 06:50:05 -6 C 2.41 g/m*3 -6 C 0 km/h
2871 07-03-2010 07:02:05 -6 C 2.44 g/m*3 -6 C 0 km/h
2872 07-03-2010 07:14:05 -6.1 C 2.42 g/m*3 -6.1 C 0 km/h
2873 07-03-2010 07:26:05 -6.1 C 2.42 g/m*3 -6.1 C 0 km/h
2874 07-03-2010 07:38:05 -6.4 C 2.34 g/m*3 -6.4 C 0 km/h
2875 07-03-2010 07:50:05 -6.5 C 2.32 g/m*3 -6.5 C 0 km/h
Sensor: Nr:Datum:Temp:Abs-Feuchte:Windchill:Wind:
Aussen-T/F 2876 07-03-2010 08:02:05 -6.5 C 2.32 g/m*3 -6.5 C 0 km/h
2877 07-03-2010 08:14:05 -6.4 C 2.34 g/m*3 -6.4 C 0 km/h
2878 07-03-2010 08:26:02 -6.2 C 2.4 g/m*3 -6.2 C 0 km/h
2879 07-03-2010 08:38:03 -5.7 C 2.49 g/m*3 -5.7 C 0 km/h
2880 07-03-2010 08:50:02 -5.3 C 2.57 g/m*3 -5.3 C 0 km/h
2881 07-03-2010 09:02:02 -5 C 2.59 g/m*3 -5 C 0 km/h
2882 07-03-2010 09:14:02 -4.6 C 2.63 g/m*3 -4.6 C 0 km/h
2883 07-03-2010 09:26:02 -4.1 C 2.65 g/m*3 -4.1 C 0 km/h
2884 07-03-2010 09:38:02 -3.5 C 2.65 g/m*3 -3.5 C 0 km/h
2885 07-03-2010 09:50:02 -3 C 2.59 g/m*3 -3 C 0 km/h
2886 07-03-2010 10:02:01 -2 C 2.66 g/m*3 -2 C 0 km/h
2887 07-03-2010 10:14:01 -1.4 C 2.51 g/m*3 -1.4 C 0 km/h
2888 07-03-2010 10:26:02 -1 C 2.4 g/m*3 -1 C 0 km/h
2889 07-03-2010 10:38:02 -1 C 2.35 g/m*3 -1 C 0 km/h
2890 07-03-2010 10:50:02 -1 C 2.31 g/m*3 -1 C 0 km/h
2891 07-03-2010 11:02:03 -0.7 C 2.35 g/m*3 -0.7 C 0 km/h
2892 07-03-2010 11:14:03 -0.5 C 2.29 g/m*3 -0.5 C 0 km/h
2893 07-03-2010 11:26:02 -0.5 C 2.2 g/m*3 -0.5 C 0 km/h
2894 07-03-2010 11:38:02 -0.4 C 2.22 g/m*3 -0.4 C 0 km/h
2895 07-03-2010 11:50:02 -0.1 C 2.26 g/m*3 -0.1 C 0 km/h
2896 07-03-2010 12:02:02 -0.2 C 2.15 g/m*3 -0.2 C 0 km/h
2897 07-03-2010 12:14:02 0 C 2.23 g/m*3 0 C 0 km/h
2898 07-03-2010 12:26:01 0.4 C 2.29 g/m*3 0.4 C 0 km/h
2899 07-03-2010 12:38:02 0.9 C 2.32 g/m*3 0.9 C 0 km/h
2900 07-03-2010 12:50:02 1.5 C 2.31 g/m*3 1.5 C 0 km/h
Sensor: Nr:Datum:Temp:Abs-Feuchte:Windchill:Wind:
Aussen-T/F 2901 07-03-2010 13:02:02 1.6 C 2.16 g/m*3 1.6 C 0 km/h
2902 07-03-2010 13:14:02 1.8 C 2.14 g/m*3 1.8 C 0 km/h
2903 07-03-2010 13:26:02 2.2 C 2.14 g/m*3 2.2 C 0 km/h
2904 07-03-2010 13:38:02 2.5 C 2.07 g/m*3 2.5 C 0 km/h
2905 07-03-2010 13:50:02 2.9 C 2.07 g/m*3 2.9 C 0 km/h
2906 07-03-2010 14:02:03 3 C 1.96 g/m*3 3 C 0 km/h
2907 07-03-2010 14:14:03 3.3 C 2.06 g/m*3 3.3 C 0 km/h
2908 07-03-2010 14:26:02 3.7 C 1.99 g/m*3 3.7 C 0 km/h
2909 07-03-2010 14:38:02 3.7 C 1.74 g/m*3 3.7 C 0 km/h
2910 07-03-2010 14:50:01 3.9 C 1.77 g/m*3 3.9 C 0 km/h
2911 07-03-2010 15:02:02 4.2 C 1.68 g/m*3 4.2 C 0 km/h
2912 07-03-2010 15:14:02 4.5 C 1.31 g/m*3 4.5 C 0 km/h
2913 07-03-2010 15:26:01 4.6 C 1.32 g/m*3 4.6 C 0 km/h
2914 07-03-2010 15:38:02 4.7 C 1.33 g/m*3 4.7 C 0 km/h
2915 07-03-2010 15:50:02 5 C 1.36 g/m*3 5 C 0 km/h
2916 07-03-2010 16:02:02 5.1 C 1.37 g/m*3 5.1 C 0 km/h
2917 07-03-2010 16:14:02 5.3 C 1.39 g/m*3 5.3 C 0 km/h
2918 07-03-2010 16:26:01 5.8 C 1.43 g/m*3 5.8 C 0 km/h
2919 07-03-2010 16:38:02 5.9 C 1.44 g/m*3 5.9 C 0 km/h
2920 07-03-2010 16:50:02 5.7 C 1.42 g/m*3 5.7 C 0 km/h
2921 07-03-2010 17:02:02 5.8 C 1.43 g/m*3 5.8 C 0 km/h
2922 07-03-2010 17:14:02 5.1 C 1.37 g/m*3 5.1 C 0 km/h
2923 07-03-2010 17:26:02 4.9 C 1.35 g/m*3 4.9 C 0 km/h
2924 07-03-2010 17:38:02 4.7 C 1.33 g/m*3 4.7 C 0 km/h
2925 07-03-2010 17:50:02 4.1 C 1.28 g/m*3 4.1 C 0 km/h
Sensor: Nr:Datum:Temp:Abs-Feuchte:Windchill:Wind:
Aussen-T/F 2926 07-03-2010 18:02:02 3.2 C 1.21 g/m*3 3.2 C 0 km/h
2927 07-03-2010 18:14:03 2.2 C 1.63 g/m*3 2.2 C 0 km/h
2928 07-03-2010 18:26:02 1.4 C 1.71 g/m*3 1.4 C 0 km/h
2929 07-03-2010 18:38:02 0.6 C 1.77 g/m*3 0.6 C 0 km/h
2930 07-03-2010 18:50:02 0.1 C 1.76 g/m*3 0.1 C 0 km/h
2931 07-03-2010 19:02:02 -0.2 C 1.77 g/m*3 -0.2 C 0 km/h
2932 07-03-2010 19:14:02 -0.4 C 1.74 g/m*3 -0.4 C 0 km/h
2933 07-03-2010 19:26:02 -0.6 C 1.81 g/m*3 -0.6 C 0 km/h
2934 07-03-2010 19:38:02 -0.7 C 1.85 g/m*3 -0.7 C 0 km/h
2935 07-03-2010 19:50:01 -1.2 C 1.87 g/m*3 -1.2 C 0 km/h
2936 07-03-2010 20:02:01 -1.4 C 1.89 g/m*3 -1.4 C 0 km/h
2937 07-03-2010 20:14:02 -1.5 C 1.83 g/m*3 -1.5 C 0 km/h
2938 07-03-2010 20:26:01 -1.7 C 1.89 g/m*3 -1.7 C 0 km/h
2939 07-03-2010 20:38:01 -1.9 C 1.95 g/m*3 -1.9 C 0 km/h
2940 07-03-2010 20:50:01 -2 C 2.02 g/m*3 -2 C 0 km/h
2941 07-03-2010 21:02:01 -2.3 C 2.02 g/m*3 -2.3 C 0 km/h
2942 07-03-2010 21:14:01 -2.4 C 2.01 g/m*3 -2.4 C 0 km/h
2943 07-03-2010 21:26:01 -2.5 C 1.95 g/m*3 -2.5 C 0 km/h
2944 07-03-2010 21:38:01 -2.5 C 1.83 g/m*3 -2.5 C 0 km/h
2945 07-03-2010 21:51:03 -2.5 C 1.87 g/m*3 -2.5 C 0 km/h
2946 07-03-2010 22:03:03 -2.6 C 1.82 g/m*3 -2.6 C 0 km/h
2947 07-03-2010 22:15:03 -2.8 C 1.79 g/m*3 -2.8 C 0 km/h
2948 07-03-2010 22:27:03 -2.8 C 1.83 g/m*3 -2.8 C 0 km/h
2949 07-03-2010 22:39:03 -3 C 1.85 g/m*3 -3 C 0 km/h
2950 07-03-2010 22:51:03 -3.2 C 1.9 g/m*3 -3.2 C 0 km/h
Sensor: Nr:Datum:Temp:Abs-Feuchte:Windchill:Wind:
Aussen-T/F 2951 07-03-2010 23:03:04 -3.3 C 1.96 g/m*3 -3.3 C 0 km/h
2952 07-03-2010 23:15:04 -3.4 C 1.95 g/m*3 -3.4 C 0 km/h
2953 07-03-2010 23:27:04 -3.4 C 1.91 g/m*3 -3.4 C 0 km/h
2954 07-03-2010 23:39:04 -3.4 C 1.83 g/m*3 -3.4 C 0 km/h
2955 07-03-2010 23:51:04 -3.7 C 1.76 g/m*3 -3.7 C 0 km/h
2956 08-03-2010 00:03:04 -3.9 C 1.81 g/m*3 -3.9 C 0 km/h
2957 08-03-2010 00:15:04 -4 C 1.83 g/m*3 -4 C 0 km/h
2958 08-03-2010 00:27:04 -4.2 C 1.77 g/m*3 -4.2 C 0 km/h
2959 08-03-2010 00:39:04 -4.3 C 1.79 g/m*3 -4.3 C 0 km/h
2960 08-03-2010 00:51:04 -4.5 C 1.8 g/m*3 -4.5 C 0 km/h
2961 08-03-2010 01:03:04 -4.5 C 1.76 g/m*3 -4.5 C 0 km/h
2962 08-03-2010 01:15:04 -4.6 C 1.75 g/m*3 -4.6 C 0 km/h
2963 08-03-2010 01:27:04 -4.6 C 1.75 g/m*3 -4.6 C 0 km/h
2964 08-03-2010 01:39:04 -4.7 C 1.7 g/m*3 -4.7 C 0 km/h
2965 08-03-2010 01:51:04 -4.8 C 1.73 g/m*3 -4.8 C 0 km/h
2966 08-03-2010 02:03:04 -5 C 1.7 g/m*3 -5 C 0 km/h
2967 08-03-2010 02:15:04 -4.9 C 1.68 g/m*3 -4.9 C 0 km/h
2968 08-03-2010 02:27:04 -5 C 1.6 g/m*3 -5 C 0 km/h
2969 08-03-2010 02:39:04 -4.7 C 1.53 g/m*3 -4.7 C 0 km/h
2970 08-03-2010 02:51:04 -5 C 1.63 g/m*3 -5 C 0 km/h
2971 08-03-2010 03:03:04 -5.3 C 1.7 g/m*3 -5.3 C 0 km/h
2972 08-03-2010 03:15:05 -5.8 C 1.67 g/m*3 -5.8 C 0 km/h
2973 08-03-2010 03:27:05 -5.9 C 1.72 g/m*3 -5.9 C 0 km/h
2974 08-03-2010 03:39:05 -5.8 C 1.74 g/m*3 -5.8 C 0 km/h
2975 08-03-2010 03:51:05 -6 C 1.71 g/m*3 -6 C 0 km/h
Sensor: Nr:Datum:Temp:Abs-Feuchte:Windchill:Wind:
Aussen-T/F 2976 08-03-2010 04:03:05 -6.1 C 1.73 g/m*3 -6.1 C 0 km/h
2977 08-03-2010 04:15:05 -6.1 C 1.73 g/m*3 -6.1 C 0 km/h
2978 08-03-2010 04:27:05 -6.4 C 1.72 g/m*3 -6.4 C 0 km/h
2979 08-03-2010 04:39:05 -6.4 C 1.75 g/m*3 -6.4 C 0 km/h
2980 08-03-2010 04:51:05 -6.6 C 1.73 g/m*3 -6.6 C 0 km/h
2981 08-03-2010 05:03:05 -6.6 C 1.73 g/m*3 -6.6 C 0 km/h
2982 08-03-2010 05:15:05 -6.8 C 1.73 g/m*3 -6.8 C 0 km/h
2983 08-03-2010 05:27:05 -6.9 C 1.75 g/m*3 -6.9 C 0 km/h
2984 08-03-2010 05:39:05 -7.1 C 1.72 g/m*3 -7.1 C 0 km/h
2985 08-03-2010 05:51:05 -7.2 C 1.74 g/m*3 -7.2 C 0 km/h
2986 08-03-2010 06:03:05 -7.3 C 1.76 g/m*3 -7.3 C 0 km/h
2987 08-03-2010 06:15:05 -7.3 C 1.76 g/m*3 -7.3 C 0 km/h
2988 08-03-2010 06:27:05 -7.3 C 1.76 g/m*3 -7.3 C 0 km/h
2989 08-03-2010 06:39:05 -7.2 C 1.83 g/m*3 -7.2 C 0 km/h
2990 08-03-2010 06:51:05 -7.4 C 1.83 g/m*3 -7.4 C 0 km/h
2991 08-03-2010 07:03:02 -7.4 C 1.83 g/m*3 -7.4 C 0 km/h
2992 08-03-2010 07:15:03 -7.5 C 1.82 g/m*3 -7.5 C 0 km/h
2993 08-03-2010 07:27:03 -7.3 C 1.9 g/m*3 -7.3 C 0 km/h
2994 08-03-2010 07:39:03 -7 C 1.97 g/m*3 -7 C 0 km/h
2995 08-03-2010 07:51:01 -6.5 C 2.05 g/m*3 -6.5 C 0 km/h
2996 08-03-2010 08:03:01 -6.1 C 2.11 g/m*3 -6.1 C 0 km/h
2997 08-03-2010 08:15:01 -5.8 C 2.09 g/m*3 -5.8 C 0 km/h
2998 08-03-2010 08:27:01 -5.3 C 2.1 g/m*3 -5.3 C 0 km/h
2999 08-03-2010 08:39:02 -5 C 2.08 g/m*3 -5 C 0 km/h
3000 08-03-2010 08:51:02 -4.5 C 2.12 g/m*3 -4.5 C 0 km/h
Sensor: Nr:Datum:Temp:Abs-Feuchte:Windchill:Wind:
Aussen-T/F 3001 08-03-2010 09:03:02 -4.2 C 2.02 g/m*3 -4.2 C 0 km/h
3002 08-03-2010 09:15:02 -3.7 C 2.06 g/m*3 -3.7 C 0 km/h
3003 08-03-2010 09:27:02 -3.1 C 2.15 g/m*3 -3.1 C 0 km/h
3004 08-03-2010 09:39:02 -2.5 C 2.12 g/m*3 -2.5 C 0 km/h
3005 08-03-2010 09:51:02 -2.1 C 2.01 g/m*3 -2.1 C 0 km/h
3006 08-03-2010 10:03:01 -1.7 C 2.02 g/m*3 -1.7 C 0 km/h
3007 08-03-2010 10:15:01 -1.3 C 1.99 g/m*3 -1.3 C 0 km/h
3008 08-03-2010 10:27:01 -0.6 C 1.95 g/m*3 -0.6 C 0 km/h
3009 08-03-2010 10:39:02 0 C 1.94 g/m*3 0 C 0 km/h
3010 08-03-2010 10:51:02 0.4 C 1.74 g/m*3 0.4 C 0 km/h
3011 08-03-2010 11:03:01 0.7 C 1.78 g/m*3 0.7 C 0 km/h
3012 08-03-2010 11:15:02 1.1 C 1.83 g/m*3 1.1 C 0 km/h
3013 08-03-2010 11:27:02 1.3 C 1.7 g/m*3 1.3 C 0 km/h
3014 08-03-2010 11:39:02 1.7 C 1.85 g/m*3 1.7 C 0 km/h
3015 08-03-2010 11:51:01 2.4 C 1.77 g/m*3 2.4 C 0 km/h
3016 08-03-2010 12:03:02 2.6 C 1.62 g/m*3 2.6 C 0 km/h
3017 08-03-2010 12:15:01 3.1 C 1.68 g/m*3 3.1 C 0 km/h
3018 08-03-2010 12:27:01 3.2 C 1.63 g/m*3 3.2 C 0 km/h
3019 08-03-2010 12:39:02 3.4 C 1.53 g/m*3 3.4 C 0 km/h
3020 08-03-2010 12:51:02 3.2 C 1.39 g/m*3 3.2 C 0 km/h
3021 08-03-2010 13:03:02 3.2 C 1.51 g/m*3 3.2 C 0 km/h
3022 08-03-2010 13:15:02 3.6 C 1.61 g/m*3 3.6 C 0 km/h
3023 08-03-2010 13:27:02 4.5 C 1.31 g/m*3 4.5 C 0 km/h
3024 08-03-2010 13:39:02 4.9 C 1.35 g/m*3 4.9 C 0 km/h
3025 08-03-2010 13:51:02 4.9 C 1.35 g/m*3 4.9 C 0 km/h
Sensor: Nr:Datum:Temp:Abs-Feuchte:Windchill:Wind:
Aussen-T/F 3026 08-03-2010 14:03:02 4.8 C 1.34 g/m*3 4.8 C 0 km/h
3027 08-03-2010 14:15:02 3.9 C 1.26 g/m*3 3.9 C 0 km/h
3028 08-03-2010 14:27:02 3.5 C 1.41 g/m*3 3.5 C 0 km/h
3029 08-03-2010 14:39:02 3.8 C 1.44 g/m*3 3.8 C 0 km/h
3030 08-03-2010 14:51:02 4.6 C 1.32 g/m*3 4.6 C 0 km/h
3031 08-03-2010 15:03:01 4.3 C 1.3 g/m*3 4.3 C 0 km/h
3032 08-03-2010 15:15:02 4.9 C 1.35 g/m*3 4.9 C 0 km/h
3033 08-03-2010 15:27:02 5.1 C 1.37 g/m*3 5.1 C 0 km/h
3034 08-03-2010 15:39:01 6.4 C 1.49 g/m*3 6.4 C 0 km/h
3035 08-03-2010 15:51:02 6.7 C 1.52 g/m*3 6.7 C 0 km/h
3036 08-03-2010 16:03:01 6.5 C 1.5 g/m*3 6.5 C 0 km/h
3037 08-03-2010 16:15:02 6.6 C 1.51 g/m*3 6.6 C 0 km/h
3038 08-03-2010 16:27:02 6.9 C 1.54 g/m*3 6.9 C 0 km/h
3039 08-03-2010 16:39:01 6.7 C 1.52 g/m*3 6.7 C 0 km/h
3040 08-03-2010 16:51:02 6.4 C 1.49 g/m*3 6.4 C 0 km/h
3041 08-03-2010 17:03:02 6.2 C 1.47 g/m*3 6.2 C 0 km/h
3042 08-03-2010 17:15:02 6.3 C 1.48 g/m*3 6.3 C 0 km/h
3043 08-03-2010 17:27:02 5.8 C 1.43 g/m*3 5.8 C 0 km/h
3044 08-03-2010 17:39:02 4.6 C 1.32 g/m*3 4.6 C 0 km/h
3045 08-03-2010 17:51:02 4.2 C 1.29 g/m*3 4.2 C 0 km/h
3046 08-03-2010 18:03:02 3.7 C 1.56 g/m*3 3.7 C 0 km/h
3047 08-03-2010 18:15:01 2.9 C 1.71 g/m*3 2.9 C 0 km/h
3048 08-03-2010 18:27:01 1.8 C 1.75 g/m*3 1.8 C 0 km/h
3049 08-03-2010 18:39:02 1.4 C 1.87 g/m*3 1.4 C 0 km/h
3050 08-03-2010 18:51:02 0.7 C 2.03 g/m*3 0.7 C 0 km/h
Sensor: Nr:Datum:Temp:Abs-Feuchte:Windchill:Wind:
Aussen-T/F 3051 08-03-2010 19:03:02 0.4 C 2.04 g/m*3 0.4 C 0 km/h
3052 08-03-2010 19:15:02 0.1 C 2.1 g/m*3 0.1 C 0 km/h
3053 08-03-2010 19:27:02 -0.2 C 2.15 g/m*3 -0.2 C 0 km/h
3054 08-03-2010 19:39:02 -0.3 C 2.04 g/m*3 -0.3 C 0 km/h
3055 08-03-2010 19:51:01 -0.3 C 1.99 g/m*3 -0.3 C 0 km/h
3056 08-03-2010 20:03:02 -0.6 C 2 g/m*3 -0.6 C 0 km/h
3057 08-03-2010 20:15:01 -0.7 C 2.08 g/m*3 -0.7 C 0 km/h
3058 08-03-2010 20:27:01 -1.1 C 2.11 g/m*3 -1.1 C 0 km/h
3059 08-03-2010 20:39:01 -1.2 C 2.1 g/m*3 -1.2 C 0 km/h
3060 08-03-2010 20:51:01 -1.4 C 2.15 g/m*3 -1.4 C 0 km/h
3061 08-03-2010 21:03:02 -1.4 C 2.15 g/m*3 -1.4 C 0 km/h
3062 08-03-2010 21:15:01 -1.5 C 2.18 g/m*3 -1.5 C 0 km/h
3063 08-03-2010 21:27:01 -1.3 C 2.26 g/m*3 -1.3 C 0 km/h
3064 08-03-2010 21:40:03 -1.3 C 2.26 g/m*3 -1.3 C 0 km/h
3065 08-03-2010 21:52:03 -1.2 C 2.32 g/m*3 -1.2 C 0 km/h
3066 08-03-2010 22:04:03 -1.2 C 2.36 g/m*3 -1.2 C 0 km/h
3067 08-03-2010 22:16:03 -1.2 C 2.32 g/m*3 -1.2 C 0 km/h
3068 08-03-2010 22:28:03 -1.1 C 2.24 g/m*3 -1.1 C 0 km/h
3069 08-03-2010 22:40:03 -0.9 C 2.09 g/m*3 -0.9 C 0 km/h
3070 08-03-2010 22:52:03 -1 C 2.08 g/m*3 -1 C 0 km/h
3071 08-03-2010 23:04:03 -1.4 C 2.07 g/m*3 -1.4 C 0 km/h
3072 08-03-2010 23:16:04 -1.8 C 2.05 g/m*3 -1.8 C 0 km/h
3073 08-03-2010 23:28:04 -1.9 C 2.04 g/m*3 -1.9 C 0 km/h
3074 08-03-2010 23:40:04 -1.9 C 2.08 g/m*3 -1.9 C 0 km/h
3075 08-03-2010 23:52:04 -2 C 2.11 g/m*3 -2 C 0 km/h
Sensor: Nr:Datum:Temp:Abs-Feuchte:Windchill:Wind:
Aussen-T/F 3076 09-03-2010 00:04:04 -2.1 C 2.13 g/m*3 -2.1 C 0 km/h
3077 09-03-2010 00:16:04 -2.2 C 2.12 g/m*3 -2.2 C 0 km/h
3078 09-03-2010 00:28:04 -2.4 C 2.09 g/m*3 -2.4 C 0 km/h
3079 09-03-2010 00:40:04 -2.4 C 2.09 g/m*3 -2.4 C 0 km/h
3080 09-03-2010 00:52:04 -2.6 C 2.14 g/m*3 -2.6 C 0 km/h
3081 09-03-2010 01:04:04 -2.8 C 2.15 g/m*3 -2.8 C 0 km/h
3082 09-03-2010 01:16:04 -3 C 2.2 g/m*3 -3 C 0 km/h
3083 09-03-2010 01:28:04 -3.1 C 2.22 g/m*3 -3.1 C 0 km/h
3084 09-03-2010 01:40:04 -3.2 C 2.21 g/m*3 -3.2 C 0 km/h
3085 09-03-2010 01:52:04 -3.3 C 2.19 g/m*3 -3.3 C 0 km/h
3086 09-03-2010 02:04:04 -3.4 C 2.18 g/m*3 -3.4 C 0 km/h
3087 09-03-2010 02:16:05 -3.4 C 2.21 g/m*3 -3.4 C 0 km/h
3088 09-03-2010 02:28:05 -3.3 C 2.23 g/m*3 -3.3 C 0 km/h
3089 09-03-2010 02:40:05 -3.3 C 2.23 g/m*3 -3.3 C 0 km/h
3090 09-03-2010 02:52:05 -3.5 C 2.24 g/m*3 -3.5 C 0 km/h
3091 09-03-2010 03:04:05 -3.7 C 2.24 g/m*3 -3.7 C 0 km/h
3092 09-03-2010 03:16:05 -3.8 C 2.23 g/m*3 -3.8 C 0 km/h
3093 09-03-2010 03:28:05 -3.9 C 2.25 g/m*3 -3.9 C 0 km/h
3094 09-03-2010 03:40:05 -4 C 2.27 g/m*3 -4 C 0 km/h
3095 09-03-2010 03:52:05 -4.1 C 2.29 g/m*3 -4.1 C 0 km/h
3096 09-03-2010 04:04:05 -4.2 C 2.27 g/m*3 -4.2 C 0 km/h
3097 09-03-2010 04:16:05 -4.3 C 2.29 g/m*3 -4.3 C 0 km/h
3098 09-03-2010 04:28:05 -4.5 C 2.22 g/m*3 -4.5 C 0 km/h
3099 09-03-2010 04:40:05 -4.5 C 2.19 g/m*3 -4.5 C 0 km/h
3100 09-03-2010 04:52:05 -4.5 C 2.19 g/m*3 -4.5 C 0 km/h
Sensor: Nr:Datum:Temp:Abs-Feuchte:Windchill:Wind:
Aussen-T/F 3101 09-03-2010 05:04:05 -4.6 C 2.17 g/m*3 -4.6 C 0 km/h
3102 09-03-2010 05:16:05 -4.7 C 2.16 g/m*3 -4.7 C 0 km/h
3103 09-03-2010 05:28:05 -4.8 C 2.14 g/m*3 -4.8 C 0 km/h
3104 09-03-2010 05:40:05 -4.9 C 2.16 g/m*3 -4.9 C 0 km/h
3105 09-03-2010 05:52:05 -4.9 C 2.16 g/m*3 -4.9 C 0 km/h
3106 09-03-2010 06:04:05 -4.8 C 2.14 g/m*3 -4.8 C 0 km/h
3107 09-03-2010 06:16:05 -4.8 C 2.14 g/m*3 -4.8 C 0 km/h
3108 09-03-2010 06:28:05 -4.9 C 2.13 g/m*3 -4.9 C 0 km/h
3109 09-03-2010 06:40:06 -5.2 C 2.08 g/m*3 -5.2 C 0 km/h
3110 09-03-2010 06:52:06 -5.3 C 2.07 g/m*3 -5.3 C 0 km/h
3111 09-03-2010 07:04:03 -5.6 C 2.05 g/m*3 -5.6 C 0 km/h
3112 09-03-2010 07:16:03 -5.6 C 2.09 g/m*3 -5.6 C 0 km/h
3113 09-03-2010 07:28:03 -5.4 C 2.15 g/m*3 -5.4 C 0 km/h
3114 09-03-2010 07:40:03 -5.3 C 2.17 g/m*3 -5.3 C 0 km/h
3115 09-03-2010 07:52:02 -5.3 C 2.17 g/m*3 -5.3 C 0 km/h
3116 09-03-2010 08:04:02 -5.2 C 2.18 g/m*3 -5.2 C 0 km/h
3117 09-03-2010 08:16:02 -5 C 2.18 g/m*3 -5 C 0 km/h
3118 09-03-2010 08:28:02 -4.9 C 2.16 g/m*3 -4.9 C 0 km/h
3119 09-03-2010 08:40:02 -4.8 C 2.14 g/m*3 -4.8 C 0 km/h
3120 09-03-2010 08:52:02 -4.7 C 2.16 g/m*3 -4.7 C 0 km/h
3121 09-03-2010 09:04:01 -4.5 C 2.19 g/m*3 -4.5 C 0 km/h
3122 09-03-2010 09:16:02 -4.2 C 2.16 g/m*3 -4.2 C 0 km/h
3123 09-03-2010 09:28:02 -3.9 C 2.17 g/m*3 -3.9 C 0 km/h
3124 09-03-2010 09:40:01 -3.4 C 2.18 g/m*3 -3.4 C 0 km/h
3125 09-03-2010 09:52:02 -2.7 C 2.13 g/m*3 -2.7 C 0 km/h
Sensor: Nr:Datum:Temp:Abs-Feuchte:Windchill:Wind:
Aussen-T/F 3126 09-03-2010 10:04:01 -2.4 C 2.09 g/m*3 -2.4 C 0 km/h
3127 09-03-2010 10:16:01 -1.9 C 2.08 g/m*3 -1.9 C 0 km/h
3128 09-03-2010 10:28:01 -1.2 C 2.05 g/m*3 -1.2 C 0 km/h
3129 09-03-2010 10:40:02 -0.7 C 1.94 g/m*3 -0.7 C 0 km/h
3130 09-03-2010 10:52:02 -0.4 C 1.84 g/m*3 -0.4 C 0 km/h
3131 09-03-2010 11:04:01 -0.1 C 1.73 g/m*3 -0.1 C 0 km/h
3132 09-03-2010 11:16:02 0.3 C 1.63 g/m*3 0.3 C 0 km/h
3133 09-03-2010 11:28:02 0.5 C 1.5 g/m*3 0.5 C 0 km/h
3134 09-03-2010 11:40:02 0.5 C 1.3 g/m*3 0.5 C 0 km/h
3135 09-03-2010 11:52:01 0.8 C 1.28 g/m*3 0.8 C 0 km/h
3136 09-03-2010 12:04:02 1 C 1.09 g/m*3 1 C 0 km/h
3137 09-03-2010 12:16:01 1.3 C 1.06 g/m*3 1.3 C 0 km/h
3138 09-03-2010 12:28:01 1.6 C 1.14 g/m*3 1.6 C 0 km/h
3139 09-03-2010 12:40:02 1.8 C 1.1 g/m*3 1.8 C 0 km/h
3140 09-03-2010 12:52:02 2.2 C 1.13 g/m*3 2.2 C 0 km/h
3141 09-03-2010 13:04:02 2.2 C 1.13 g/m*3 2.2 C 0 km/h
3142 09-03-2010 13:16:01 2.9 C 1.18 g/m*3 2.9 C 0 km/h
3143 09-03-2010 13:28:01 3.2 C 1.21 g/m*3 3.2 C 0 km/h
3144 09-03-2010 13:40:02 3.5 C 1.23 g/m*3 3.5 C 0 km/h
3145 09-03-2010 13:52:02 3.7 C 1.25 g/m*3 3.7 C 0 km/h
3146 09-03-2010 14:04:02 3.9 C 1.26 g/m*3 3.9 C 0 km/h
3147 09-03-2010 14:16:02 4.5 C 1.31 g/m*3 4.5 C 0 km/h
3148 09-03-2010 14:28:02 4.9 C 1.35 g/m*3 4.9 C 0 km/h
3149 09-03-2010 14:40:02 5.3 C 1.39 g/m*3 5.3 C 0 km/h
3150 09-03-2010 14:52:02 5.7 C 1.42 g/m*3 5.7 C 0 km/h
Sensor: Nr:Datum:Temp:Abs-Feuchte:Windchill:Wind:
Aussen-T/F 3151 09-03-2010 15:04:02 5.7 C 1.42 g/m*3 5.7 C 0 km/h
3152 09-03-2010 15:16:02 5.7 C 1.42 g/m*3 5.7 C 0 km/h
3153 09-03-2010 15:28:02 5.7 C 1.42 g/m*3 5.7 C 0 km/h
3154 09-03-2010 15:40:02 6.2 C 1.47 g/m*3 6.2 C 0 km/h
3155 09-03-2010 15:52:02 6 C 1.45 g/m*3 6 C 0 km/h
3156 09-03-2010 16:04:02 5.9 C 1.44 g/m*3 5.9 C 0 km/h
3157 09-03-2010 16:16:02 5.8 C 1.43 g/m*3 5.8 C 0 km/h
3158 09-03-2010 16:28:02 6.3 C 1.48 g/m*3 6.3 C 0 km/h
3159 09-03-2010 16:40:02 6.3 C 1.48 g/m*3 6.3 C 0 km/h
3160 09-03-2010 16:52:02 6.2 C 1.47 g/m*3 6.2 C 0 km/h
3161 09-03-2010 17:04:02 5.5 C 1.4 g/m*3 5.5 C 0 km/h
3162 09-03-2010 17:16:03 5.2 C 1.38 g/m*3 5.2 C 0 km/h
3163 09-03-2010 17:28:03 4.8 C 1.34 g/m*3 4.8 C 0 km/h
3164 09-03-2010 17:40:02 4.4 C 1.31 g/m*3 4.4 C 0 km/h
3165 09-03-2010 17:52:02 4 C 1.27 g/m*3 4 C 0 km/h
3166 09-03-2010 18:04:02 3.2 C 1.21 g/m*3 3.2 C 0 km/h
3167 09-03-2010 18:16:02 2.4 C 1.14 g/m*3 2.4 C 0 km/h
3168 09-03-2010 18:28:02 1.5 C 1.07 g/m*3 1.5 C 0 km/h
3169 09-03-2010 18:40:02 1.1 C 1.05 g/m*3 1.1 C 0 km/h
3170 09-03-2010 18:52:02 0.7 C 1.02 g/m*3 0.7 C 0 km/h
3171 09-03-2010 19:04:02 0.5 C 1 g/m*3 0.5 C 0 km/h
3172 09-03-2010 19:16:02 0.2 C 0.98 g/m*3 0.2 C 0 km/h
3173 09-03-2010 19:28:02 -0.1 C 0.96 g/m*3 -0.1 C 0 km/h
3174 09-03-2010 19:40:02 -0.3 C 0.95 g/m*3 -0.3 C 0 km/h
3175 09-03-2010 19:52:02 -0.6 C 0.93 g/m*3 -0.6 C 0 km/h
Sensor: Nr:Datum:Temp:Abs-Feuchte:Windchill:Wind:
Aussen-T/F 3176 09-03-2010 20:04:01 -0.6 C 0.93 g/m*3 -0.6 C 0 km/h
3177 09-03-2010 20:16:02 -0.8 C 0.92 g/m*3 -0.8 C 0 km/h
3178 09-03-2010 20:28:03 -1.2 C 0.89 g/m*3 -1.2 C 0 km/h
3179 09-03-2010 20:40:01 -1.4 C 0.88 g/m*3 -1.4 C 0 km/h
3180 09-03-2010 20:52:02 -1.5 C 0.92 g/m*3 -1.5 C 0 km/h
3181 09-03-2010 21:04:01 -1.7 C 0.9 g/m*3 -1.7 C 0 km/h
3182 09-03-2010 21:16:02 -1.7 C 0.86 g/m*3 -1.7 C 0 km/h
3183 09-03-2010 21:28:02 -1.9 C 0.85 g/m*3 -1.9 C 0 km/h
3184 09-03-2010 21:40:02 -1.8 C 0.85 g/m*3 -1.8 C 0 km/h
3185 09-03-2010 21:52:02 -1.9 C 0.85 g/m*3 -1.9 C 0 km/h
3186 09-03-2010 22:04:02 -1.8 C 0.85 g/m*3 -1.8 C 0 km/h
3187 09-03-2010 22:16:02 -1.7 C 0.86 g/m*3 -1.7 C 0 km/h
3188 09-03-2010 22:28:02 -1.7 C 0.86 g/m*3 -1.7 C 0 km/h
3189 09-03-2010 22:40:02 -1.8 C 0.85 g/m*3 -1.8 C 0 km/h
3190 09-03-2010 22:52:02 -1.8 C 0.9 g/m*3 -1.8 C 0 km/h
3191 09-03-2010 23:05:02 -2 C 1.1 g/m*3 -2 C 0 km/h
3192 09-03-2010 23:17:02 -2.3 C 1.24 g/m*3 -2.3 C 0 km/h
3193 09-03-2010 23:29:02 -2.4 C 1.27 g/m*3 -2.4 C 0 km/h
3194 09-03-2010 23:41:02 -2.5 C 1.34 g/m*3 -2.5 C 0 km/h
3195 09-03-2010 23:53:02 -2.6 C 1.41 g/m*3 -2.6 C 0 km/h
3196 10-03-2010 00:05:02 -2.7 C 1.48 g/m*3 -2.7 C 0 km/h
3197 10-03-2010 00:17:02 -2.8 C 1.55 g/m*3 -2.8 C 0 km/h
3198 10-03-2010 00:29:02 -2.7 C 1.56 g/m*3 -2.7 C 0 km/h
3199 10-03-2010 00:41:02 -2.6 C 1.58 g/m*3 -2.6 C 0 km/h
3200 10-03-2010 00:53:02 -2.7 C 1.6 g/m*3 -2.7 C 0 km/h
Sensor: Nr:Datum:Temp:Abs-Feuchte:Windchill:Wind:
Aussen-T/F 3201 10-03-2010 01:05:03 -3 C 1.65 g/m*3 -3 C 0 km/h
3202 10-03-2010 01:17:03 -3.1 C 1.68 g/m*3 -3.1 C 0 km/h
3203 10-03-2010 01:29:03 -3.2 C 1.7 g/m*3 -3.2 C 0 km/h
3204 10-03-2010 01:41:03 -3 C 1.73 g/m*3 -3 C 0 km/h
3205 10-03-2010 01:53:03 -3.4 C 1.72 g/m*3 -3.4 C 0 km/h
3206 10-03-2010 02:05:03 -3.4 C 1.76 g/m*3 -3.4 C 0 km/h
3207 10-03-2010 02:17:03 -3.5 C 1.74 g/m*3 -3.5 C 0 km/h
3208 10-03-2010 02:29:03 -3.6 C 1.77 g/m*3 -3.6 C 0 km/h
3209 10-03-2010 02:41:03 -3.8 C 1.78 g/m*3 -3.8 C 0 km/h
3210 10-03-2010 02:53:03 -3.8 C 1.78 g/m*3 -3.8 C 0 km/h
3211 10-03-2010 03:05:03 -3.8 C 1.78 g/m*3 -3.8 C 0 km/h
3212 10-03-2010 03:17:03 -3.8 C 1.82 g/m*3 -3.8 C 0 km/h
3213 10-03-2010 03:29:03 -3.9 C 1.81 g/m*3 -3.9 C 0 km/h
3214 10-03-2010 03:41:03 -3.9 C 1.77 g/m*3 -3.9 C 0 km/h
3215 10-03-2010 03:53:03 -3.9 C 1.77 g/m*3 -3.9 C 0 km/h
3216 10-03-2010 04:05:03 -3.6 C 1.81 g/m*3 -3.6 C 0 km/h
3217 10-03-2010 04:17:03 -3.5 C 1.78 g/m*3 -3.5 C 0 km/h
3218 10-03-2010 04:29:03 -3.5 C 1.74 g/m*3 -3.5 C 0 km/h
3219 10-03-2010 04:41:03 -3.5 C 1.74 g/m*3 -3.5 C 0 km/h
3220 10-03-2010 04:53:03 -3.5 C 1.71 g/m*3 -3.5 C 0 km/h
3221 10-03-2010 05:05:03 -3.6 C 1.69 g/m*3 -3.6 C 0 km/h
3222 10-03-2010 05:17:03 -3.5 C 1.71 g/m*3 -3.5 C 0 km/h
3223 10-03-2010 05:29:04 -3.5 C 1.71 g/m*3 -3.5 C 0 km/h
3224 10-03-2010 05:41:04 -3.5 C 1.71 g/m*3 -3.5 C 0 km/h
3225 10-03-2010 05:53:04 -3.4 C 1.68 g/m*3 -3.4 C 0 km/h
Sensor: Nr:Datum:Temp:Abs-Feuchte:Windchill:Wind:
Aussen-T/F 3226 10-03-2010 06:05:04 -3.6 C 1.66 g/m*3 -3.6 C 0 km/h
3227 10-03-2010 06:17:04 -3.6 C 1.69 g/m*3 -3.6 C 0 km/h
3228 10-03-2010 06:29:04 -3.9 C 1.69 g/m*3 -3.9 C 0 km/h
3229 10-03-2010 06:41:04 -3.8 C 1.67 g/m*3 -3.8 C 0 km/h
3230 10-03-2010 06:53:04 -3.7 C 1.68 g/m*3 -3.7 C 0 km/h
3231 10-03-2010 07:05:02 -3.7 C 1.68 g/m*3 -3.7 C 0 km/h
3232 10-03-2010 07:17:02 -3.6 C 1.69 g/m*3 -3.6 C 0 km/h
3233 10-03-2010 07:29:02 -3.6 C 1.69 g/m*3 -3.6 C 0 km/h
3234 10-03-2010 07:41:02 -3.4 C 1.72 g/m*3 -3.4 C 0 km/h
3235 10-03-2010 07:53:02 -3 C 1.69 g/m*3 -3 C 0 km/h
3236 10-03-2010 08:05:02 -2.7 C 1.69 g/m*3 -2.7 C 0 km/h
3237 10-03-2010 08:17:02 -2.5 C 1.67 g/m*3 -2.5 C 0 km/h
3238 10-03-2010 08:29:02 -2.1 C 1.67 g/m*3 -2.1 C 0 km/h
3239 10-03-2010 08:41:02 -1.8 C 1.62 g/m*3 -1.8 C 0 km/h
3240 10-03-2010 08:53:02 -1.3 C 1.51 g/m*3 -1.3 C 0 km/h
3241 10-03-2010 09:05:02 -1 C 1.4 g/m*3 -1 C 0 km/h
3242 10-03-2010 09:17:02 -0.8 C 1.38 g/m*3 -0.8 C 0 km/h
3243 10-03-2010 09:29:02 -0.4 C 1.23 g/m*3 -0.4 C 0 km/h
3244 10-03-2010 09:41:01 -0.1 C 1.2 g/m*3 -0.1 C